Daftar Advokat

No. No. Urut Nama Lengkap Tempat, Tgl Lahir Agama Asal Kota Nomor SK Pengangkatan Advokat Dari Asosiasi Tanggal SK Tahun Penyumpahan Nomor BAS oleh PT Tanggal BAS Asal Asosiasi Action
1 1 ABDUL GAPUR, S.H. BANJARMASIN - 25 Mei 1962 Islam Samarinda Kep.23.07-X.2015 2015-10-15 2015 W18-U/01/HK.01.10/XI/2015 2015-11-09 PERKUMPULAN ADVOKAT INDONESIA (PERADIN)
2 2 AGUS WIJAYANTO, S.H. NGAWI - 13 Agust 1975 Islam Balikpapan Kep.23.016-X.2015 2015-10-15 2015 W18-U/02/HK.01.10/XI/2015 2015-11-09 PERKUMPULAN ADVOKAT INDONESIA (PERADIN)
3 3 BAMBANG, S.H. TELUK BETUNG - 28 Agust 1967 Islam Samarinda Kep.23.09-X.2015 2015-10-15 2015 W18-U/03/HK.01.10/XI/2015 2015-11-09 PERKUMPULAN ADVOKAT INDONESIA (PERADIN)
4 4 EDI RAMADHAN, S.H. BALIKPAPAN - 18 Mei 1987 Islam Balikpapan 0567/SK/VIII/2014/DPP 2014-08-20 2015 W18-U/04/HK.01.10/XI/2015 2015-11-09 PERKUMPULAN ADVOKAT INDONESIA (PERADIN)
5 5 FAJRIANNUR, S.H. SAMARINDA - 08 Nov 1987 Islam Samarinda Kep.23.04-X.2015 2015-10-15 2015 W18-U/05/HK.01.10/XI/2015 2015-11-09 PERKUMPULAN ADVOKAT INDONESIA (PERADIN)
6 6 H. ABDUL MUIN A. KARIM, S.H. SIDOMUKTI - 18 Nov 1951 Islam Samarinda Kep.23.08-X.2015 2015-10-15 2015 W18-U/06/HK.01.10/XI/2015 2015-11-09 PERKUMPULAN ADVOKAT INDONESIA (PERADIN)
7 7 IMRAN KURNIAWAN SILALAHI, S.H. SIDAMANIK - 14 Okt 1986 Kristen Protestan Samarinda Kep.23.05-X.2015 2015-10-15 2015 W18-U/07/HK.01.10/XI/2015 2015-11-09 PERKUMPULAN ADVOKAT INDONESIA (PERADIN)
8 8 ITA MARUF, S.H., S.Ag. LONGKALI - 12 Mei 1974 Islam Balikpapan Kep.23.014-X.2015 2015-10-15 2015 W18-U/08/HK.01.10/XI/2015 2015-11-09 PERKUMPULAN ADVOKAT INDONESIA (PERADIN)
9 9 LA RUMAJA, S.H. KOMBELI - 01 Nov 1971 Islam Samarinda Kep.23.03-X.2015 2015-10-15 2015 W18-U/09/HK.01.10/XI/2015 2015-11-09 PERKUMPULAN ADVOKAT INDONESIA (PERADIN)
10 10 MAHYUDDIN, S.H. BANJARMASIN - 08 Juli 1965 Islam Samarinda Kep.23.10-X.2015 2015-10-15 2015 W18-U/10/HK.01.10/XI/2015 2015-11-09 PERKUMPULAN ADVOKAT INDONESIA (PERADIN)
11 11 MUKHYAR, S.H. AMUNTAI - 18 Nov 1962 Islam Samarinda Kep.23.011-X.2015 2015-10-15 2015 W18-U/11/HK.01.10/XI/2015 2015-11-09 PERKUMPULAN ADVOKAT INDONESIA (PERADIN)
12 12 OKTAVIANUS NABU, S.H LANSESE - 19 Des 1970 Kristen Katholik Kutai Barat Kep.23.13-X.2015 2015-10-15 2015 W18-U/12/HK.01.10/XI/2015 2015-11-09 PERKUMPULAN ADVOKAT INDONESIA (PERADIN)
13 13 PIUS PATI MOLAN, S.H. MUARA JAWAQ - 15 Des 1983 Kristen Katholik Tanjung Redeb Kep.23.17-X.2015 2015-10-15 2015 W18-U/13/HK.01.10/XI/2015 2015-11-09 PERKUMPULAN ADVOKAT INDONESIA (PERADIN)
14 14 SUKARMAN, S.H. PATI - 17 Des 1959 Islam Samarinda Kep.23.02-X.2015 2015-10-15 2015 W18-U/14/HK.01.10/XI/2015 2015-11-09 PERKUMPULAN ADVOKAT INDONESIA (PERADIN)
15 15 SUPIANSYAH, S.E., S.H. AMUNTAI - 01 Agust 1967 Islam Samarinda Kep.23.06-X.2015 2015-10-15 2015 W18-U/15/HK.01.10/XI/2015 2015-11-09 PERKUMPULAN ADVOKAT INDONESIA (PERADIN)
16 16 SYAIT GOLIF ALATAS, S.H. SANGA-SANGA - 02 Juli 1985 Islam Tenggarong Kep.23.12-X.2015 2015-10-15 2015 W18-U/16/HK.01.10/XI/2015 2015-11-09 PERKUMPULAN ADVOKAT INDONESIA (PERADIN)
17 17 YOHANES KUNTO WIBISONO, S.H. NGAWI - 13 Sept 1965 Islam Samarinda Kep.23.01-X.2015 2015-10-15 2015 W18-U/17/HK.01.10/XI/2015 2015-11-09 PERKUMPULAN ADVOKAT INDONESIA (PERADIN)
18 18 ABDUL KHALID, A.md, S.H. SAMPANG - 17 Des 1982 Islam Samarinda 04089/023/SK-ADV/KAI/IX/2013 2013-09-04 2015 W18-U/18/HK.01.10/XI/2015 2015-11-17 KONGRES ADVOKAT INDONESIA (KAI) VERSI INDRA SAHNUN LUBIS
19 19 ABDULLAH WADIPALAPA, S.H. UJUNG PANDANG - 16 Juni 1944 Islam Balikpapan 4160/KEP-ADV/DPP-KAI/IV/2009 2009-04-27 2015 W18-U/19/HK.01.10/XI/2015 2015-11-17 KONGRES ADVOKAT INDONESIA (KAI) VERSI INDRA SAHNUN LUBIS
20 20 H. ABDUL HAKIM, S.H. JENEPONTO - 09 Sept 1955 Islam Sangatta 00742/023/SK-ADV/KAI/VI/2010 2010-06-20 2015 W18-U/20/HK.01.10/XI/2015 2015-11-17 KONGRES ADVOKAT INDONESIA (KAI) VERSI INDRA SAHNUN LUBIS
21 21 ADAM JAMALUDDIN, S.H. JAKARTA - 01 Apr 1983 Islam Sangatta 03482/023/SK-ADV/KAI/VI/2013 2013-06-22 2015 W18-U/21/HK.01.10/XI/2015 2015-11-17 KONGRES ADVOKAT INDONESIA (KAI) VERSI INDRA SAHNUN LUBIS
22 22 ADAM WIJAYA, S.H. SAMARINDA - 19 Des 1983 Islam Samarinda 4132/KEP-ADV/DPP-KAI/IV/2009 2009-04-27 2015 W18-U/22/HK.01.10/XI/2015 2015-11-17 KONGRES ADVOKAT INDONESIA (KAI) VERSI INDRA SAHNUN LUBIS
23 23 ADI SURAHMAN, S.H. BALIKPAPAN - 12 Sept 1982 Islam Balikpapan 00739/023/SK/ADV/KAI/VI/2010 2010-06-20 2015 W18-U/23/HK.01.10/XI/2015 2015-11-17 KONGRES ADVOKAT INDONESIA (KAI) VERSI INDRA SAHNUN LUBIS
24 24 ADMA SURYADI, S.H. KUTAI BARAT - 05 Nov 1979 Kristen Katholik Samarinda 04103/023/SK-ADV/IX/2013 2013-09-04 2015 W18-U/24/HK.01.10/XI/2015 2015-11-17 KONGRES ADVOKAT INDONESIA (KAI) VERSI INDRA SAHNUN LUBIS
25 25 AGUSTINUS ARIF JUONO, S.H. SOK RUTUNG - 21 Agust 1984 Kristen Katholik Samarinda 03716/023/SK-ADV/KAI/IX/2013 2013-09-04 2015 W18-U/25/HK.01.10/XI/2015 2015-11-17 KONGRES ADVOKAT INDONESIA (KAI) VERSI INDRA SAHNUN LUBIS
26 26 AGNES DIRGAHANI, S.H. BEKASI - 17 Agust 1987 Islam Samarinda 03484/023/SK-ADV/KAI/VI/2013 2013-06-22 2015 W18-U/26/HK.01.10/XI/2015 2015-11-17 KONGRES ADVOKAT INDONESIA (KAI) VERSI INDRA SAHNUN LUBIS
27 27 AGUS SHALI, S.H. JEMBER - 28 Des 1979 Islam Tenggarong 03536/023/SK-ADV/KAI/VI/2013 2013-06-22 2015 W18-U/27/HK.01.10/XI/2015 2015-11-17 KONGRES ADVOKAT INDONESIA (KAI) VERSI INDRA SAHNUN LUBIS
28 28 AJI ASTRAWINATA, S.H. TANJUNG REDEB - 02 Mei 1981 Islam Samarinda 03542/023/SK-ADV/KAI/VI/2013 2013-06-22 2015 W18-U/28/HK.01.10/XI/2015 2015-11-17 KONGRES ADVOKAT INDONESIA (KAI) VERSI INDRA SAHNUN LUBIS
29 29 AKHMADIANOR, S.H. PARINGIN - 20 Sept 1960 Islam Samarinda 03483/023/SK-ADV/KAI/VI/2013 2013-06-22 2015 W18-U/29/HK.01.10/XI/2015 2015-11-17 KONGRES ADVOKAT INDONESIA (KAI) VERSI INDRA SAHNUN LUBIS
30 30 AKSAN, S.H, BONTANG - 01 Apr 1980 Islam Bontang 04080/023/SK-ADV/KAI/IX/2013 2013-09-04 2015 W18-U/30/HK.01.10/XI/2015 2015-11-17 KONGRES ADVOKAT INDONESIA (KAI) VERSI INDRA SAHNUN LUBIS
31 31 ALMANTO, S.H. LOTAQ - 03 Mei 1976 Kristen Katholik Kutai Barat 4099/KEP-ADV/DPP-KAI/IV/2009 2009-04-27 2015 W18-U/31/HK.01.10/XI/2015 2015-11-17 KONGRES ADVOKAT INDONESIA (KAI) VERSI INDRA SAHNUN LUBIS
32 32 ANDI SYARIFUDDIN, S.H. BONE - 10 Apr 1968 Islam Tenggarong 00723/023/SK-ADV/KAI/VI/2010 2010-06-20 2015 W18-U/32/HK.01.10/XI/2015 2015-11-17 KONGRES ADVOKAT INDONESIA (KAI) VERSI INDRA SAHNUN LUBIS
33 33 ANTONI SIANIPAR, S.H. KEDATARAN - 23 Okt 1963 Kristen Protestan Samarinda 4118/KEP-ADV/DPP-KAI/IV/2009 2009-04-27 2015 W18-U/33/HK.01.10/XI/2015 2015-11-17 KONGRES ADVOKAT INDONESIA (KAI) VERSI INDRA SAHNUN LUBIS
34 34 ANTONIUS TOMASSAWA TANGDIBALI, S.H. TANA TORAJA - 19 Okt 1967 Kristen Protestan Samarinda 4115/KEP-ADV/DPP-KAI/IV/2009 2009-04-27 2015 W18-U/34/HK.01.10/XI/2015 2015-11-17 KONGRES ADVOKAT INDONESIA (KAI) VERSI INDRA SAHNUN LUBIS
35 35 ARAS, S.H. SOPPENG - 04 Juli 1976 Islam Samarinda 04083/023/SK-ADV/KAI/IX/2013 2013-09-04 2015 W18-U/35/HK.01.10/XI/2015 2015-11-17 KONGRES ADVOKAT INDONESIA (KAI) VERSI INDRA SAHNUN LUBIS
36 36 ASFIANI RACHMAN, S.H. TANAH GROGOT - 05 Juni 1978 Islam Tanah Grogot 04084/023/SK-ADV/KAI/IX/2013 2013-09-04 2015 W18-U/36/HK.01.10/XI/2015 2015-11-17 KONGRES ADVOKAT INDONESIA (KAI) VERSI INDRA SAHNUN LUBIS
37 37 BAHARA SITUMORANG, S.H. TEBING TINGGI - 23 Jan 1970 Kristen Protestan Samarinda 4159/KEP-ADV/DPP-KAI/IV/2009 2009-04-27 2015 W18-U/37/HK.01.10/XI/2015 2015-11-17 KONGRES ADVOKAT INDONESIA (KAI) VERSI INDRA SAHNUN LUBIS
38 38 BERNALDO T, S.H. BALIKPAPAN - 15 Juni 1984 Kristen Katholik Kutai Barat 03500/023/SK-ADV/KAI/VI/2013 2013-06-22 2015 W18-U/38/HK.01.10/XI/2015 2015-11-17 KONGRES ADVOKAT INDONESIA (KAI) VERSI INDRA SAHNUN LUBIS
39 39 BAMBANG WAHYONO,S.H. MAGETAN - 02 Sept 1969 Islam Samarinda 00719/023/SK-ADV/KAI/VI/2010 2010-06-20 2015 W18-U/39/HK.01.10/XI/2015 2015-11-17 KONGRES ADVOKAT INDONESIA (KAI) VERSI INDRA SAHNUN LUBIS
40 40 BAHRODIN, S.H., M.Hum. KEDIRI - 15 Agust 1965 Islam Bontang 4172/KEP-ADV/DPP-KAI/IV/2009 2009-04-27 2015 W18-U/40/HK.01.10/XI/2015 2015-11-17 KONGRES ADVOKAT INDONESIA (KAI) VERSI INDRA SAHNUN LUBIS
41 41 BUNAWAN, S.H. PONOROGO - 29 Sept 1978 Islam Samarinda 03504/023/SK-ADV/KAI/VI/2013 2013-06-22 2015 W18-U/41/HK.01.10/XI/2015 2015-11-17 KONGRES ADVOKAT INDONESIA (KAI) VERSI INDRA SAHNUN LUBIS
42 42 BENY PARLINDUNGAN LUMBANTORUAN, S.H. LUWUK - 19 Apr 1989 Kristen Protestan Samarinda 03506/023/SK-ADV/KAI/VI/2013 2013-06-22 2015 W18-U/42/HK.01.10/XI/2015 2015-11-17 KONGRES ADVOKAT INDONESIA (KAI) VERSI INDRA SAHNUN LUBIS
43 43 BOBY RIKO PANIUS, S.H. SAMARINDA - 11 Juli 1977 Kristen Katholik Tenggarong 04094/023/SK-ADV/KAI/IX/2013 2013-09-04 2015 W18-U/43/HK.01.10/XI/2015 2015-11-17 KONGRES ADVOKAT INDONESIA (KAI) VERSI INDRA SAHNUN LUBIS
44 44 BENYAMIN PANGGESO, S.H. TANA TORAJA - 20 Agust 1971 Kristen Protestan Samarinda 00737/023/SK-ADV/KAI/VI/2010 2010-06-20 2015 W18-U/44/HK.01.10/XI/2015 2015-11-17 KONGRES ADVOKAT INDONESIA (KAI) VERSI INDRA SAHNUN LUBIS
45 45 CHRISTIAN, S.H. MALINAU - 08 Apr 1987 Kristen Protestan Malinau 03715/023/SK-ADV/KAI/IX/2013 2013-09-04 2015 W18-U/45/HK.01.10/XI/2015 2015-11-17 KONGRES ADVOKAT INDONESIA (KAI) VERSI INDRA SAHNUN LUBIS
46 46 DAMAYANTI, S.H. BONTANG - 27 Mar 1975 Islam Bontang 04071/023/SK-ADV/KAI/IX/2013 2013-09-04 2015 W18-U/46/HK.01.10/XI/2015 2015-11-17 KONGRES ADVOKAT INDONESIA (KAI) VERSI INDRA SAHNUN LUBIS
47 47 DARWIN PAMPANG, S.H. DILANG PUTI - 23 Mar 1956 Kristen Protestan Samarinda 4183/KEP-ADV/DPP-KAI/IV/2009 2009-04-27 2015 W18-U/47/HK.01.10/XI/2015 2015-11-17 KONGRES ADVOKAT INDONESIA (KAI) VERSI INDRA SAHNUN LUBIS
48 48 DEDI IRAWAN, S.H. TENDIQ - 28 Des 1986 Kristen Protestan Samarinda 04092/023/SK-ADV/KAI/IX/2013 2013-09-04 2015 W18-U/48/HK.01.10/XI/2015 2015-11-17 KONGRES ADVOKAT INDONESIA (KAI) VERSI INDRA SAHNUN LUBIS
49 49 DEDY TOMPERITNA, S.H. SAMARINDA - 05 Des 1965 Islam Samarinda 03479/023/SK-ADV/KAI/VI/2013 2013-06-22 2015 W18-U/49/HK.01.10/XI/2015 2015-11-17 KONGRES ADVOKAT INDONESIA (KAI) VERSI INDRA SAHNUN LUBIS
50 50 DESEM, S.H., C.L.A. DEMPAR - 15 Jan 1973 Kristen Katholik Kutai Barat 03509/023/SK-ADV/KAI/VI/2013 2013-06-22 2015 W18-U/50/HK.01.10/XI/2015 2015-11-17 KONGRES ADVOKAT INDONESIA (KAI) VERSI INDRA SAHNUN LUBIS
51 51 DINA ANGGGRAINI, S.H. MEDAN - 18 Agust 1981 Islam Tanah Grogot 03538/023/SK-ADV/VI/2013 2013-06-22 2015 W18-U/51/HK.01.10/XI/2015 2015-11-17 KONGRES ADVOKAT INDONESIA (KAI) VERSI INDRA SAHNUN LUBIS
52 52 DWISCROVSILANOV M. SABRAN, S.H. JAKARTA - 20 Sept 1987 Kristen Protestan Samarinda 04073/023/SK-ADV/KAI/IX/2013 2013-09-04 2015 W18-U/52/HK.01.10/XI/2015 2015-11-17 KONGRES ADVOKAT INDONESIA (KAI) VERSI INDRA SAHNUN LUBIS
53 53 Drs. H.M. YUSA AHMAD, S.H. MARTAPURA - 19 Apr 1953 Islam Samarinda 00721/023/SK-ADV/KAI/VI/2010 2010-06-20 2015 W18-U/53/HK.01.10/XI/2015 2015-11-17 KONGRES ADVOKAT INDONESIA (KAI) VERSI INDRA SAHNUN LUBIS
54 54 EDI TRIYONO SUMARTADI, S.H. TANJUNG REDEB - 02 Feb 1972 Islam Samarinda 03540/023/SK-ADV/KAI/VI/2013 2013-06-22 2015 W18-U/54/HK.01.10/XI/2015 2015-11-17 KONGRES ADVOKAT INDONESIA (KAI) VERSI INDRA SAHNUN LUBIS
55 55 ENDAH SULISTYANI, S.H. BALIKPAPAN - 02 Mei 1972 Islam Samarinda 03510/023/SK-ADV/KAI/VI/2013 2013-06-22 2015 W18-U/55/HK.01.10/XI/2015 2015-11-17 KONGRES ADVOKAT INDONESIA (KAI) VERSI INDRA SAHNUN LUBIS
56 56 ERWIN PRIBADI, S.H. SAMARINDA - 09 Agust 1976 Islam Samarinda 03528/023/SK-ADV/KAI/VI/2013 2013-06-22 2015 W18-U/56/HK.01.10/XI/2015 2015-11-17 KONGRES ADVOKAT INDONESIA (KAI) VERSI INDRA SAHNUN LUBIS
57 57 STEFANUS MBAMBU, S.H. WEWA - 03 Juli 1965 Kristen Katholik Samarinda 4149/KEP-ADV/DPP-KAI/IV/2009 2009-04-27 2015 W18-U/57/HK.01.10/XI/2015 2015-11-17 KONGRES ADVOKAT INDONESIA (KAI) VERSI INDRA SAHNUN LUBIS
58 58 FIDELIS SEMANA, S.H. FLORES - 23 Jan 1979 Kristen Katholik Samarinda 4090/KEP-ADV/DPP-KAI/IV/2009 2009-04-27 2015 W18-U/58/HK.01.10/XI/2015 2015-11-17 KONGRES ADVOKAT INDONESIA (KAI) VERSI INDRA SAHNUN LUBIS
59 59 FIRDAUS, S.H.I. SAMARINDA - 19 Apr 1984 Islam Samarinda 03503/023/SK-ADV/KAI/VI/2013 2013-06-22 2015 W18-U/59/HK.01.10/XI/2015 2015-11-17 KONGRES ADVOKAT INDONESIA (KAI) VERSI INDRA SAHNUN LUBIS
60 60 FIRMANUS FENANLAMPIR, S.H. BOMAKI - 11 Mar 1958 Islam Sangatta 4312/KEP-ADV/DPP-KAI/IV/2009 2009-04-27 2015 W18-U/60/HK.01.10/XI/2015 2015-11-17 KONGRES ADVOKAT INDONESIA (KAI) VERSI INDRA SAHNUN LUBIS
61 61 FRAN KOLAI, S.H., C.L.A. SAMARINDA - 20 Feb 1978 Kristen Protestan Kutai Barat 4111/KEP-ADV/DPP-KAI/IV/2009 2009-04-27 2015 W18-U/61/HK.01.10/XI/2015 2015-11-17 KONGRES ADVOKAT INDONESIA (KAI) VERSI INDRA SAHNUN LUBIS
62 62 GANDA NAINGGOLAN, S.H. TARUNTUNG - 17 Agust 1969 Kristen Protestan Samarinda 4157/KEP-ADV/DPP-KAI/IV/2009 2009-04-27 2015 W18-U/62/HK.01.10/XI/2015 2015-11-17 KONGRES ADVOKAT INDONESIA (KAI) VERSI INDRA SAHNUN LUBIS
63 63 GUNTUR PRIBADI, S.H. TENGGARONG - 27 Sept 1980 Islam Samarinda 03521/023/SK-ADV/KAI/VI/2013 2013-06-22 2015 W18-U/63/HK.01.10/XI/2015 2015-11-17 KONGRES ADVOKAT INDONESIA (KAI) VERSI INDRA SAHNUN LUBIS
64 64 GUSTY ADDY RACHMANY, S.H. SAMARINDA - 12 Nov 1970 Islam Samarinda 03498/023/SK-ADV/KAI/VI/2013 2013-06-22 2015 W18-U/64/HK.01.10/XI/2015 2015-11-17 KONGRES ADVOKAT INDONESIA (KAI) VERSI INDRA SAHNUN LUBIS
65 65 HELENA MAULIDYA NURIMAN, S.H. SAMARINDA - 13 Nov 1986 Islam Samarinda 04099/023/SK-ADV/KAI/IX/2013 2013-09-04 2015 W18-U/65/HK.01.10/XI/2015 2015-11-17 KONGRES ADVOKAT INDONESIA (KAI) VERSI INDRA SAHNUN LUBIS
66 66 HERI, S.H. LONG SEGAR - 11 Juli 1989 Kristen Protestan Samarinda 04098/023/SK-ADV/KAI/IX/2013 2013-09-04 2015 W18-U/66/HK.01.10/XI/2015 2015-11-17 KONGRES ADVOKAT INDONESIA (KAI) VERSI INDRA SAHNUN LUBIS
67 67 HERIBURTUS DURUNG, S.H. REDA - 02 Mei 1977 Kristen Katholik Samarinda 00733/023/SK-ADV/KAI/VI/2013 2010-06-20 2015 W18-U/67/HK.01.10/XI/2015 2015-11-17 KONGRES ADVOKAT INDONESIA (KAI) VERSI INDRA SAHNUN LUBIS
68 68 HERJUNO, S.H. KEDIRI - 01 Jan 1969 Islam Samarinda 03505/023/SK-ADV/KAI/VI/2013 2013-06-22 2015 W18-U/68/HK.01.10/XI/2015 2015-11-17 KONGRES ADVOKAT INDONESIA (KAI) VERSI INDRA SAHNUN LUBIS
69 69 HERMAN SETIAWAN, S.H. GARUT - 22 Apr 1965 Islam Tanah Grogot 4119/KEP-ADV/DPP-KAI/IV/2009 2009-04-27 2015 W18-U/69/HK.01.10/XI/2015 2015-11-17 KONGRES ADVOKAT INDONESIA (KAI) VERSI INDRA SAHNUN LUBIS
70 70 ANDI ALANG CACO, S.H., M.H. SENGKANG - 25 Mei 1963 Islam Tenggarong 03476/023/SK-ADV/KAI/VI/2013 2013-06-22 2015 W18-U/70/HK.01.10/XI/2015 2015-11-17 KONGRES ADVOKAT INDONESIA (KAI) VERSI INDRA SAHNUN LUBIS
71 71 Hj. IMRA ATUSH SHALIHAH, S.H.I. SAMARINDA - 21 Okt 1984 Islam Samarinda 00744/023/SK-ADV/KAI/VI/2013 2013-06-20 2015 W18-U/71/HK.01.10/XI/2015 2015-11-17 KONGRES ADVOKAT INDONESIA (KAI) VERSI INDRA SAHNUN LUBIS
72 72 H.J. JAHIDIN S, S.H., M.H. BANTI - 01 Jan 1959 Islam Samarinda 4179/KEP-ADV/DPP-KAI/IV/2009 2009-04-27 2015 W18-U/72/HK.01.10/XI/2015 2015-11-17 KONGRES ADVOKAT INDONESIA (KAI) VERSI INDRA SAHNUN LUBIS
73 73 Hj. SARINAH, S.H. SAMARINDA - 02 Mar 1969 Islam Samarinda 4148/KEP-ADV/DPP-KAI/IV/2009 2009-04-27 2015 W18-U/73/HK.01.10/XI/2015 2015-11-17 KONGRES ADVOKAT INDONESIA (KAI) VERSI INDRA SAHNUN LUBIS
74 74 Hj. SHARNI, S.H. SAMARINDA - 22 Jan 1961 Islam Samarinda 00731/023/SK-ADV/KAI/VI/2010 2010-06-20 2015 W18-U/74/HK.01.10/XI/2015 2015-11-17 KONGRES ADVOKAT INDONESIA (KAI) VERSI INDRA SAHNUN LUBIS
75 75 ALUH BERLIAN, S.H., M.Si. BALIKPAPAN - 24 Mar 1968 Islam Tanjung Selor 4098/KEP-ADV/DPP-KAI/IV/2009 2009-04-27 2015 W18-U/75/HK.01.10/XI/2015 2015-11-17 KONGRES ADVOKAT INDONESIA (KAI) VERSI INDRA SAHNUN LUBIS
76 76 H. MULYADI, S.H. SUBANG PARU - 27 Juni 1965 Islam Samarinda 4104/KEP-ADV/DPP-KAI/IV/2009 2009-04-27 2015 W18-U/76/HK.01.10/XI/2015 2015-11-17 KONGRES ADVOKAT INDONESIA (KAI) VERSI INDRA SAHNUN LUBIS
77 77 IKHSANUR FAJRI, S.H. LOA DERAS - 18 Okt 1988 Islam Tenggarong 04081/023/SK-ADV/KAI/IX/2013 2013-09-04 2015 W18-U/77/HK.01.10/XI/2015 2015-11-17 KONGRES ADVOKAT INDONESIA (KAI) VERSI INDRA SAHNUN LUBIS
78 78 I MADE SUTARMIKA, S.H. KLUNGKUNG - 13 Mei 1975 Hindu Samarinda 4107/KEP-ADV/DPP-KAI/IV/2009 2009-04-27 2015 W18-U/78/HK.01.10/XI/2015 2015-11-17 KONGRES ADVOKAT INDONESIA (KAI) VERSI INDRA SAHNUN LUBIS
79 79 IWAN GAZALI, S.H. SAMARINDA - 06 Des 1966 Islam Tenggarong 04069/023/SK-ADV/KAI/IX/2013 2013-09-04 2015 W18-U/79/HK.01.10/XI/2015 2015-11-17 KONGRES ADVOKAT INDONESIA (KAI) VERSI INDRA SAHNUN LUBIS
80 80 JAFAR NUR, S.H. SAMARINDA - 10 Juni 1981 Islam Tarakan 03531/023/SK-ADV/KAI/VI/2013 2013-06-22 2015 W18-U/80/HK.01.10/XI/2015 2015-11-17 KONGRES ADVOKAT INDONESIA (KAI) VERSI INDRA SAHNUN LUBIS
81 81 JAFRI MUSA, S.H. LEWOTALA - 22 Juli 1969 Islam Samarinda 4158/KEP-ADV/DPP-KAI/IV/2009 2009-04-27 2015 W18-U/81/HK.01.10/XI/2015 2015-11-17 KONGRES ADVOKAT INDONESIA (KAI) VERSI INDRA SAHNUN LUBIS
82 82 JAIDUN, S.H., M.H. BIMA - 13 Jan 1970 Islam Samarinda 00738/023/SK-ADV/KAI/VI/2010 2010-06-20 2015 W18-U/82/HK.01.10/XI/2015 2015-11-17 KONGRES ADVOKAT INDONESIA (KAI) VERSI INDRA SAHNUN LUBIS
83 83 JAMALUDIN, S.Ag, S.H., M.H. LEA - 08 Nov 1978 Islam Tenggarong 00724/023/SK-ADV/KAI/VI/2010 2010-06-20 2015 W18-U/83/HK.01.10/XI/2015 2015-11-17 KONGRES ADVOKAT INDONESIA (KAI) VERSI INDRA SAHNUN LUBIS
84 84 JAYARRIANTO, S.H. DASAQ - 15 Juli 1978 Kristen Protestan Kutai Barat 03532/023/SK-ADV/KAI/VI/2013 2013-06-22 2015 W18-U/84/HK.01.10/XI/2015 2015-11-17 KONGRES ADVOKAT INDONESIA (KAI) VERSI INDRA SAHNUN LUBIS
85 85 JENTRA,S.H. TENGGARONG - 09 Mei 1977 Kristen Katholik Samarinda 03513/023/SK-ADV/KAI/VI/2013 2013-06-22 2015 W18-U/85/HK.01.10/XI/2015 2015-11-17 KONGRES ADVOKAT INDONESIA (KAI) VERSI INDRA SAHNUN LUBIS
86 86 JERY JESSON MATHIAS, S.H. TARAKAN - 10 Mar 1986 Kristen Protestan Tarakan 03530/023/SKI-ADV/KAI/VI/2013 2013-06-22 2015 W18-U/86/HK.01.10/XI/2015 2015-11-17 KONGRES ADVOKAT INDONESIA (KAI) VERSI INDRA SAHNUN LUBIS
87 87 JOSE ARMANDO, S.H. LAMBING - 02 Juni 1985 Kristen Katholik Kutai Barat 04096/023/SK-ADV/KAI/IX/2013 2013-09-04 2015 W18-U/87/HK.01.10/XI/2015 2015-11-17 KONGRES ADVOKAT INDONESIA (KAI) VERSI INDRA SAHNUN LUBIS
88 88 JUFRI, S.H. WANI - 22 Feb 1974 Islam Samarinda 4156/KEP-ADV/DPP-KAI/IV/2009 2009-04-27 2015 W18-U/88/HK.01.10/XI/2015 2015-11-17 KONGRES ADVOKAT INDONESIA (KAI) VERSI INDRA SAHNUN LUBIS
89 89 JUNIANSYAH, S.H. SAMARINDA - 22 Juni 1980 Islam Samarinda 00717/023/SK-ADV/KAI/VI/2010 2010-06-20 2015 W18-U/89/HK.01.10/XI/2015 2015-11-17 KONGRES ADVOKAT INDONESIA (KAI) VERSI INDRA SAHNUN LUBIS
90 90 KARIMO, S.H. MADIUN - 05 Nov 1965 Islam Tenggarong 00714/023/SK-ADV/KAI/VI/2010 2010-06-20 2015 W18-U/90/HK.01.10/XI/2015 2015-11-17 KONGRES ADVOKAT INDONESIA (KAI) VERSI INDRA SAHNUN LUBIS
91 91 KURNIA EDI, S.H. TENGGARONG - 16 Des 1976 Islam Samarinda 03535/023/SK-ADV/KAI/VI/2013 2013-06-22 2015 W18-U/91/HK.01.10/XI/2015 2015-11-17 KONGRES ADVOKAT INDONESIA (KAI) VERSI INDRA SAHNUN LUBIS
92 92 LASILA, S.H. SIDRAP - 10 Apr 1966 Islam Samarinda 4114/KEP-ADV/DPP-KAI/IV/2009 2009-04-27 2015 W18-U/92/HK.01.10/XI/2015 2015-11-17 KONGRES ADVOKAT INDONESIA (KAI) VERSI INDRA SAHNUN LUBIS
93 93 LILIK RUKITASARI, S.H., S.Sos., M.H. BALIKPAPAN - 16 Apr 1968 Islam Bontang 4164/KEP-ADV/DPP-KAI/IV/2009 2009-04-27 2015 W18-U/93/HK.01.10/XI/2015 2015-11-17 KONGRES ADVOKAT INDONESIA (KAI) VERSI INDRA SAHNUN LUBIS
94 94 LIRIN COLEN DINGIT, S.H. SUAKONG - 15 Juli 1972 Kristen Protestan Kutai Barat 4146/KEP-ADV/DPP-KAI/IV/2009 2009-04-27 2015 W18-U/94/HK.01.10/XI/2015 2015-11-17 KONGRES ADVOKAT INDONESIA (KAI) VERSI INDRA SAHNUN LUBIS
95 95 MAKKAMADIN ARAS NAI, S.H. POKOBULO - 17 Agust 1980 Islam Tenggarong 04075/023/SK-ADV/KAI/IX/2013 2013-09-02 2015 W18-U/95/HK.01.10/XI/2015 2015-11-17 KONGRES ADVOKAT INDONESIA (KAI) VERSI INDRA SAHNUN LUBIS
96 96 MEFRIN EDWARD KEYKO ALDRIN, S.H. SURABAYA - 10 Mei 1978 Kristen Protestan Samarinda 04102/023/SK-ADV/KAI/IX/2013 2013-09-04 2015 W18-U/96/HK.01.10/XI/2015 2015-11-17 KONGRES ADVOKAT INDONESIA (KAI) VERSI INDRA SAHNUN LUBIS
97 97 MURI, S.H. LAMBING - 21 Apr 1966 Kristen Katholik Samarinda 04095/023/SK-ADV/KAI/IX/2013 2013-09-04 2015 W18-U/97/HK.01.10/XI/2015 2015-11-17 KONGRES ADVOKAT INDONESIA (KAI) VERSI INDRA SAHNUN LUBIS
98 98 M. YASIR ARAFAT, S.H., M.Hum. BONTANG - 11 Des 1984 Islam Samarinda 00753/023/SK-ADV/KAI/VI/2010 2010-06-20 2015 W18-U/98/HK.01.10/XI/2015 2015-11-17 KONGRES ADVOKAT INDONESIA (KAI) VERSI INDRA SAHNUN LUBIS
99 99 MUHAMMAD REGEN POHAN, S.H. BATURAJA - 24 Feb 1981 Islam Samarinda 04097/023/SK-ADV/KAI/IX/2013 2013-09-04 2015 W18-U/99/HK.01.10/XI/2015 2015-11-17 KONGRES ADVOKAT INDONESIA (KAI) VERSI INDRA SAHNUN LUBIS
100 100 MUCHTAR AMAR, S.H. LUBUK PAKAM - 12 Des 1982 Islam Tanah Grogot 00727/023/SK-ADV/KAI/VI2010 2010-06-20 2015 W18-U/100/HK.01.10/XI/2015 2015-11-17 KONGRES ADVOKAT INDONESIA (KAI) VERSI INDRA SAHNUN LUBIS
101 101 MUAMAR, S.H. RANTAU BUJUR HALU - 12 Juni 1987 Islam Samarinda 04079/023//IX/2013SK-ADV/KAI 2013-09-04 2015 W18-U/101/HK.01.10/XI/2015 2015-11-17 KONGRES ADVOKAT INDONESIA (KAI) VERSI INDRA SAHNUN LUBIS
102 102 MOSES ADIL OMPU SUNGGU, S.H. SAMARINDA - 03 Sept 1989 Kristen Protestan Samarinda 03506/023/SK-ADV/KAI/VI/2013 2013-06-22 2015 W18-U/102/HK.01.10/XI/2015 2015-11-17 KONGRES ADVOKAT INDONESIA (KAI) VERSI INDRA SAHNUN LUBIS
103 103 NAJAMUDDIN, S.H. UJUNG PANDANG - 10 Feb 1973 Islam Samarinda 04078/023/SK-ADV/KAI/IX/2013 2013-09-04 2015 W18-U/103/HK.01.10/XI/2015 2015-11-17 KONGRES ADVOKAT INDONESIA (KAI) VERSI INDRA SAHNUN LUBIS
104 104 NURJANINAH, S.H. BALIKPAPAN - 06 Juni 1976 Islam Samarinda 4105/KEP-ADV/DPP-KAI/IV/2009 2009-04-27 2015 W18-U/104/HK.01.10/XI/2015 2015-11-17 KONGRES ADVOKAT INDONESIA (KAI) VERSI INDRA SAHNUN LUBIS
105 105 NURSANDY Z, S.H. SANGA-SANGA - 15 Juni 1980 Islam Samarinda 04088/023/SK-ADV/KAI/IX/2013 2013-09-04 2015 W18-U/105/HK.01.10/XI/2015 2015-11-17 KONGRES ADVOKAT INDONESIA (KAI) VERSI INDRA SAHNUN LUBIS
106 106 OTNIEL RUDOLP SUMUAL, S.H., M.H., M.Si. SAMARINDA - 01 Sept 1976 Kristen Protestan Samarinda 4168/KEP-ADV/DPP-KAI/IV/2009 2009-04-27 2015 W18-U/106/HK.01.10/XI/2015 2015-11-17 KONGRES ADVOKAT INDONESIA (KAI) VERSI INDRA SAHNUN LUBIS
107 107 OCHE WILLIAM KEINTJEM, S.H. TARAKAN - 10 Okt 1984 Islam Tarakan 00755/023/SK-ADV/KAI/VI/2010 2010-06-20 2015 W18-U/107/HK.01.10/XI/2015 2015-11-17 KONGRES ADVOKAT INDONESIA (KAI) VERSI INDRA SAHNUN LUBIS
108 108 PALTI SITUMORANG, S.H. JAKARTA - 27 Sept 1969 Kristen Katholik Samarinda 3506/KEP-ADV/DPP-KAI/IV/2009 2009-04-29 2015 W18-U/108/HK.01.10/XI/2015 2015-11-17 KONGRES ADVOKAT INDONESIA (KAI) VERSI INDRA SAHNUN LUBIS
109 109 PETRUS BARU, S.H. C.L.A. PEPAS EHENG - 21 Des 1972 Kristen Katholik Kutai Barat 03516/023/SK-ADV/KAI/VI/2013 2013-06-22 2015 W18-U/109/HK.01.10/XI/2015 2015-11-17 KONGRES ADVOKAT INDONESIA (KAI) VERSI INDRA SAHNUN LUBIS
110 110 PRIMA YULIAN RIAULI, S.H. BALIKPAPAN - 06 Juli 1973 Kristen Katholik Samarinda 4383/KEP-ADV/DPP-KAI/IV/2009 2009-04-27 2015 W18-U/110/HK.01.10/XI/2015 2015-11-17 KONGRES ADVOKAT INDONESIA (KAI) VERSI INDRA SAHNUN LUBIS
111 111 RAIDON HUTAHAEAN, S.H., M.H. MARIAH BANDAR - 03 Juli 1963 Kristen Protestan Bontang 04070/023/SK-ADV/KAI/IX/2013 2013-09-04 2015 W18-U/111/HK.01.10/XI/2015 2015-11-17 KONGRES ADVOKAT INDONESIA (KAI) VERSI INDRA SAHNUN LUBIS
112 112 RIYONO PRATIKTO, S.H., M.H. SANGA-SANGA - 03 Mar 1967 Islam Samarinda 4100/KEP-ADV/DPP-KAI/IV/2009 2009-04-27 2015 W18-U/112/HK.01.10/XI/2015 2015-11-17 KONGRES ADVOKAT INDONESIA (KAI) VERSI INDRA SAHNUN LUBIS
113 113 RIZKY PRASETYA, S.H. SERANG - 03 Mar 1987 Islam Samarinda 03527/023/SK-ADV/KAI/VI/2013 2013-06-22 2015 W18-U/113/HK.01.10/XI/2015 2015-11-17 KONGRES ADVOKAT INDONESIA (KAI) VERSI INDRA SAHNUN LUBIS
114 114 ROMA DOLY HASIHOLAN PASARIBU, S.H. SANGGAU - 09 Juli 1987 Kristen Protestan Samarinda 03489/023/SK-ADV/KAI/VI/2013 2013-06-22 2015 W18-U/114/HK.01.10/XI/2015 2015-11-17 KONGRES ADVOKAT INDONESIA (KAI) VERSI INDRA SAHNUN LUBIS
115 115 ROSIDAH INDAH PRATIWI, S.H. SAMARINDA - 14 Des 1979 Islam Samarinda 4161/KEP-ADV/DPP-KAI/IV/2009 2009-04-27 2015 W18-U/115/HK.01.10/XI/2015 2015-11-17 KONGRES ADVOKAT INDONESIA (KAI) VERSI INDRA SAHNUN LUBIS
116 116 ROSITA, S.H. PANGKALAN BRANDAN - 10 Des 1960 Islam Bontang 04072/023/SK-ADV/KAI/IX/2013 2013-09-04 2015 W18-U/116/HK.01.10/XI/2015 2015-11-17 KONGRES ADVOKAT INDONESIA (KAI) VERSI INDRA SAHNUN LUBIS
117 117 RONI TANDI, S.H. TARAKAN - 20 Juli 1989 Kristen Protestan Tarakan 04086/023/SK-ADV/KAI/IX/2013 2013-09-04 2015 W18-U/117/HK.01.10/XI/2015 2015-11-17 KONGRES ADVOKAT INDONESIA (KAI) VERSI INDRA SAHNUN LUBIS
118 118 RONNY, S.H. LONG PESO - 24 Mei 1985 Kristen Protestan Malinau 03529/023/SK-ADV/KAI/IV/2013 2013-06-22 2015 W18-U/118/HK.01.10/XI/2015 2015-11-17 KONGRES ADVOKAT INDONESIA (KAI) VERSI INDRA SAHNUN LUBIS
119 119 RUSMAN ANTONIUS SARAGIH, S.H. MEDAN - 08 Okt 1973 Kristen Katholik Samarinda 4106/KEP-ADV/DPP-KAI/IV/2009 2009-04-27 2015 W18-U/119/HK.01.10/XI/2015 2015-11-17 KONGRES ADVOKAT INDONESIA (KAI) VERSI INDRA SAHNUN LUBIS
120 120 RUSDIONO, S.H.I, S.H. BANGUN SARI - 09 Feb 1983 Islam Samarinda 4113/KEP-ADV/DPP-KAI/IV/2009 2009-04-27 2015 W18-U/120/HK.01.10/XI/2015 2015-11-17 KONGRES ADVOKAT INDONESIA (KAI) VERSI INDRA SAHNUN LUBIS
121 121 SABAM MANUNGKIL MONANG BAKARA, S.H. BAH HAPAL - 13 Mei 1979 Kristen Protestan Samarinda 4102/KEP-ADV/DPP-KAI/IV/2009 2009-04-27 2015 W18-U/121/HK.01.10/XI/2015 2015-11-17 KONGRES ADVOKAT INDONESIA (KAI) VERSI INDRA SAHNUN LUBIS
122 122 SABRIADI SYAHRUDDIN, S.H. KOLAKA - 06 Nov 1972 Islam Tenggarong 4155/KEP-ADV/DPPKIA/IV/2009 2009-04-27 2015 W18-U/122/HK.01.10/XI/2015 2015-11-17 KONGRES ADVOKAT INDONESIA (KAI) VERSI INDRA SAHNUN LUBIS
123 123 SAIDI ROYCE, S.H., M.H. MANCONG - 01 Sept 1960 Islam Tenggarong 4094/KEP-ADV/DPP-KAI/IV/2009 2009-04-27 2015 W18-U/123/HK.01.10/XI/2015 2015-11-17 KONGRES ADVOKAT INDONESIA (KAI) VERSI INDRA SAHNUN LUBIS
124 124 SAHRUN, S.H. SAMARINDA - 16 Juni 1979 Islam Samarinda 00720/023/SK-ADV/KAI/VI/2010 2010-06-20 2015 W18-U/124/HK.01.10/XI/2015 2015-11-17 KONGRES ADVOKAT INDONESIA (KAI) VERSI INDRA SAHNUN LUBIS
125 125 SAKIR Z, S.H. UJUNG PANDANG - 11 Des 1976 Islam Samarinda 4120/KEP-ADV/DPP-KAI/IV/2009 2009-04-27 2015 W18-U/125/HK.01.10/XI/2015 2015-11-17 KONGRES ADVOKAT INDONESIA (KAI) VERSI INDRA SAHNUN LUBIS
126 126 SAKKARIAS HASUGIAN, S.H. BATU GAJAH - 10 Agust 1967 Kristen Katholik Samarinda 4169/KEP-ADV/DPP-KAI/IV/2009 2009-04-27 2015 W18-U/126/HK.01.10/XI/2015 2015-11-17 KONGRES ADVOKAT INDONESIA (KAI) VERSI INDRA SAHNUN LUBIS
127 127 SAMHADI HIDAYAT, S.H. SAMARINDA - 30 Okt 1978 Islam Samarinda 03501/023/SK-ADV/KAI/VI/2013 2013-06-22 2015 W18-U/127/HK.01.10/XI/2015 2015-11-17 KONGRES ADVOKAT INDONESIA (KAI) VERSI INDRA SAHNUN LUBIS
128 128 SAMSIR, S.H. PALU - 30 Des 1983 Islam Tenggarong 00748/023/SK-ADV/KAI/VI/2010 2010-06-20 2015 W18-U/128/HK.01.10/XI/2015 2015-11-17 KONGRES ADVOKAT INDONESIA (KAI) VERSI INDRA SAHNUN LUBIS
129 129 SAUT MARISI HALOMOAN, S.H. TAPANULI SELATAN - 12 Sept 1972 Islam Samarinda 03517/023/SK-ADV/KAI/VI/2013 2013-06-22 2015 W18-U/129/HK.01.10/XI/2015 2015-11-17 KONGRES ADVOKAT INDONESIA (KAI) VERSI INDRA SAHNUN LUBIS
130 130 SIMON HORAS SAGALA, S.T., S.H. MEDAN - 16 Mei 1969 Kristen Katholik Samarinda 00715/023/SK-ADV/KAI/VI/2010 2010-06-20 2015 W18-U/130/HK.01.10/XI/2015 2015-11-17 KONGRES ADVOKAT INDONESIA (KAI) VERSI INDRA SAHNUN LUBIS
131 131 SOLIKIN, S.H. GRESIK - 27 Apr 1979 Islam Tenggarong 04082/023/SK-ADV/KAI/IX/2013 2013-09-04 2015 W18-U/131/HK.01.10/XI/2015 2015-11-17 KONGRES ADVOKAT INDONESIA (KAI) VERSI INDRA SAHNUN LUBIS
132 132 SUDUNG SINAGA, S.H. EMPLASMEN SIDAMANIK - 14 Mar 1967 Kristen Protestan Samarinda 4147/KEP-ADV/DPP-KAI/IV/2009 2009-04-27 2015 W18-U/132/HK.01.10/XI/2015 2015-11-17 KONGRES ADVOKAT INDONESIA (KAI) VERSI INDRA SAHNUN LUBIS
133 133 SUHADI SYAM, S.H. SAMARINDA - 20 Apr 1978 Islam Samarinda 4110/KEP-ADV/DPP-KAI/IV/2009 2009-04-27 2015 W18-U/133/HK.01.10/XI/2015 2015-11-17 KONGRES ADVOKAT INDONESIA (KAI) VERSI INDRA SAHNUN LUBIS
134 134 SUMMA, S.H. ENREKANG - 16 Juli 1967 Islam Samarinda 00749/023/SK-ADV/KAI/VI/2010 2010-06-20 2015 W18-U/134/HK.01.10/XI/2015 2015-11-17 KONGRES ADVOKAT INDONESIA (KAI) VERSI INDRA SAHNUN LUBIS
135 135 SUNITA NAZIMA, S.H. MALANG - 06 Agust 1972 Islam Bontang 4171/KEP-ADV-DPP-KAI/IV/2009 2009-04-27 2015 W18-U/135/HK.01.10/XI/2015 2015-11-17 KONGRES ADVOKAT INDONESIA (KAI) VERSI INDRA SAHNUN LUBIS
136 136 SURTINI, S.H. SOLO - 06 Nov 1966 Kristen Katholik Samarinda 03493/023/SK-ADV/KAI/VI/2009 2013-06-22 2015 W18-U/136/HK.01.10/XI/2015 2015-11-17 KONGRES ADVOKAT INDONESIA (KAI) VERSI INDRA SAHNUN LUBIS
137 137 SUPIATNO, S.H. CIREBON - 26 Mei 1978 Islam Samarinda 04146/023/SK-ADV/KAI/VI/2013 2013-06-23 2015 W18-U/137/HK.01.10/XI/2015 2015-11-17 KONGRES ADVOKAT INDONESIA (KAI) VERSI INDRA SAHNUN LUBIS
138 138 SURIANI, S.H. ANGGANA - 18 Apr 1983 Islam Tenggarong 03495/023/SK-ADV/KAI/VI/2013 2013-06-22 2015 W18-U/138/HK.01.10/XI/2015 2015-11-17 KONGRES ADVOKAT INDONESIA (KAI) VERSI INDRA SAHNUN LUBIS
139 139 SYAHDAN M. SASRA, S.H. SAMARINDA - 04 Agust 1980 Islam Samarinda 03496/023/SK-ADV/KAI/VI/2013 2013-06-22 2015 W18-U/139/HK.01.10/XI/2015 2015-11-17 KONGRES ADVOKAT INDONESIA (KAI) VERSI INDRA SAHNUN LUBIS
140 140 SYAHRAN, S.H. SAMARINDA - 20 Agust 1962 Islam Samarinda 00732/023/SK-ADV/KAI/VI/2010 2010-06-20 2015 W18-U/140/HK.01.10/XI/2015 2015-11-17 KONGRES ADVOKAT INDONESIA (KAI) VERSI INDRA SAHNUN LUBIS
141 141 SYAFRUDDIN, S.H., M.Hum. SINJAI - 20 Apr 1969 Islam Tarakan 01732/023/SK-ADV/KAI/VI/2010 2010-06-20 2015 W18-U/141/HK.01.10/XI/2015 2015-11-17 KONGRES ADVOKAT INDONESIA (KAI) VERSI INDRA SAHNUN LUBIS
142 142 THOMAS NGAU, S.H. LONG HUBUNG - 25 Sept 1981 Kristen Katholik Samarinda 03543/023/SK-ADV/KAI/VI/2013 2013-06-22 2015 W18-U/142/HK.01.10/XI/2015 2015-11-17 KONGRES ADVOKAT INDONESIA (KAI) VERSI INDRA SAHNUN LUBIS
143 143 USMARA BRATAWIJAYA, S.H. JAKARTA - 12 Mei 1981 Islam Samarinda 03518/023/SK-ADV/KAI/VI/2013 2013-06-22 2015 W18-U/143/HK.01.10/XI/2015 2015-11-17 KONGRES ADVOKAT INDONESIA (KAI) VERSI INDRA SAHNUN LUBIS
144 144 VERENCUS SIREGAR, S.H. TAPANULI - 26 Des 1964 Kristen Protestan Samarinda 4317/KEP-ADV/DPP-KAI/IV/2009 2009-04-27 2015 W18-U/144/HK.01.10/XI/2015 2015-11-17 KONGRES ADVOKAT INDONESIA (KAI) VERSI INDRA SAHNUN LUBIS
145 145 WENDY STEVAN MARPAUNG, S.H. TANJUNG SELOR - 10 Apr 1987 Kristen Protestan Samarinda 03490/O23/SK-ADV/KAI/VI/2013 2013-06-22 2015 W18-U/145/HK.01.10/XI/2015 2015-11-17 KONGRES ADVOKAT INDONESIA (KAI) VERSI INDRA SAHNUN LUBIS
146 146 YATINI, S.H. KEDIRI - 09 Okt 1969 Islam Samarinda 4180/KEP-ADV/DPP-KAI/IV/2009 2009-04-27 2015 W18-U/146/HK.01.10/XI/2015 2015-11-17 KONGRES ADVOKAT INDONESIA (KAI) VERSI INDRA SAHNUN LUBIS
147 147 YAYES ARIANTO, S.H. PONTIANAK - 26 Feb 1970 Kristen Protestan Samarinda 00722/023/SK-ADV/KAI/VI/2010 2010-06-20 2015 W18-U/147/HK.01.10/XI/2015 2015-11-17 KONGRES ADVOKAT INDONESIA (KAI) VERSI INDRA SAHNUN LUBIS
148 148 YONATAN TANDI LAYUK, S.H. BAU - 18 Nov 1976 Kristen Protestan Samarinda 4167/KEP-ADV/DPP-KAI/IV/2009 2009-04-27 2015 W18-U/148/HK.01.10/XI/2015 2015-11-17 KONGRES ADVOKAT INDONESIA (KAI) VERSI INDRA SAHNUN LUBIS
149 149 YOVENLIS KOENG, S.H. LONG APARI - 22 Mar 1978 Kristen Katholik Samarinda 00752/023/SK-ADV/KAI/VI/2010 2010-06-20 2015 W18-U/149/HK.01.10/XI/2015 2015-11-17 KONGRES ADVOKAT INDONESIA (KAI) VERSI INDRA SAHNUN LUBIS
150 150 YUDI GUNADI, S.H., M.Hum. BALIKPAPAN - 15 Jan 1961 Budha Samarinda 00745/023/SK-ADV/KAI/VI/2010 2010-06-20 2015 W18-U/150/HK.01.10/XI/2015 2015-11-17 KONGRES ADVOKAT INDONESIA (KAI) VERSI INDRA SAHNUN LUBIS
151 151 YUNANTO, S.H. MUARA LEBAN - 15 Nov 1975 Kristen Protestan Kutai Barat 03497/023/SK-ADV/KAI/VI/2013 2013-06-22 2015 W18-U/151/HK.01.10/XI/2015 2015-11-17 KONGRES ADVOKAT INDONESIA (KAI) VERSI INDRA SAHNUN LUBIS
152 152 ZAENAL SAPUTRA, S.H. SAMARINDA - 02 Mei 1986 Kristen Protestan Tenggarong 03478/023/SK-ADV/KAI/VI/2013 2013-06-22 2015 W18-U/152/HK.01.10/XI/2015 2015-11-17 KONGRES ADVOKAT INDONESIA (KAI) VERSI INDRA SAHNUN LUBIS
153 153 ASBAR, S.H. RAHA MUNA - 11 Agust 1979 Islam Balikpapan 4380/KEP-ADV/DPP-KAI/IV/2009 2009-04-27 2015 W18-U/153/HK.01.10/XI/2015 2015-11-23 KONGRES ADVOKAT INDONESIA (KAI) VERSI TUTJU SANJAYA
154 154 AGUS TALIS JONI, S.H., M.H. BARONG TONGKOK - 07 Sept 1964 Kristen Katholik Tenggarong 04076/023/SK-ADV/KAI/IX/2013 2013-09-04 2015 W18-U/154/HK.01.10/XI/2015 2015-11-23 KONGRES ADVOKAT INDONESIA (KAI) VERSI TUTJU SANJAYA
155 155 DONY SETIO BUDI, S.H., M.H. TANAH GROGOT - 03 Des 1988 Islam Tenggarong 03508/023/SK-ADV/KAI/VI/2013 2013-06-22 2015 W18-U/155/HK.01.10/XI/2015 2015-11-23 KONGRES ADVOKAT INDONESIA (KAI) VERSI TUTJU SANJAYA
156 156 RUDY SIMANJUNTAK, S.H. BALIKPAPAN - 05 Mei 1986 Kristen Protestan Balikpapan 04105/023/SK-ADV/KAI/IX/2013 2013-09-04 2015 W18-U/156/HK.01.10/XI/2015 2015-11-23 KONGRES ADVOKAT INDONESIA (KAI) VERSI TUTJU SANJAYA
157 157 MULYATI, S.H. UJUNG PANDANG - 05 Feb 1973 Islam Balikpapan 3194/KEP-ADV/DPP-KAI/IV/2009 2009-04-27 2015 W18-U/158/HK.01.10/XI/2015 2015-11-23 KONGRES ADVOKAT INDONESIA (KAI) VERSI TUTJU SANJAYA
158 158 NOVI LINDA SARI, S.H. BALIKPAPAN - 28 Nov 1981 Islam Balikpapan 0569/SK/VIII/2014/DPP 2014-08-20 2015 W18-U/159/HK.01.10/XI/2015 2015-11-23 KONGRES ADVOKAT INDONESIA (KAI) VERSI TUTJU SANJAYA
159 159 HAIRUL BIDOL, S.H. BALIKPAPAN - 16 Sept 1982 Islam Balikpapan 4145/KEP-ADV/DPP-KAI/IV/2009 2009-04-27 2015 W18-U/160/HK.01.10/XI/2015 2015-11-23 KONGRES ADVOKAT INDONESIA (KAI) VERSI TUTJU SANJAYA
160 160 BAMBANG WIJANARKO, S.H. PEMALANG - 15 Des 1972 Islam Balikpapan 4144/KEP-ADV/DPP-KAI/IV/2009 2009-04-27 2015 W18-U/161/HK.01.10/XI/2015 2015-11-23 KONGRES ADVOKAT INDONESIA (KAI) VERSI TUTJU SANJAYA
161 161 MUHAMAD ALI, S.H. BALIKPAPAN - 03 Feb 1977 Islam Tanah Grogot 4141/KEP-ADV/DPP-KAI/IV/2009 2009-04-27 2015 W18-U/162/HK.01.10/XI/2015 2015-11-23 KONGRES ADVOKAT INDONESIA (KAI) VERSI TUTJU SANJAYA
162 162 FRANSISKUS TONNY A. RONGA, S.H. MINAHASA - 14 Mei 1969 Kristen Katholik Balikpapan 4381/KEP-ADV/DPP-KAI/IV/2009 2009-04-27 2015 W18-U/163/HK.01.10/XI/2015 2015-11-23 KONGRES ADVOKAT INDONESIA (KAI) VERSI TUTJU SANJAYA
163 163 H. ASWAT, S.H. BALIKPAPAN - 15 Okt 1967 Islam Balikpapan 02834/029/SK-ADV/KAI/X/2012 2012-11-09 2015 W18-U/164/HK.01.10/XI/2015 2015-11-23 KONGRES ADVOKAT INDONESIA (KAI) VERSI TUTJU SANJAYA
164 164 Drs. EC. JUHRI ASRI, S.H., S.Sos., M.H. TANJUNG - 17 Nov 1952 Islam Balikpapan 04101/023/SK-ADV/KAI/IX/2013 2013-09-04 2015 W18-U/165/HK.01.10/XI/2015 2015-11-23 KONGRES ADVOKAT INDONESIA (KAI) VERSI TUTJU SANJAYA
165 165 BAMBANG JANU ISNOTO, S.H. NGANJUK - 21 Apr 1958 Islam Balikpapan 03714/023/SK-ADV/KAI/IX/2013 2013-09-04 2015 W18-U/166/HK.01.10/XI/2015 2015-11-23 KONGRES ADVOKAT INDONESIA (KAI) VERSI TUTJU SANJAYA
166 166 Drs. B. MARULI SITUMORANG, S.H. P. SAMOSIR - 04 Juni 1947 Kristen Protestan Balikpapan 3190/KEP-ADV/DPP-KAI/IV/2009 2009-04-27 2015 W18-U/167/HK.01.10/XI/2015 2015-11-23 KONGRES ADVOKAT INDONESIA (KAI) VERSI TUTJU SANJAYA
167 167 RATIH APRIANI, S.H. BALIKPAPAN - 04 Apr 1984 Islam Balikpapan 03494/023/SK-ADV/KAI/VI/2013 2013-06-22 2015 W18-U/168/HK.01.10/XI/2015 2015-11-23 KONGRES ADVOKAT INDONESIA (KAI) VERSI TUTJU SANJAYA
168 168 YOHANIS MAROKKO, S.H. BALIKPAPAN - 19 Des 1982 Kristen Protestan Balikpapan 4184/KEP-ADV/DPP-KAI/IV/2009 2009-04-27 2015 W18-U/169/HK.01.10/XI/2015 2015-11-23 KONGRES ADVOKAT INDONESIA (KAI) VERSI TUTJU SANJAYA
169 169 SUMARNI, S.H. MALANG - 07 Sept 1974 Islam Samarinda 4186/KEP-ADV/DPP-KAI/IV/2009 2009-04-27 2015 W18-U/170/HK.01.10/XI/2015 2015-11-23 KONGRES ADVOKAT INDONESIA (KAI) VERSI TUTJU SANJAYA
170 170 SYALMAH, S.H., C.L.A. BALIKPAPAN - 02 Des 1978 Islam Balikpapan 4140/KEP-ADV/DPP-KAI/IV/2009 2009-04-27 2015 W18-U/171/HK.01.10/XI/2015 2015-11-23 KONGRES ADVOKAT INDONESIA (KAI) VERSI TUTJU SANJAYA
171 171 YENI YULIANTI SAMTI, S.H. BALIKPAPAN - 26 Juni 1979 Islam Balikpapan 02835/029/SK-ADV/KAI/IX/2012 2012-11-09 2015 W18-U/172/HK.01.10/XI/2015 2015-11-23 KONGRES ADVOKAT INDONESIA (KAI) VERSI TUTJU SANJAYA
172 172 PARASIAN TAMPUBOLON, S.H. SIABAL-ABAL - 27 Mar 1972 Kristen Katholik Samarinda 00747/023/SK-ADV/KAI/VI/2010 2010-06-20 2015 W18-U/173/HK.01.10/XI/2015 2015-11-23 KONGRES ADVOKAT INDONESIA (KAI) VERSI TUTJU SANJAYA
173 173 MOHAMAD RIFAI, S.H. BALIKPAPAN - 10 Okt 1982 Islam Balikpapan 019/SK/IX/2014/DPP 2014-09-24 2015 W18-U/174/HK.01.10/XI/2015 2015-11-23 KONGRES ADVOKAT INDONESIA (KAI) VERSI TUTJU SANJAYA
174 174 FENDI YAKUB, S.H., C.L.A. TANGPAYE - 04 Mei 1977 Kristen Protestan Balikpapan 02883/029/SK-ADV/KAI/XI/2012 2012-11-09 2015 W18-U/175/HK.01.10/XI/2015 2015-11-23 KONGRES ADVOKAT INDONESIA (KAI) VERSI TUTJU SANJAYA
175 175 KARDIANSYAH KALEB, S.H. MUHUR - 04 Okt 1970 Kristen Protestan Kutai Barat 4152/KEP-ADV/DPP-KAI/IV/2009 2009-04-27 2015 W18-U/176/HK.01.10/XI/2015 2015-11-23 KONGRES ADVOKAT INDONESIA (KAI) VERSI TUTJU SANJAYA
176 176 IRWAN SYAIFUDDIN, S.H. BALIKPAPAN - 22 Nov 1982 Islam Penajam 3193/KEP-ADV/DPP-KAI/IV/2009 2009-04-27 2015 W18-U/177/HK.01.10/XI/2015 2015-11-23 KONGRES ADVOKAT INDONESIA (KAI) VERSI TUTJU SANJAYA
177 177 H. MARHAN YUNUS, S.H. BALIKPAPAN - 02 Okt 1952 Islam Balikpapan 03491/023/SK-ADV/KAI/VI/2013 2013-06-22 2015 W18-U/178/HK.01.10/XI/2015 2015-11-23 KONGRES ADVOKAT INDONESIA (KAI) VERSI TUTJU SANJAYA
178 178 AMBO SULTAN ABU AUFA, S.H. WONOSARI - 09 Sept 1988 Islam Balikpapan 02833/029/SK-ADV/KAI/X/2012 2012-11-09 2015 W18-U/179/HK.01.10/XI/2015 2015-11-23 KONGRES ADVOKAT INDONESIA (KAI) VERSI TUTJU SANJAYA
179 179 RIO RIDHAYON, S.H. SAMARINDA - 07 Des 1978 Islam Balikpapan 00726/023/SK-ADV/KAI/VI/2010 2010-06-20 2015 W18-U/180/HK.01.10/XI/2015 2015-11-23 KONGRES ADVOKAT INDONESIA (KAI) VERSI TUTJU SANJAYA
180 180 SITI AMINAH, S.H. BALIKPAPAN - 03 Okt 1974 Islam Balikpapan 3199/KEP-ADV/DPP-KAI/IV/2009 2009-04-27 2015 W18-U/181/HK.01.10/XI/2015 2015-11-23 KONGRES ADVOKAT INDONESIA (KAI) VERSI TUTJU SANJAYA
181 181 FRANSJE ALFIUS MAX RINDENGAN, S.H. TALAITAD - 15 Apr 1961 Kristen Protestan Balikpapan 4382/KEP-ADV/DPP-KAI/IV/2009 2009-04-27 2015 W18-U/182/HK.01.10/XI/2015 2015-11-23 KONGRES ADVOKAT INDONESIA (KAI) VERSI TUTJU SANJAYA
182 182 DWI WIHARTI, S.H. BALIKPAPAN - 21 Mei 1971 Islam Balikpapan 04077/023/SK-ADV/KAI/IX/2013 2013-09-04 2015 W18-U/183/HK.01.10/XI/2015 2015-11-23 KONGRES ADVOKAT INDONESIA (KAI) VERSI TUTJU SANJAYA
183 183 EBIN MARWI, S.H.I. BALIKPAPAN - 02 Mar 1981 Islam Balikpapan 01378/023/SK-ADV/KAI/VI/2010 2010-06-20 2015 W18-U/184/HK.01.10/XI/2015 2015-11-23 KONGRES ADVOKAT INDONESIA (KAI) VERSI TUTJU SANJAYA
184 184 WAHYUDIN, S.H. PALU - 25 Apr 1982 Islam Balikpapan 03519/023/SK-ADV/KAI/VI/2013 2013-06-22 2015 W18-U/185/HK.01.10/XI/2015 2015-11-23 KONGRES ADVOKAT INDONESIA (KAI) VERSI TUTJU SANJAYA
185 185 YULIANA ROMBE, S.H. BALIKPAPAN - 07 Juni 1983 Kristen Protestan Balikpapan 4185/KEP-ADV/DPP-KAI/IV/2009 2009-04-27 2015 W18-U/186/HK.01.10/XI/2015 2015-11-23 KONGRES ADVOKAT INDONESIA (KAI) VERSI TUTJU SANJAYA
186 186 WAHYUDI, S.H. BALIKPAPAN - 07 Feb 1987 Islam Balikpapan 03525/023/SK-ADV/KAI/VI/2013 2013-06-22 2015 W18-U/187/HK.01.10/XI/2015 2015-11-23 KONGRES ADVOKAT INDONESIA (KAI) VERSI TUTJU SANJAYA
187 187 SUARDI, S.H. ENREKANG - 05 Juli 1967 Islam Tanjung Redeb 02809/029/SK-ADV/X/2012 2012-11-09 2015 W18-U/188/HK.01.10/XI/2015 2015-11-23 KONGRES ADVOKAT INDONESIA (KAI) VERSI TUTJU SANJAYA
188 188 SUPRIADI, S.H. PAROTO - 07 Apr 1988 Islam Penajam 04087/023/SK-ADV/KAI/IX/2013 2013-09-04 2015 W18-U/189/HK.01.10/XI/2015 2015-11-23 KONGRES ADVOKAT INDONESIA (KAI) VERSI TUTJU SANJAYA
189 189 SURYA ASTAWAN, S.H. SURABAYA - 10 Mar 1974 Islam Tanah Grogot 01033/016/SK-ADV/KAI/VI/2010 2010-06-14 2015 W18-U/190/HK.01.10/XI/2015 2015-11-23 KONGRES ADVOKAT INDONESIA (KAI) VERSI TUTJU SANJAYA
190 190 TUMPAK PARULIAN SITUNGKIR, S.H. SAMARINDA - 25 Apr 1987 Kristen Protestan Samarinda 04147/023/SK-ADV/KAI/VI/2013 2013-06-23 2015 W18-U/191/HK.01.10/XI/2015 2015-11-23 KONGRES ADVOKAT INDONESIA (KAI) VERSI TUTJU SANJAYA
191 191 BURHANUDDIN RAKHBI, S.H. MAMUJU - 28 Juni 1960 Islam Balikpapan 4136/KEP-ADV/DPP-KAI/IV/2009 2009-04-27 2015 W18-U/192/HK.01.10/XI/2015 2015-11-23 KONGRES ADVOKAT INDONESIA (KAI) VERSI TUTJU SANJAYA
192 192 DJAINAL ARIFIN, S.H. BALIKPAPAN - 18 Mar 1967 Islam Balikpapan 3195/KEP-ADV/DPP-KAI/IV/2009 2009-04-27 2015 W18-U/193/HK.01.10/XI/2015 2015-11-23 KONGRES ADVOKAT INDONESIA (KAI) VERSI TUTJU SANJAYA
193 193 AGUS AIRWANTO, S.H. BALIKPAPAN - 12 Agust 1977 Islam Balikpapan 0565/SK/VIII/2014/DPP 2014-08-20 2015 W18-U/194/HK.01.10/XI/2015 2015-11-23 KONGRES ADVOKAT INDONESIA (KAI) VERSI TUTJU SANJAYA
194 194 AYU SAFITRI, S.H. UJUNG PANDANG - 22 Des 1986 Islam Balikpapan 01907/023/SK-ADV/KAI/VI/2010 2010-06-20 2015 W18-U/195/HK.01.10/XI/2015 2015-11-23 KONGRES ADVOKAT INDONESIA (KAI) VERSI TUTJU SANJAYA
195 195 AYU TIMPALAN, S.H. BALIKPAPAN - 10 Jan 1969 Hindu Balikpapan 03717/023/SK-ADV/KAI/IX/2013 2013-09-04 2015 W18-U/196/HK.01.10/XI/2015 2015-11-23 KONGRES ADVOKAT INDONESIA (KAI) VERSI TUTJU SANJAYA
196 196 H. ZAINAL ARIFIN, S.H. BULUKUMBA - 22 Mei 1946 Islam Balikpapan 03534/023/SK-ADV/KAI/VI/2013 2013-06-22 2015 W18-U/197/HK.01.10/XI/2015 2015-11-23 KONGRES ADVOKAT INDONESIA (KAI) VERSI TUTJU SANJAYA
197 197 I DEWA NYOMAN DJAPA, S.H. KLUNGKUNG - 19 Des 1955 Hindu Balikpapan 02816/029/SK-ADV/KAI/XI/2012 2012-11-09 2015 W18-U/198/HK.01.10/XI/2015 2015-11-23 KONGRES ADVOKAT INDONESIA (KAI) VERSI TUTJU SANJAYA
198 198 I WAYAN EKA CHANDRA, S.H. SURABAYA - 12 Nov 1977 Hindu Balikpapan 04093/023/SK-ADV/KAI/IX/2013 2013-09-04 2015 W18-U/199/HK.01.10/XI/2015 2015-11-23 KONGRES ADVOKAT INDONESIA (KAI) VERSI TUTJU SANJAYA
199 199 Ir. HENDRAWAN ANG, S.H. TERNATE - 15 Juli 1967 Kristen Katholik Balikpapan 0568/SK/VIII/2014/DPP 2014-08-20 2015 W18-U/200/HK.01.10/XI/2015 2015-11-23 KONGRES ADVOKAT INDONESIA (KAI) VERSI TUTJU SANJAYA
200 200 JONSON SIBURAN, S.H., S.T., M.H. PEMATANG SIANTAR - 01 Mar 1961 Kristen Protestan Balikpapan 00718/023/SK-ADV/KAI/VI/2010 2010-06-20 2015 W18-U/201/HK.01.10/XI/2015 2015-11-23 KONGRES ADVOKAT INDONESIA (KAI) VERSI TUTJU SANJAYA
201 201 M. JUSUF RONY, S.H. RANTAU - 05 Agust 1957 Islam Balikpapan 3189/KEP-ADV/DPP-KAI/IV/2009 2009-04-27 2015 W18-U/202/HK.01.10/XI/2015 2015-11-23 KONGRES ADVOKAT INDONESIA (KAI) VERSI TUTJU SANJAYA
202 202 MUHAMMAD ISRADI ZAENAL, S.H. BONTOBAHARI - 18 Okt 1968 Islam Balikpapan 03486/023/SK-ADV/KAI/VI/2013 2013-06-22 2015 W18-U/203/HK.01.10/XI/2015 2015-11-23 KONGRES ADVOKAT INDONESIA (KAI) VERSI TUTJU SANJAYA
203 203 RABBANA, S.H. BALIKPAPAN - 07 Feb 1960 Islam Balikpapan 4384/KEP-ADV/DPP-KAI/IV/2009 2009-04-27 2015 W18-U/204/HK.01.10/XI/2015 2015-11-23 KONGRES ADVOKAT INDONESIA (KAI) VERSI TUTJU SANJAYA
204 204 RIRI AZWARI LUBIS, S.H. TEBING TINGGI - 27 Agust 1967 Islam Balikpapan 3192/KEP-ADV/DPP-KAI/IV/2009 2009-04-27 2015 W18-U/205/HK.01.10/XI/2015 2015-11-23 KONGRES ADVOKAT INDONESIA (KAI) VERSI TUTJU SANJAYA
205 205 ROSIDAH, S.H. BALIKPAPAN - 19 Des 1972 Islam Balikpapan 4137/KEP-ADV/DPP-KAI/IV/2009 2009-04-27 2015 W18-U/206/HK.01.10/XI/2015 2015-11-23 KONGRES ADVOKAT INDONESIA (KAI) VERSI TUTJU SANJAYA
206 206 ROY YUNIARSO, S.H. BALIKPAPAN - 13 Juni 1979 Islam Balikpapan 0566/SK/VIII/2014/DPP 2014-08-20 2015 W18-U/207/HK.01.10/XI/2015 2015-11-23 KONGRES ADVOKAT INDONESIA (KAI) VERSI TUTJU SANJAYA
207 207 SANTI FLORA SIRAIT, S.H. SOSOT SABA DOLOK - 09 Des 1970 Kristen Katholik Balikpapan 03512/023/SK-ADV/KAI/VI/2013 2013-06-22 2015 W18-U/208/HK.01.10/XI/2015 2015-11-23 KONGRES ADVOKAT INDONESIA (KAI) VERSI TUTJU SANJAYA
208 208 RAFLI HAMZAH, S.H. JAKARTA - 10 Okt 1980 Islam Balikpapan 4385/KEP-ADV/DPP-KAI/IV/2009 2009-04-27 2015 W18-U/209/HK.01.10/XI/2015 2015-11-23 KONGRES ADVOKAT INDONESIA (KAI) VERSI TUTJU SANJAYA
209 209 SONY BOY HUTABARAT, S.H. PEKAN BARU - 06 Juli 1980 Kristen Katholik Kutai Barat 4699/KEP-ADV/DPP-KAI/V/2010 2010-05-29 2015 W18-U/210/HK.01.10/XI/2015 2015-11-23 KONGRES ADVOKAT INDONESIA (KAI) VERSI TUTJU SANJAYA
210 210 AMBO NAI, S.H. PANGKEP - 09 Sept 1971 Islam Kutai Barat KEP.0004/ADV/PERADI/DPN/XI/2015 2015-11-02 2015 W18-U/210/HK.01.10/XII/2015 2015-12-02 PERHIMPUNAN ADVOKAT INDONESIA (PERADI) VERSI OTTO HASIBUAN
211 211 ANDY NOOR JANUAR RIZKY, S.H. SAMARINDA - 17 Jan 1989 Islam Samarinda KEP.0043/ADV/PERADI/DPN/XI/2015 2015-11-02 2015 W18-U/212/HK.01.10/XII/2015 2015-12-02 PERHIMPUNAN ADVOKAT INDONESIA (PERADI) VERSI OTTO HASIBUAN
212 212 AJI DENDY HADI MENGGALA, S.H. TENGGARONG - 10 Feb 1975 Kristen Protestan Samarinda KEP.0014/ADV/PERADI/DPN/XI/2015 2015-11-02 2015 W18-U/213/HK.01.10/XII/2015 2015-12-02 PERHIMPUNAN ADVOKAT INDONESIA (PERADI) VERSI OTTO HASIBUAN
213 213 ANDI SARI DAMAYANTI MANSUR, S.H. BALIKPAPAN - 06 Mei 1981 Islam Balikpapan KEP.0015/ADV/PERADI/DPN/XI/2015 2015-11-02 2015 W18-U/214/HK.01.10/XII/2015 2015-12-02 PERHIMPUNAN ADVOKAT INDONESIA (PERADI) VERSI OTTO HASIBUAN
214 214 ARIEF WIDAGDO SOETARNO, S.H. NGAWI - 10 Mei 1960 Islam Samarinda KEP.0017/ADV/PERADI/DPN/XI/2015 2015-11-02 2015 W18-U/215/HK.01.10/XII/2015 2015-12-02 PERHIMPUNAN ADVOKAT INDONESIA (PERADI) VERSI OTTO HASIBUAN
215 215 ARIS DWI SURYADI, S.H., M.H. MALANG - 19 Des 1978 Islam Balikpapan KEP.0005/ADV/PERADI/DPN/XI/2015 2015-11-02 2015 W18-U/216/HK.01.10/XII/2015 2015-12-02 PERHIMPUNAN ADVOKAT INDONESIA (PERADI) VERSI OTTO HASIBUAN
216 216 ALI IMRON, S.H. LAMONGAN - 13 Mei 1967 Islam Samarinda KEP.0001/ADV/PERADI/DPN/XI/2015 2015-11-02 2015 W18-U/217/HK.01.10/XII/2015 2015-12-02 PERHIMPUNAN ADVOKAT INDONESIA (PERADI) VERSI OTTO HASIBUAN
217 217 MARDIANSYAH, S.H. BALIKPAPAN - 05 Okt 1988 Islam Balikpapan KEP.0032/ADV/PERADI/DPN/XI/2015 2015-11-02 2015 W18-U/218/HK.01.10/XII/2015 2015-12-02 PERHIMPUNAN ADVOKAT INDONESIA (PERADI) VERSI OTTO HASIBUAN
218 218 AKBAR ALIM AMIN, S.H. BALIKPAPAN - 18 Mar 1982 Islam Balikpapan KEP.0538/ADV/PERADI/DPN/XI/2015 2015-11-02 2015 W18-U/219/HK.01.10/XII/2015 2015-12-02 PERHIMPUNAN ADVOKAT INDONESIA (PERADI) VERSI OTTO HASIBUAN
219 219 BAMBANG SRIMARTONO, S.H. SITUBONDO - 01 Mei 1981 Islam Samarinda KEP.0531/ADV/PERADI/DPN/XI/2015 2015-11-02 2015 W18-U/220/HK.01.10/XII/2015 2015-12-02 PERHIMPUNAN ADVOKAT INDONESIA (PERADI) VERSI OTTO HASIBUAN
220 220 CHARLES SAPU, S.H. SAMARINDA - 24 Sept 1989 Kristen Protestan Tenggarong KEP.0018/ADV/PERADI/DPN/XI/2015 2015-11-02 2015 W18-U/221/HK.01.10/XII/2015 2015-12-02 PERHIMPUNAN ADVOKAT INDONESIA (PERADI) VERSI OTTO HASIBUAN
221 221 EZWAR NUGRAHA, S.H. SAMARINDA - 06 Feb 1988 Islam Samarinda KEP.0024/ADV/PERADI/DPN/XI/2015 2015-11-02 2015 W18-U/222/HK.01.10/XII/2015 2015-12-02 PERHIMPUNAN ADVOKAT INDONESIA (PERADI) VERSI OTTO HASIBUAN
222 222 FATHUL HUDA WIYASHADI, S.H. BALIKPAPAN - 23 Juni 1986 Islam Balikpapan KEP.0011/ADV/PERADI/DPN/XI/2015 2015-11-02 2015 W18-U/223/HK.01.10/XII/2015 2015-12-02 PERHIMPUNAN ADVOKAT INDONESIA (PERADI) VERSI OTTO HASIBUAN
223 223 FERDI YULIANSYAH, S.H. BALIKPAPAN - 24 Juli 1983 Islam Balikpapan KEP.0024/ADV/PERADI/DPN/XI/2015 2015-11-02 2015 W18-U/224/HK.01.10/XII/2015 2015-12-02 PERHIMPUNAN ADVOKAT INDONESIA (PERADI) VERSI OTTO HASIBUAN
224 224 GUNTUR FRANSISCUS SIMANDJUNTAK, S.H. SURABAYA - 21 Feb 1985 Kristen Protestan Samarinda KEP.0534/ADV/PERADI/DPN/XI/2015 2015-11-02 2015 W18-U/225/HK.01.10/XII/2015 2015-12-02 PERHIMPUNAN ADVOKAT INDONESIA (PERADI) VERSI OTTO HASIBUAN
225 225 H. RUSNANDI, S.H. MARTAPURA - 20 Agust 1958 Islam Balikpapan KEP.0036/ADV/PERADI/DPN/XI/2015 2015-11-02 2015 W18-U/226/HK.01.10/XII/2015 2015-12-02 PERHIMPUNAN ADVOKAT INDONESIA (PERADI) VERSI OTTO HASIBUAN
226 226 HAMSAN, S.H. TANTARINGQAN (TABALONG) - 05 Apr 1979 Islam Balikpapan KEP.0026/ADV/PERADI/DPN/XI/2015 2015-11-02 2015 W18-U/227/HK.01.10/XII/2015 2015-12-02 PERHIMPUNAN ADVOKAT INDONESIA (PERADI) VERSI OTTO HASIBUAN
227 227 HEFNI EFENDI, S.H.I. BANJARMASIN - 21 Okt 1988 Islam Samarinda KEP.0025/ADV/PERADI/DPN/XI/2015 2015-11-02 2015 W18-U/228/HK.01.10/XII/2015 2015-12-02 PERHIMPUNAN ADVOKAT INDONESIA (PERADI) VERSI OTTO HASIBUAN
228 228 HENDRA L. DON, S.H., M.H. SAMARINDA - 03 Des 1983 Kristen Protestan Kutai Barat KEP.0027/ADV/PERADI/DPN/XI/2015 2015-11-02 2015 W18-U/229/HK.01.10/XII/2015 2015-12-02 PERHIMPUNAN ADVOKAT INDONESIA (PERADI) VERSI OTTO HASIBUAN
229 229 HERY INDRA, S.H. PALEMBANG - 02 Okt 1960 Islam Samarinda KEP.0003/ADV/PERADI/DPN/XI/2015 2015-11-02 2015 W18-U/230/HK.01.10/XII/2015 2015-12-02 PERHIMPUNAN ADVOKAT INDONESIA (PERADI) VERSI OTTO HASIBUAN
230 230 HERIANSYAH, S.H. MUARA PANTUAN - 25 Sept 1984 Islam Samarinda KEP.0007/ADV/PERADI/DPN/XI/2015 2015-11-02 2015 W18-U/231/HK.01.10/XII/2015 2015-12-02 PERHIMPUNAN ADVOKAT INDONESIA (PERADI) VERSI OTTO HASIBUAN
231 231 I KETUT WIRA HADIPUTRA, S.H. KARANGASEM - 29 Apr 1965 Islam Balikpapan KEP.0028/ADV/PERADI/DPN/XI/2015 2015-11-02 2015 W18-U/232/HK.01.10/XII/2015 2015-12-02 PERHIMPUNAN ADVOKAT INDONESIA (PERADI) VERSI OTTO HASIBUAN
232 232 KOKO, S.H., M.H. TUBAN - 01 Feb 1985 Islam Samarinda KEP.0031/ADV/PERADI/DPN/XI/2015 2015-11-02 2015 W18-U/234/HK.01.10/XII/2015 2015-12-02 PERHIMPUNAN ADVOKAT INDONESIA (PERADI) VERSI OTTO HASIBUAN
233 233 KUNDORI, S.H. LAMONGAN - 28 Mei 1984 Islam Balikpapan KEP.0012/ADV/PERADI/DPN/XI/2015 2015-11-02 2015 W18-U/235/HK.01.10/XII/2015 2015-12-02 PERHIMPUNAN ADVOKAT INDONESIA (PERADI) VERSI OTTO HASIBUAN
234 234 H. MANSYUR NUNTJI, S.H., M.H. BALIKPAPAN - 17 Juni 1952 Islam Bontang KEP.0537/ADV/PERADI/DPN/XI/2015 2015-11-02 2015 W18-U/236/HK.01.10/XII/2015 2015-12-02 PERHIMPUNAN ADVOKAT INDONESIA (PERADI) VERSI OTTO HASIBUAN
235 235 MARLINCE SAMUEL, S.H. LONG PESO - 25 Mar 1989 Kristen Protestan Samarinda KEP.0532/ADV/PERADI/DPN/XI/2015 2015-11-02 2015 W18-U/237/HK.01.10/XII/2015 2015-11-02 PERHIMPUNAN ADVOKAT INDONESIA (PERADI) VERSI OTTO HASIBUAN
236 236 NENI ARIYANTI, S.H. BALIKPAPAN - 10 Mar 1986 Islam Balikpapan KEP.0033/ADV/PERADI/DPN/XI/2015 2015-11-02 2015 W18-U/238/HK.01.10/XII/2015 2015-12-02 PERHIMPUNAN ADVOKAT INDONESIA (PERADI) VERSI OTTO HASIBUAN
237 237 PRABOWO, S.H. PURWOREJO - 08 Sept 1981 Islam Samarinda KEP.0535/ADV/PERADI/DPN/XI/2015 2015-11-02 2015 W18-U/239/HK.01.10/XII/2015 2015-12-02 PERHIMPUNAN ADVOKAT INDONESIA (PERADI) VERSI OTTO HASIBUAN
238 238 RITA KURNIASIH, S.H. SLEMAN - 07 Agust 1975 Islam Samarinda KEP.0034/ADV/PERADI/DPN/XI/2015 2015-11-02 2015 W18-U/240/HK.01.10/XII/2015 2015-12-02 PERHIMPUNAN ADVOKAT INDONESIA (PERADI) VERSI OTTO HASIBUAN
239 239 RUDI HARTONO PASARIBU, S.H. SIMANOSOR - 15 Agust 1989 Kristen Protestan Samarinda KEP.0008/ADV/PERADI/DPN/XI/2015 2015-11-02 2015 W18-U/241/HK.01.10/XII/2015 2015-12-02 PERHIMPUNAN ADVOKAT INDONESIA (PERADI) VERSI OTTO HASIBUAN
240 240 ROBERT ANDARIAS, S.H. RANTEPAO - 26 Apr 1985 Kristen Protestan Balikpapan KEP.0035/ADV/PERADI/DPN/XI/2015 2015-11-02 2015 W18-U/242/HK.01.10/XII/2015 2015-12-02 PERHIMPUNAN ADVOKAT INDONESIA (PERADI) VERSI OTTO HASIBUAN
241 241 SYAHRONI, S.H. GROBOGAN - 08 Feb 1986 Islam Samarinda KEP.0009/ADV/PERADI/DPN/XI/2015 2015-11-02 2015 W18-U/243/HK.01.10/XII/2015 2015-12-02 PERHIMPUNAN ADVOKAT INDONESIA (PERADI) VERSI OTTO HASIBUAN
242 242 SURYA DARMAWAN, S.H. SAMARINDA - 14 Juni 1986 Islam Samarinda KEP.0038/ADV/PERADI/DPN/XI/2015 2015-11-02 2015 W18-U/244/HK.01.10/XII/2015 2015-12-02 PERHIMPUNAN ADVOKAT INDONESIA (PERADI) VERSI OTTO HASIBUAN
243 243 SUWANDI, S.H. PAMMESAKANG - 10 Nov 1983 Islam Penajam KEP.0039/ADV/PERADI/DPN/XI/2015 2015-11-02 2015 W18-U/245/HK.01.10/XII/2015 2015-12-02 PERHIMPUNAN ADVOKAT INDONESIA (PERADI) VERSI OTTO HASIBUAN
244 244 SUHENDRA, S.H. BOGOR - 01 Juni 1986 Islam Balikpapan KEP.0037/ADV/PERADI/DPN/XI/2015 2015-11-02 2015 W18-U/246/HK.01.10/XI/2015 2015-12-02 PERHIMPUNAN ADVOKAT INDONESIA (PERADI) VERSI OTTO HASIBUAN
245 245 TOMIC MINZATHU, S.H. UJUNG PANDANG - 31 Juli 1981 Islam Balikpapan KEP.0042/ADV/PERADI/DPN/XI/2015 2015-11-02 2015 W18-U/247/HK.01.10/XII/2015 2015-12-02 PERHIMPUNAN ADVOKAT INDONESIA (PERADI) VERSI OTTO HASIBUAN
246 246 TEGUH ARBIANTO, S.H. SAMARINDA - 17 Juni 1989 Islam Samarinda KEP.0013/ADV/PERADI/DPN/XI/2015 2015-11-02 2015 W18-U/248/HK.01.10/XII/2015 2015-12-02 PERHIMPUNAN ADVOKAT INDONESIA (PERADI) VERSI OTTO HASIBUAN
247 247 UTORO DWI WINDARDI, S.H., M.H. BALIKPAPAN - 29 Mar 1986 Islam Balikpapan KEP.0536/ADV/PERADI/DPN/XI/2015 2015-11-02 2015 W18-U/249/HK.01.10/XII/2015 2015-12-02 PERHIMPUNAN ADVOKAT INDONESIA (PERADI) VERSI OTTO HASIBUAN
248 248 UNGGYL SETIA SAPUTRA, S.H. BALIKPAPAN - 23 Apr 1989 Islam Tenggarong KEP.0040/ADV/PERADI/DPN/XI/2015 2015-11-02 2015 W18-U/250/HK.01.10/XII/2015 2015-12-02 PERHIMPUNAN ADVOKAT INDONESIA (PERADI) VERSI OTTO HASIBUAN
249 249 WAWAN SANJAYA, S.H. LOA DURI - 11 Juli 1990 Islam Balikpapan KEP.0041/ADV/PERADI/DPN/XI/2015 2015-11-02 2015 W18-U/251/HK.01.10/XII/2015 2015-12-02 PERHIMPUNAN ADVOKAT INDONESIA (PERADI) VERSI OTTO HASIBUAN
250 250 WASTI, S.H. TORAJA - 05 Nov 1979 Kristen Protestan Samarinda KEP.0533/ADV/PERADI/DPN/XI/2015 2015-11-02 2015 W18-U/252/HK.01.10/XI/2015 2015-12-02 PERHIMPUNAN ADVOKAT INDONESIA (PERADI) VERSI OTTO HASIBUAN
251 251 DUDIN WALUYO ASMORO SANTO, S.H. KARANGANYAR - 24 Mei 1981 Islam Samarinda KEP.0020/ADV/PERADI/DPN/XI/2015 2015-11-02 2015 W18-U/253/HK.01.10/XII/2015 2015-12-02 PERHIMPUNAN ADVOKAT INDONESIA (PERADI) VERSI OTTO HASIBUAN
252 252 DARIUS SAIMAN, S.H. MUARA TAE - 29 Sept 1990 Kristen Katholik Kutai Barat KEP.0006/ADV/PERADI/DPN/XI/2015 2015-11-02 2015 W18-U/254/HK.01.10/XII/2015 2015-12-02 PERHIMPUNAN ADVOKAT INDONESIA (PERADI) VERSI OTTO HASIBUAN
253 253 DIENTIA DINNEAR, S.H. BALIKPAPAN - 09 Des 1985 Islam Balikpapan KEP.0010/ADV/PERADI/DPN/XI/2015 2015-11-02 2015 W18-U/255/HK.01.10/XII/2015 2015-12-02 PERHIMPUNAN ADVOKAT INDONESIA (PERADI) VERSI OTTO HASIBUAN
254 254 DEDI IRAWAN, S.H.I. RANTAU NIPIS - 11 Mei 1984 Islam Balikpapan KEP.0019/ADV/PERADI/DPN/XI/2015 2015-11-02 2015 W18-U/256/HK.01.10/XII/2015 2015-12-02 PERHIMPUNAN ADVOKAT INDONESIA (PERADI) VERSI OTTO HASIBUAN
255 255 DEWI DECANOVA, S.H. BALIKPAPAN - 10 Nov 1984 Islam Balikpapan KEP.0002/ADV/PERADI/DPN/XI/2015 2015-11-02 2015 W18-U/257/HK.01.10/XII/2015 2015-12-02 PERHIMPUNAN ADVOKAT INDONESIA (PERADI) VERSI OTTO HASIBUAN
256 256 EKAWATI, S.H. SAMARINDA - 10 Apr 1977 Islam Samarinda KEP.0022/ADV/PERADI/DPN/XI/2015 2015-11-02 2015 W18-U/258/HK.01.10/XII/2015 2015-12-02 PERHIMPUNAN ADVOKAT INDONESIA (PERADI) VERSI OTTO HASIBUAN
257 257 EVAN ELROY SITUMORANG, S.H. SAMARINDA - 10 Mar 1985 Kristen Protestan Samarinda KEP.0399/ADV/PERADI/DPN/XI/2015 2015-11-02 2015 W18-U/259/HK.01.10/XII/2015 2015-12-02 PERHIMPUNAN ADVOKAT INDONESIA (PERADI) VERSI OTTO HASIBUAN
258 258 ANITA, S.H. DONGGALA - 12 Jan 1990 Kristen Protestan Balikpapan KEP.0016/ADV/PERADI/DPN/XI/2015 2015-11-02 2015 W18-U/260/HK.01.10/XII/2015 2015-12-02 PERHIMPUNAN ADVOKAT INDONESIA (PERADI) VERSI OTTO HASIBUAN
259 259 AGUSTINUS YOHAN LIKO, S.H. FLORES - 02 Agust 1966 Kristen Katholik Tanjung Redeb 00729/023/SK-ADV/KAI/VI/2010 2010-06-20 2016 W18-U/1/HK.01.10/V/2016 2016-05-19 KONGRES ADVOKAT INDONESIA (KAI) VERSI TUTJU SANJAYA
260 260 AJRUN, S.H. NCERA - 17 Agust 1980 Islam Tenggarong 0555/SK/VI/2014/DPP 2014-06-27 2016 W18-U/2/HK.01.10/V/2016 2016-05-19 KONGRES ADVOKAT INDONESIA (KAI) VERSI TUTJU SANJAYA
261 261 ALPENTUS POPPY KUMALA, S.H SAMARINDA - 23 Agust 1962 Kristen Protestan Samarinda 031-SK/BPP-PERADIN/I/2016 2016-01-18 2016 W18-U/3/HK.01.10/V/2016 2016-05-19 KONGRES ADVOKAT INDONESIA (KAI) VERSI TUTJU SANJAYA
262 262 AMIRUDDIN, S.H. PINRANG - 02 Mar 1969 Islam Tarakan 03514/023/SK-ADV/KAI/VI/2013 2013-06-22 2016 W18-U/4/HK.01.10/V/2016 2016-05-10 KONGRES ADVOKAT INDONESIA (KAI) VERSI TUTJU SANJAYA
263 263 AMIRULLAH, S.H. BALIKPAPAN - 30 Des 1969 Islam Samarinda 4163/KEP-ADV-KAI/IV/2009 2009-04-27 2016 W18-U/5/HK.01.10/V/2016 2016-05-19 KONGRES ADVOKAT INDONESIA (KAI) VERSI TUTJU SANJAYA
264 264 ASYIK HIDAYATULLAH, S.H. MAGETAN - 07 Apr 1984 Islam Samarinda 03042/023/SK-ADV/KAI/XI/2012 2012-12-24 2016 W18-U/6/HK.01.10/V/2016 2016-05-19 KONGRES ADVOKAT INDONESIA (KAI) VERSI TUTJU SANJAYA
265 265 BURHANUDDIN, S.H. GOA - 01 Nov 1982 Islam Tanjung Redeb 03539/023/SK-ADV/KAI/VI/2013 2013-06-22 2016 W18-U/7/HK.01.10/V/2016 2016-05-19 KONGRES ADVOKAT INDONESIA (KAI) VERSI TUTJU SANJAYA
266 266 ELIA HENDRA WIJATA , S.H. TABANG - 15 Des 1991 Kristen Katholik Tenggarong 0553/SK/VI/2014/DPP 2014-06-27 2016 W18-U/8/HK.01.10/V/2016 2016-05-19 KONGRES ADVOKAT INDONESIA (KAI) VERSI TUTJU SANJAYA
267 267 FADLIANSYAH, S.H. TARAKAN - 24 Feb 1983 Islam Tarakan 4128/KEP-ADV/DPP-KAI/IV/2009 2009-04-27 2016 W18-U/9/HK.01.10/V/2016 2016-05-19 KONGRES ADVOKAT INDONESIA (KAI) VERSI TUTJU SANJAYA
268 268 FAJRI BERNAS GUNARSA, S.H. SAMARINDA - 22 Nov 1989 Islam Samarinda 03480/023/SK-ADV/KAI/VI/2013 2013-06-22 2016 W18-U/10/HK.01.10/V/2016 2016-05-19 KONGRES ADVOKAT INDONESIA (KAI) VERSI TUTJU SANJAYA
269 269 JOSEPH PIETER P TUKAN, S.H., M.Hum. SAMARINDA - 07 Des 1986 Kristen Katholik Samarinda 0307/SK/IX/2013/DPP 2013-09-21 2016 W18-U/11/HK.01.10/V/2016 2016-05-19 KONGRES ADVOKAT INDONESIA (KAI) VERSI TUTJU SANJAYA
270 270 JUNAIDI, S.H., M.Hum. SAMARINDA - 15 Des 1983 Islam Samarinda 4177/KEP-ADV/DPP-KAI/IV/2009 2009-04-27 2016 W18-U/12/HK.01.10/V/2016 2016-05-19 KONGRES ADVOKAT INDONESIA (KAI) VERSI TUTJU SANJAYA
271 271 KABEH, S.H. LATAQ - 02 Jan 1972 Kristen Protestan Kutai Barat 0558/SK/VI/2014/DPP 2014-06-27 2016 W18-U/13/HK.01.10/V/2016 2016-05-19 KONGRES ADVOKAT INDONESIA (KAI) VERSI TUTJU SANJAYA
272 272 LUSIANO, S.H. BANJARMASIN - 24 Jan 1955 Kristen Protestan Tanjung Selor 03485/023/SK-ADV/KAI/VI/2013 2013-06-22 2016 W18-U/14/HK.01.10/V/2016 2016-05-19 KONGRES ADVOKAT INDONESIA (KAI) VERSI TUTJU SANJAYA
273 273 MARTIN DJUK LONG TELENJAU - 15 Mei 1978 Kristen Protestan Tanjung Selor 03537/023/SK-ADV/KAI/VI/2013 2013-06-22 2016 W18-U/15/HK.01.10/V/2016 2016-05-19 KONGRES ADVOKAT INDONESIA (KAI) VERSI TUTJU SANJAYA
274 274 MARLIN HUTASOIT, S.H. SUMUT - 10 Juli 1964 Kristen Protestan Samarinda 032-SK/BPP-PERADIN/I/2016 2016-01-18 2016 W18-U/16/HK.01.10/V/2016 2016-05-19 KONGRES ADVOKAT INDONESIA (KAI) VERSI TUTJU SANJAYA
275 275 MAPHILINDO, S.H. BALIKPAPAN - 31 Juli 1965 Islam Samarinda 00740/023/SK-ADV/KAI/VI/2010 2010-06-20 2016 W18-U/17/HK.01.10/V/2016 2016-05-19 KONGRES ADVOKAT INDONESIA (KAI) VERSI TUTJU SANJAYA
276 276 MATHIUS SUKIDI, S.H. SRAGEN - 15 Juni 1949 Kristen Katholik Tanjung Selor 03541/023/SK-ADV/KAI/VI/2013 2013-06-22 2016 W18-U/18/HK.01.10/V/2016 2016-05-19 KONGRES ADVOKAT INDONESIA (KAI) VERSI TUTJU SANJAYA
277 277 MOH. YAUB ABDULLAH, S.H. SAMARINDA - 01 Jan 1958 Islam Samarinda 4122/KEP-ADV/DPP-KAI/IV/2009 2009-04-27 2016 W18-U/19/HK.01.10/V/2016 2016-05-19 KONGRES ADVOKAT INDONESIA (KAI) VERSI TUTJU SANJAYA
278 278 MUHAMAD JAPRI, S.H. BANJAR BARU - 09 Agust 1963 Islam Samarinda 033-SK/BPP-PERADIN/I/2016 2016-01-18 2016 W18-U/20/HK.01.10/V/2016 2016-05-19 KONGRES ADVOKAT INDONESIA (KAI) VERSI TUTJU SANJAYA
279 279 RABIN RABAHNI, S.H. PERIGIQ - 25 Agust 1979 Kristen Protestan Samarinda 00734/023/SK-ADV/KAI/VI/2010 2010-06-20 2016 W18-U/21/HK.01.10/V/2016 2016-05-19 KONGRES ADVOKAT INDONESIA (KAI) VERSI TUTJU SANJAYA
280 280 S.ROY HENDRAYANTO, S.H., M.Hum. SAMARINDA - 01 Juli 1975 Kristen Protestan Samarinda 034-SK/BPP-PERADIN/I/2016 2016-01-18 2016 W18-U/22/HK.01.10/V/2016 2016-05-19 KONGRES ADVOKAT INDONESIA (KAI) VERSI TUTJU SANJAYA
281 281 WASAL FALAH, S.H. BALIKPAPAN - 11 Mei 1979 Islam Balikpapan 04107/023/SK-ADV/KAI/VI/2013 2013-06-23 2016 W18-U/23/HK.01.10/V/2016 2016-05-19 KONGRES ADVOKAT INDONESIA (KAI) VERSI TUTJU SANJAYA
282 282 WIWI WIDANINGSIH, S.H. KUNINGAN - 14 Nov 1968 Islam Samarinda 03473/023/SK-ADV/KAI/VI/2013 2013-06-22 2016 W18-U/24/HK.01.10/V/2016 2016-05-19 KONGRES ADVOKAT INDONESIA (KAI) VERSI TUTJU SANJAYA
283 283 YUDHO KINARYOADI, S.H. MOJOKERTO - 23 Nov 1964 Kristen Protestan Samarinda 4150/KEP-ADV/DPP-KAI/IV/2009 2009-04-27 2016 W18-U/25/HK.01.10/V/2016 2016-05-19 KONGRES ADVOKAT INDONESIA (KAI) VERSI TUTJU SANJAYA
284 284 ZUHAIRIE, S.H. SAMARINDA - 18 Apr 1962 Islam Samarinda 00750/023/SK-ADV/KAI/VI/2010 2010-06-20 2016 W18-U/26/HK.01.10/V/2016 2016-05-19 KONGRES ADVOKAT INDONESIA (KAI) VERSI TUTJU SANJAYA
285 285 ABDUL HAKIM, S.H. SONI - 21 Mar 1969 Islam Samarinda KEP.15.0023/ADV/PERADI/DPN/II/2016 2016-02-10 2016 W18-U/27/HK.01.10/V/2016 2016-05-25 PERHIMPUNAN ADVOKAT INDONESIA (PERADI) VERSI OTTO HASIBUAN
286 286 AGUS SUGIONO, S.H. SURABAYA - 31 Juli 1971 Islam Samarinda KEP.15.0018/ADV/PERADI/DPN/II/2016 2016-02-10 2016 W18-U/28/HK.01.10/V/2016 2016-05-25 PERHIMPUNAN ADVOKAT INDONESIA (PERADI) VERSI OTTO HASIBUAN
287 287 AGUSTAN, S.H. COMPONGE - 08 Agust 1971 Islam Tarakan KEP.15.0019/ADV/PERADI/DPN/II/2016 2016-02-10 2016 W18-U/29/HK.01.10/V/2016 2016-05-25 PERHIMPUNAN ADVOKAT INDONESIA (PERADI) VERSI OTTO HASIBUAN
288 288 AMIN SLAMET, S.H. SAMARINDA - 21 Des 1983 Islam Samarinda KEP.15.0022/ADV/PERADI/DPN/II/2016 2016-02-10 2016 W18-U/30/HK.01.10/V/2016 2016-05-25 PERHIMPUNAN ADVOKAT INDONESIA (PERADI) VERSI OTTO HASIBUAN
289 289 DESI ANDRIANI NATALIE H, S.H. TENGGARONG - 20 Des 1987 Kristen Katholik Samarinda KEP.15.0016/ADV/PERADI/DPN/II/2016 2016-02-10 2016 W18-U/31/HK.01.10/V/2016 2016-05-25 PERHIMPUNAN ADVOKAT INDONESIA (PERADI) VERSI OTTO HASIBUAN
290 290 ELIA ISRAEL SIMARANGKIR, S.H. SAMARINDA - 27 Jan 1991 Kristen Protestan Samarinda KEP.15.0020/ADV/PERADI/DPN/II/2016 2016-02-10 2016 W18-U/32/HK.01.10/V/2016 2016-05-25 PERHIMPUNAN ADVOKAT INDONESIA (PERADI) VERSI OTTO HASIBUAN
291 291 HANDOKO YULIKO EFENDI, S.H. JEMBER - 12 Juli 1984 Islam Samarinda KEP.15.0002/ADV/PERADI/DPN/II/2016 2016-02-10 2016 W18-U/33/HK.01.10/V/2016 2016-05-25 PERHIMPUNAN ADVOKAT INDONESIA (PERADI) VERSI OTTO HASIBUAN
292 292 HARTONO, S.H. MADIUN - 22 Okt 1962 Islam Balikpapan KEP.15.0015/ADV/PERADI/DPN/II/2016 2016-02-10 2016 W18-U/34/HK.01.10/V/2016 2016-05-25 PERHIMPUNAN ADVOKAT INDONESIA (PERADI) VERSI OTTO HASIBUAN
293 293 HASRUL, S.H. MAWA - 02 Des 1980 Islam Nunukan KEP.15.0025/ADV/PERADI/DPN/II/2016 2016-02-10 2016 W18-U/35/HK.01.10/V/2016 2016-05-25 PERHIMPUNAN ADVOKAT INDONESIA (PERADI) VERSI OTTO HASIBUAN
294 294 HORLANDO SOSTENES SITORUS, S.H. MEDAN - 05 Okt 1990 Kristen Protestan Tenggarong KEP.15.0014/ADV/PERADI/DPN/II/2016 2016-02-10 2016 W18-U/36/HK.01.10/V/2016 2016-05-25 PERHIMPUNAN ADVOKAT INDONESIA (PERADI) VERSI OTTO HASIBUAN
295 295 IMELDA HASIBUAN, S.H. MEDAN - 27 Juli 1981 Islam Samarinda KEP.15.0013/ADV/PERADI/DPN/II/2016 2016-02-10 2016 W18-U/37/HK.01.10/V/2016 2016-05-25 PERHIMPUNAN ADVOKAT INDONESIA (PERADI) VERSI OTTO HASIBUAN
296 296 ISMAN, S.H. ENREKANG - 24 Mei 1982 Islam Tanah Grogot KEP.15.0021/ADV/PERADI/DPN/II/2016 2016-02-10 2016 W18-U/38/HK.01.10/V/2016 2016-05-25 PERHIMPUNAN ADVOKAT INDONESIA (PERADI) VERSI OTTO HASIBUAN
297 297 JACKSON RENOLD, S.H. JAKARTA - 21 Juli 1977 Islam Balikpapan KEP.0029/ADV/PERADI/DPN/XI/2015 2015-11-02 2016 W18-U/39/HK.01.10/V/2016 2016-05-25 PERHIMPUNAN ADVOKAT INDONESIA (PERADI) VERSI OTTO HASIBUAN
298 298 KAHAR JULI, S.H. BALIKPAPAN - 01 Juli 1979 Islam Balikpapan KEP.15.0012/ADV/PERADI/DPN/II/2016 2016-02-10 2016 W18-U/40/HK.01.10/V/2016 2016-05-25 PERHIMPUNAN ADVOKAT INDONESIA (PERADI) VERSI OTTO HASIBUAN
299 299 LASMA LESTARI NAINGGOLAN, S.H. HUTA KALAPA - 23 Mar 1986 Kristen Protestan Balikpapan KEP.15.0010/ADV/PERADI/DPN/II/2016 2016-02-10 2016 W18-U/41/HK.01.10/V/2016 2016-05-25 PERHIMPUNAN ADVOKAT INDONESIA (PERADI) VERSI OTTO HASIBUAN
300 300 LUKAS HIMUQ, S.H. TUKUL - 09 Jan 1987 Kristen Protestan Sangatta KEP.15.0011/ADV/PERADI/DPN/II/2016 2016-02-10 2016 W18-U/42/HK.01.10/V/2016 2016-05-25 PERHIMPUNAN ADVOKAT INDONESIA (PERADI) VERSI OTTO HASIBUAN
301 301 MARPEN SINAGA, S.H. KODON-KODON - 24 Nov 1984 Kristen Katholik Samarinda KEP.15.0009/ADV/PERADI/DPN/II/2016 2016-02-10 2016 W18-U/43/HK.01.10/V/2016 2016-05-25 PERHIMPUNAN ADVOKAT INDONESIA (PERADI) VERSI OTTO HASIBUAN
302 302 MELKI IMBRON NABABAN, S.H. AEK TARUM - 19 Mar 1991 Kristen Protestan Samarinda KEP.15.0033/ADV/PERADI/DPN/II/2016 2016-02-10 2016 W18-U/44/HK.01.10/V/2016 2016-05-25 PERHIMPUNAN ADVOKAT INDONESIA (PERADI) VERSI OTTO HASIBUAN
303 303 MOESLIMIN, S.H., M.Kn. PARE-PARE - 21 Mei 1989 Islam Balikpapan KEP.0539/ADV/PERADI/DPN/XI/2015 2015-11-02 2016 W18-U/45/HK.01.10/V/2016 2016-05-25 PERHIMPUNAN ADVOKAT INDONESIA (PERADI) VERSI OTTO HASIBUAN
304 304 MUHAMMAD MUZAQIR, S.H. SAMARINDA - 21 Jan 1986 Islam Samarinda KEP.15.0026/ADV/PERADI/DPN/II/2016 2016-02-10 2016 W18-U/46/HK.01.10/V/2016 2016-05-25 PERHIMPUNAN ADVOKAT INDONESIA (PERADI) VERSI OTTO HASIBUAN
305 305 PRICILIA PRISCA, S.H., L.L.M. BALIKPAPAN - 12 Apr 1991 Kristen Katholik Balikpapan KEP.15.0030/ADV/PERADI/DPN/II/2016 2016-02-10 2016 W18-U/47/HK.01.10/V/2016 2016-05-25 PERHIMPUNAN ADVOKAT INDONESIA (PERADI) VERSI OTTO HASIBUAN
306 306 R.E. ROEDINI, S.H. TENGGARONG - 12 Mar 1986 Islam Tenggarong KEP.15.0028/ADV/PERADI/DPN/II/2016 2016-02-10 2016 W18-U/48/HK.01.10/V/2016 2016-05-25 PERHIMPUNAN ADVOKAT INDONESIA (PERADI) VERSI OTTO HASIBUAN
307 307 REZA FAHLEPY, S.H., M.H. BALIKPAPAN - 16 Mar 1990 Islam Balikpapan KEP.15.0024/ADV/PERADI/DPN/II/2016 2016-02-10 2016 W18-U/49/HK.01.10/V/2016 2016-05-25 PERHIMPUNAN ADVOKAT INDONESIA (PERADI) VERSI OTTO HASIBUAN
308 308 ROBERD ARITONANG, S.H. SAMARINDA - 17 Jan 1989 Kristen Protestan Samarinda KEP.15.0008/ADV/PERADI/DPN/II/2016 2016-02-10 2016 W18-U/50/HK.01.10/V/2016 2016-05-25 PERHIMPUNAN ADVOKAT INDONESIA (PERADI) VERSI OTTO HASIBUAN
309 309 ROCHMAD WAHYUDI, S.H. PASURUAN - 07 Nov 1980 Islam Kutai Barat KEP.15.0007/ADV/PERADI/DPN/II/2016 2016-02-10 2016 W18-U/51/HK.01.10/V/2016 2016-05-25 PERHIMPUNAN ADVOKAT INDONESIA (PERADI) VERSI OTTO HASIBUAN
310 310 ROMARIO PALAYUKAN, S.H. NABIRE - 06 Mar 1991 Kristen Protestan Balikpapan KEP.15.0032/ADV/PERADI/DPN/II/2016 2016-02-10 2016 W18-U/52/HK.01.10/V/2016 2016-05-25 PERHIMPUNAN ADVOKAT INDONESIA (PERADI) VERSI OTTO HASIBUAN
311 311 SADAM KHOLIK, S.H. SAMBOJA - 06 Feb 1991 Islam Samarinda KEP.15.0004/ADV/PERADI/DPN/II/2016 2016-02-10 2016 W18-U/53/HK.01.10/V/2016 2016-05-25 PERHIMPUNAN ADVOKAT INDONESIA (PERADI) VERSI OTTO HASIBUAN
312 312 SAMSUL ARIFIN, S.H. JEMBER - 04 Feb 1975 Islam Samarinda KEP.15.0001/ADV/PERADI/DPN/II/2016 2016-02-10 2016 W18-U/54/HK.01.10/V/2016 2016-05-25 PERHIMPUNAN ADVOKAT INDONESIA (PERADI) VERSI OTTO HASIBUAN
313 313 SITOMPUL CHARLES MAROLOP, S.H. SAMARINDA - 27 Apr 1989 Kristen Protestan Samarinda KEP.15.0006/ADV/PERADI/DPN/II/2016 2016-02-10 2016 W18-U/55/HK.01.10/V/2016 2016-05-25 PERHIMPUNAN ADVOKAT INDONESIA (PERADI) VERSI OTTO HASIBUAN
314 314 SUJANLIE TOTONG, S.H. BANGKA - 10 Apr 1972 Kristen Protestan Samarinda KEP.15.0005/ADV/PERADI/DPN/II/2016 2016-02-10 2016 W18-U/56/HK.01.10/V/2016 2016-05-25 PERHIMPUNAN ADVOKAT INDONESIA (PERADI) VERSI OTTO HASIBUAN
315 315 TOMSON SIMANJORANG, S.H. BENGKULU - 08 Agust 1989 Kristen Protestan Samarinda KEP.15.0029/ADV/PERADI/DPN/II/2016 2016-02-10 2016 W18-U/57/HK.01.10/V/2016 2016-05-25 PERHIMPUNAN ADVOKAT INDONESIA (PERADI) VERSI OTTO HASIBUAN
316 316 UNGKAP SIMAMORA, S.H. MEDAN - 21 Jan 1978 Kristen Protestan Balikpapan KEP.15.0003/ADV/PERADI/DPN/II/2016 2016-02-10 2016 W18-U/58/HK.01.10/V/2016 2016-05-25 PERHIMPUNAN ADVOKAT INDONESIA (PERADI) VERSI OTTO HASIBUAN
317 317 HERVAN DEWANTARA, S.H. TANAH GROGOT - 29 Nov 1990 Islam Tanah Grogot KEP.15.0027/ADV/PERADI/DPN/II/2016 2016-02-10 2016 W18-U/59/HK.01.10/V/2016 2016-05-25 PERHIMPUNAN ADVOKAT INDONESIA (PERADI) VERSI OTTO HASIBUAN
318 318 HERDIAN EKA PUTRAVIANTO, S.H., M.H. SEMARANG - 19 Mar 1990 Islam Balikpapan KEP.15.0031/ADV/PERADI/DPN/II/2016 2016-02-10 2016 W18-U/60/HK.01.10/V/2016 2016-05-25 PERHIMPUNAN ADVOKAT INDONESIA (PERADI) VERSI OTTO HASIBUAN
319 319 MARTHEN INDRA MANGIWA, S.H. BALIKPAPAN - 15 Apr 1984 Kristen Protestan Balikpapan KEP.15.0034/ADV/PERADI/DPN/II/2016 2016-02-10 2016 W18-U/61/HK.01.10/V/2016 2016-05-25 PERHIMPUNAN ADVOKAT INDONESIA (PERADI) VERSI OTTO HASIBUAN
320 320 ABDUL BAHRI, S.H. LUMAJANG - 28 Des 1978 Islam Tanah Grogot Kep.23.033-IV.2016 2016-04-15 2016 W18-U/62/HK.01.10/VI/2016 2016-06-02 PERKUMPULAN ADVOKAT INDONESIA (PERADIN)
321 321 AGUS SINDORO, S.H. SURABAYA - 20 Agust 1971 Kristen Katholik Samarinda Kep.23.023-IV.2016 2016-04-15 2016 W18-U/63/HK.01.10/VI/2016 2016-06-02 PERKUMPULAN ADVOKAT INDONESIA (PERADIN)
322 322 DOMINICHA LUTAB, S.H. UJOH BILANG - 17 Jan 1968 Kristen Katholik Samarinda Kep.23.039-IV.2016 2016-04-15 2016 W18-U/65/HK.01.10/VI/2016 2016-06-02 PERKUMPULAN ADVOKAT INDONESIA (PERADIN)
323 323 DENNIS BHATARA, S.H. SAMARINDA - 14 Jan 1984 Islam Samarinda Kep.23.018-IV.2016 2016-04-15 2016 W18-U/66/HK.01.10/VI/2016 2016-06-02 PERKUMPULAN ADVOKAT INDONESIA (PERADIN)
324 324 IRAMAYA, S.H. DILANG PUTI - 04 Juni 1986 Kristen Protestan Tanah Grogot Kep.23.027-IV.20016 2016-04-15 2016 W18-U/67/HK.01.10/VI/2016 2016-06-02 PERKUMPULAN ADVOKAT INDONESIA (PERADIN)
325 325 IMELDA ENGA LITANTI, S.H. SAMARINDA - 28 Juni 1982 Kristen Katholik Samarinda Kep.23.025-IV.2016 2016-04-15 2016 W18-U/68/HK.01.10/VI/2016 2016-06-02 PERKUMPULAN ADVOKAT INDONESIA (PERADIN)
326 326 LAODE LO ARPAH, S.H. BALIKPAPAN - 09 Agust 1970 Islam Balikpapan Kep.23.042-IV.2016 2016-04-15 2016 W18-U/69/HK.01.10/VI/2016 2016-06-02 PERKUMPULAN ADVOKAT INDONESIA (PERADIN)
327 327 MARIA STEPHANIE WUNU DJOKA, S.H. SAMARINDA - 08 Sept 1991 Kristen Katholik Samarinda Kep.23.029-IV.2016 2016-04-15 2016 W18-U/70/HK.01.10/VI/2016 2016-06-02 PERKUMPULAN ADVOKAT INDONESIA (PERADIN)
328 328 MOHANDES, S.H. GUNUNG TABUR - 01 Des 1980 Islam Tanjung Redeb Kep.23.028-IV.2016 2016-04-15 2016 W18-U/71/HK.01.10/VI/2016 2016-06-02 PERKUMPULAN ADVOKAT INDONESIA (PERADIN)
329 329 MUHAMAD NOR, S.H. BALIKPAPAN - 01 Jan 1975 Islam Balikpapan Kep.23.021-IV.2016 2016-04-15 2016 W18-U/72/HK.01.10/VI/2016 2016-06-02 PERKUMPULAN ADVOKAT INDONESIA (PERADIN)
330 330 MUHAMAD SAHRUN, S.H. WAKONAME - 16 Feb 1972 Islam Balikpapan Kep.23.035-IV.2016 2016-04-15 2016 W18-U/73/HK.01.10/VI/2016 2016-06-02 PERKUMPULAN ADVOKAT INDONESIA (PERADIN)
331 331 RONI, S.H. MUARA PAHU - 03 Feb 1986 Kristen Katholik Kutai Barat Kep.23.019-IV.2016 2016-04-15 2016 W18-U/75/HK.01.10/VI/2016 2016-06-02 PERKUMPULAN ADVOKAT INDONESIA (PERADIN)
332 332 WIIN, S.H. KELEKAT - 01 Okt 1965 Islam Tenggarong Kep.23.022-IV.2016 2016-04-15 2016 W18-U/77/HK.01.10/VI/2016 2016-06-02 PERKUMPULAN ADVOKAT INDONESIA (PERADIN)
333 333 YAHYA TONANG T, S.H. LAMBING - 15 Agust 1981 Kristen Protestan Samarinda Kep.23.040-IV.2016 2016-04-15 2016 W18-U/78/HK.01.10/VI/2016 2016-06-02 PERKUMPULAN ADVOKAT INDONESIA (PERADIN)
334 334 AGUSTINA LENJAU, S.H. BERAU - 05 Agust 1968 Kristen Protestan Samarinda KEP.129/PERADI.DPN/X/2016 2016-10-12 2016 W18-U/79/HK.01.10/X/2016 2016-10-19 PERHIMPUNAN ADVOKAT INDONESIA (PERADI) VERSI JUNIVER GIRSANG
335 335 ARMANTONO MALAU, S.H. KAMPUNG MERDEKA - 05 Okt 1986 Kristen Protestan Samarinda KEP.129/PERADI.DPN/X/2016 2016-10-12 2016 W18-U/80/HK.01.10/X/2016 2016-10-19 PERHIMPUNAN ADVOKAT INDONESIA (PERADI) VERSI JUNIVER GIRSANG
336 336 ABDUL JAWAD, S.H., M.H. UJUNG PANDANG - 23 Agust 1966 Islam Samarinda KEP.129/PERADI.DPN/X/2016 2016-10-12 2016 W18-U/81/HK.01.10/X/2016 2016-10-19 PERHIMPUNAN ADVOKAT INDONESIA (PERADI) VERSI JUNIVER GIRSANG
337 337 AFNI VENDY MERU, S.H. KRAYAN - 09 Des 1967 Kristen Protestan Samarinda KEP.129/PERADI.DPN/X/2016 2016-10-12 2016 W18-U/82/HK.01.10/X/2016 2016-10-19 PERHIMPUNAN ADVOKAT INDONESIA (PERADI) VERSI JUNIVER GIRSANG
338 338 DAVID WILLIAM TAMPUBOLON, S.H. SAMARINDA - 20 Mei 1991 Kristen Protestan Samarinda KEP.129/PERADI.DPN/X/2016 2016-10-12 2016 W18-U/83/HK.01.10/X/2016 2016-10-19 PERHIMPUNAN ADVOKAT INDONESIA (PERADI) VERSI JUNIVER GIRSANG
339 339 DAUD PARTOGI SITUMORANG, S.H. SAMARINDA - 17 Des 1986 Kristen Protestan Samarinda KEP.129/PERADI.DPN/X/2016 2016-10-12 2016 W18-U/84/HK.01.10/X/2016 2016-10-19 PERHIMPUNAN ADVOKAT INDONESIA (PERADI) VERSI JUNIVER GIRSANG
340 340 DENNY SILALAHI, S.H. BANDUNG - 13 Des 1988 Kristen Protestan Samarinda KEP.129/PERADI.DPN/X/2016 2016-10-12 2016 W18-U/85/HK.01.10/X/2016 2016-10-19 PERHIMPUNAN ADVOKAT INDONESIA (PERADI) VERSI JUNIVER GIRSANG
341 341 ELISASON, S.H., M.Th. PENARUNG - 01 Des 1956 Kristen Protestan Tenggarong KEP.129/PERADI.DPN/X/2016 2016-10-12 2016 W18-U/86/HK.01.10/X/2016 2016-10-19 PERHIMPUNAN ADVOKAT INDONESIA (PERADI) VERSI JUNIVER GIRSANG
342 342 FAHRULLAH NUR ASNI, S.H. TARAKAN - 10 Mei 1981 Islam Samarinda KEP.129/PERADI.DPN/X/2016 2016-10-12 2016 W18-U/87/HK.01.10/X/2016 2016-10-19 PERHIMPUNAN ADVOKAT INDONESIA (PERADI) VERSI JUNIVER GIRSANG
343 343 FIRMANSYAH, S.H. BONE - 14 Juni 1989 Islam Sangatta KEP.129/PERADI.DPN/X/2016 2016-10-12 2016 W18-U/88/HK.01.10/X/2016 2016-10-19 PERHIMPUNAN ADVOKAT INDONESIA (PERADI) VERSI JUNIVER GIRSANG
344 344 GERALD DAVIDSON MEWENGKANG, S.H. SAMARINDA - 05 Okt 1978 Kristen Protestan Samarinda KEP.129/PERADI.DPN/X/2016 2016-10-12 2016 W18-U/89/HK.01.10/X/2016 2016-10-19 PERHIMPUNAN ADVOKAT INDONESIA (PERADI) VERSI JUNIVER GIRSANG
345 345 GUNAWAN HASIBUAN, S.H. TAPANULI - 22 Mei 1972 Kristen Protestan Samarinda KEP.129/PERADI.DPN/X/2016 2016-10-12 2016 W18-U/90/HK.01.10/X/2016 2016-10-19 PERHIMPUNAN ADVOKAT INDONESIA (PERADI) VERSI JUNIVER GIRSANG
346 346 HARTONO, S.H. SAMARINDA - 21 Sept 1977 Kristen Protestan Samarinda KEP.129/PERADI.DPN/X/2016 2016-10-12 2016 W18-U/91/HK.01.10/X/2016 2016-10-19 PERHIMPUNAN ADVOKAT INDONESIA (PERADI) VERSI JUNIVER GIRSANG
347 347 HENDRIE WENAS, S.H. BUYUNGON - 05 Agust 1966 Kristen Protestan Samarinda KEP.129/PERADI.DPN/X/2016 2016-10-12 2016 W18-U/92/HK.01.10/X/2016 2016-10-19 PERHIMPUNAN ADVOKAT INDONESIA (PERADI) VERSI JUNIVER GIRSANG
348 348 HERMAN GOZALY, S.H. SAMARINDA - 07 Feb 1971 Kristen Protestan Samarinda KEP.129/PERADI.DPN/X/2016 2016-10-12 2016 W18-U/93/HK.01.10/X/2016 2016-10-19 PERHIMPUNAN ADVOKAT INDONESIA (PERADI) VERSI JUNIVER GIRSANG
349 349 JAMSON LIMBONG, S.H. MEDAN - 19 Feb 1967 Kristen Katholik Samarinda KEP.129/PERADI.DPN/X/2016 2016-10-12 2016 W18-U/94/HK.01.10/X/2016 2016-10-19 PERHIMPUNAN ADVOKAT INDONESIA (PERADI) VERSI JUNIVER GIRSANG
350 350 JAMES BASTIAN TUWO, S.H. MANADO - 10 Juli 1962 Kristen Protestan Samarinda KEP.129/PERADI.DPN/X/2016 2016-10-12 2016 W18-U/95/HK.01.10/X/2016 2016-10-19 PERHIMPUNAN ADVOKAT INDONESIA (PERADI) VERSI JUNIVER GIRSANG
351 351 HENDRIETA MARIA LEONARDA ROFINA NAHAK, S.H. ATAMBUA - 18 Apr 1983 Kristen Katholik Samarinda KEP.129/PERADI.DPN/X/2016 2016-10-12 2016 W18-U/97/HK.01.10/X/2016 2016-10-19 PERHIMPUNAN ADVOKAT INDONESIA (PERADI) VERSI JUNIVER GIRSANG
352 352 ANDRI, S.H. BERKAS TIDAK ADA - 01 Jan 1971 Islam Samarinda KEP.129/PERADI.DPN/X/2016 2016-10-12 2016 W18-U/98/HK.01.10/X/2016 2016-10-19 PERHIMPUNAN ADVOKAT INDONESIA (PERADI) VERSI JUNIVER GIRSANG
353 353 JHONAIEDY, S.H. MANSALONG - 11 Juli 1986 Kristen Protestan Malinau KEP.129/PERADI.DPN/X/2016 2016-10-12 2016 W18-U/99/HK.01.10/X/2016 2016-10-19 PERHIMPUNAN ADVOKAT INDONESIA (PERADI) VERSI JUNIVER GIRSANG
354 354 ISWANANTA, S.H. SAMARINDA - 27 Jan 1983 Islam Samarinda KEP.129/PERADI.DPN/X/2016 2016-10-12 2016 W18-U/100/HK.01.10/X/2016 2016-10-19 PERHIMPUNAN ADVOKAT INDONESIA (PERADI) VERSI JUNIVER GIRSANG
355 355 LEKIUS, S.H. LONG API - 27 Okt 1968 Kristen Protestan Samarinda KEP.129/PERADI.DPN/X/2016 2016-10-12 2016 W18-U/101/HK.01.10/X/2016 2016-10-19 PERHIMPUNAN ADVOKAT INDONESIA (PERADI) VERSI JUNIVER GIRSANG
356 356 MAHDALENA, S.H. BARU ORAI - 17 Juni 1984 Islam Samarinda KEP.129/PERADI.DPN/X/2016 2016-10-12 2016 W18-U/102/HK.01.10/X/2016 2016-10-19 PERHIMPUNAN ADVOKAT INDONESIA (PERADI) VERSI JUNIVER GIRSANG
357 357 MARDONIUS RUDI, S.H. BENUNG - 21 Juni 1972 Kristen Katholik Samarinda KEP.129/PERADI.DPN/X/2016 2016-10-12 2016 W18-U/103/HK.01.10/X/2016 2016-10-19 PERHIMPUNAN ADVOKAT INDONESIA (PERADI) VERSI JUNIVER GIRSANG
358 358 MAKMUR RATNO JAYA, S.H. PUNGGALUKU - 15 Juli 1985 Islam Samarinda KEP.129/PERADI.DPN/X/2016 2016-10-12 2016 W18-U/104/HK.01.10/X/2016 2016-10-19 PERHIMPUNAN ADVOKAT INDONESIA (PERADI) VERSI JUNIVER GIRSANG
359 359 MUHAMMAD NOOR ASHAR, S.H. MUARA KAMAN - 03 Sept 1979 Islam Tanjung Redeb KEP.129/PERADI.DPN/X/2016 2016-10-12 2016 W18-U/105/HK.01.10/X/2016 2016-10-19 PERHIMPUNAN ADVOKAT INDONESIA (PERADI) VERSI JUNIVER GIRSANG
360 360 OKTOFIANUS SIKI, S.H. BANAIN - 24 Okt 1977 Kristen Katholik Samarinda KEP.129/PERADI.DPN/X/2016 2016-10-12 2016 W18-U/106/HK.01.10/X/2016 2016-10-19 PERHIMPUNAN ADVOKAT INDONESIA (PERADI) VERSI JUNIVER GIRSANG
361 361 RICHARD MARULY BARIMBING, S.H. SAMARINDA - 10 Sept 1991 Kristen Protestan Samarinda KEP.129/PERADI.DPN/X/2016 2016-10-12 2016 W18-U/107/HK.01.10/X/2016 2016-10-19 PERHIMPUNAN ADVOKAT INDONESIA (PERADI) VERSI JUNIVER GIRSANG
362 362 ROKHMAT, S.H. PURBALINGGA - 01 Okt 1959 Islam Tenggarong KEP.129/PERADI.DPN/X/2016 2016-10-12 2016 W18-U/108/HK.01.10/X/2016 2016-10-19 PERHIMPUNAN ADVOKAT INDONESIA (PERADI) VERSI JUNIVER GIRSANG
363 363 ROSADI, S.H. EHENG - 02 Juni 1972 Kristen Katholik Tenggarong KEP.129/PERADI.DPN/X/2016 2016-10-12 2016 W18-U/109/HK.01.10/X/2016 2016-10-19 PERHIMPUNAN ADVOKAT INDONESIA (PERADI) VERSI JUNIVER GIRSANG
364 364 RUSMANINGSIH, S.H. TENGGARONG - 01 Okt 1972 Islam Tenggarong KEP.129/PERADI.DPN/X/2016 2016-10-12 2016 W18-U/110/HK.01.10/X/2016 2016-10-19 PERHIMPUNAN ADVOKAT INDONESIA (PERADI) VERSI JUNIVER GIRSANG
365 365 SYAM HADIJANTO, S.H. MAGELANG - 05 Apr 1990 Islam Tenggarong KEP.129/PERADI.DPN/X/2016 2016-10-12 2016 W18-U/111/HK.01.10/X/2016 2016-10-19 PERHIMPUNAN ADVOKAT INDONESIA (PERADI) VERSI JUNIVER GIRSANG
366 366 SABIR IBRAHIM, S.H. PINRANG - 19 Mei 1978 Islam Samarinda KEP.129/PERADI.DPN/X/2016 2016-10-12 2016 W18-U/112/HK.01.10/X/2016 2016-10-19 PERHIMPUNAN ADVOKAT INDONESIA (PERADI) VERSI JUNIVER GIRSANG
367 367 SUCI RAHAYU, S.H. SAMARINDA - 28 Mei 1973 Islam Samarinda KEP.129/PERADI.DPN/X/2016 2016-10-12 2016 W18-U/113/HK.01.10/X/2016 2016-10-19 PERHIMPUNAN ADVOKAT INDONESIA (PERADI) VERSI JUNIVER GIRSANG
368 368 SUMIATI, S.H. POSO - 17 Juli 1985 Islam Samarinda KEP.129/PERADI.DPN/X/2016 2016-10-12 2016 W18-U/114/HK.01.10/X/2016 2016-10-19 PERHIMPUNAN ADVOKAT INDONESIA (PERADI) VERSI JUNIVER GIRSANG
369 369 SURIADI SYAM, S.H. SAMARINDA - 11 Sept 1979 Islam Samarinda KEP.129/PERADI.DPN/X/2016 2016-10-12 2016 W18-U/115/HK.01.10/X/2016 2016-10-19 PERHIMPUNAN ADVOKAT INDONESIA (PERADI) VERSI JUNIVER GIRSANG
370 370 YULIUS PATANAN, S.H., M.H. KUTAI TIMUR - 26 Juli 1991 Kristen Protestan Samarinda KEP.129/PERADI.DPN/X/2016 2016-10-12 2016 W18-U/116/HK.01.10/X/2016 2016-10-19 PERHIMPUNAN ADVOKAT INDONESIA (PERADI) VERSI JUNIVER GIRSANG
371 371 ANDI INAR SAHABAT, S.H. GORONTALO - 25 Jan 1991 Islam Samarinda KEP.129/PERADI.DPN/X/2016 2016-10-12 2016 W18-U/117/HK.01.10/X/2016 2016-10-19 PERHIMPUNAN ADVOKAT INDONESIA (PERADI) VERSI JUNIVER GIRSANG
372 372 FELLYSIANUS LUNG, S.H. SAMARINDA - 12 Okt 1981 Kristen Katholik Sangatta KEP.129/PERADI.DPN/X/2016 2016-10-12 2016 W18-U/118/HK.01.10/X/2016 2016-10-19 PERHIMPUNAN ADVOKAT INDONESIA (PERADI) VERSI JUNIVER GIRSANG
373 373 SAHRIANI MARBUN, S.H. PANINGKIRAN - 31 Des 1980 Kristen Protestan Samarinda KEP.129/PERADI.DPN/X/2016 2016-10-12 2016 W18-U/119/HK.01.10/X/2016 2016-10-19 PERHIMPUNAN ADVOKAT INDONESIA (PERADI) VERSI JUNIVER GIRSANG
374 374 RENY S. HAMID, S.H. BEKASI - 19 Sept 1991 Islam Samarinda KEP.129/PERADI.DPN/X/2016 2016-10-12 2016 W18-U/120/HK.01.10/X/2016 2016-10-19 PERHIMPUNAN ADVOKAT INDONESIA (PERADI) VERSI JUNIVER GIRSANG
375 375 SULAIMAN, S.H., M.H. NUNUKAN - 17 Des 1989 Islam Nunukan KEP.129/PERADI.DPN/X/2016 2016-10-12 2016 W18-U/121/HK.01.10/X/2016 2016-10-19 PERHIMPUNAN ADVOKAT INDONESIA (PERADI) VERSI JUNIVER GIRSANG
376 376 MELCKY KAPOJOS, S.H. LELENA - 17 Mei 1975 Kristen Protestan Samarinda KEP.129/PERADI.DPN/X/2016 2016-10-12 2016 W18-U/122/HK.01.10/X/2016 2016-10-19 PERHIMPUNAN ADVOKAT INDONESIA (PERADI) VERSI JUNIVER GIRSANG
377 377 BADRUNSYAH, S.H. BONTANG - 13 Apr 1978 Islam Samarinda KEP.129/PERADI.DPN/X/2016 2016-10-12 2016 W18-U/123/HK.01.10/X/2016 2016-10-19 PERHIMPUNAN ADVOKAT INDONESIA (PERADI) VERSI JUNIVER GIRSANG
378 378 NICO SENJAYA, S.H. JAKARTA - 22 Nov 1982 Islam Samarinda KEP.129/PERADI.DPN/X/2016 2016-10-12 2016 W18-U/124/HK.01.10/X/2016 2016-10-19 PERHIMPUNAN ADVOKAT INDONESIA (PERADI) VERSI JUNIVER GIRSANG
379 379 ARIE YOHANDA, S.H. LOA JANAN - 04 Feb 1985 Islam Balikpapan KEP.15.0036/ADV/PERADI/DPN/XI/2016 2016-11-21 2016 W18-U/125/HK.01.10/XI/2016 2016-11-30 PERHIMPUNAN ADVOKAT INDONESIA (PERADI) VERSI OTTO HASIBUAN
380 380 BUDI HERI JUMADIONO, S.H. SAMARINDA - 16 Jan 1971 Islam Samarinda KEP.15.0038/ADV/PERADI/DPN/XI/2016 2016-11-21 2016 W18-U/126/HK.01.10/XI/2016 2016-11-30 PERHIMPUNAN ADVOKAT INDONESIA (PERADI) VERSI OTTO HASIBUAN
381 381 DAVID AJI RINDANANTO, S.H. SAMARINDA - 15 Des 1987 Islam Tenggarong KEP.15.0039/ADV/PERADI/DPN/XI/2016 2016-11-21 2016 W18-U/127/HK.01.10/XI/2016 2016-11-30 PERHIMPUNAN ADVOKAT INDONESIA (PERADI) VERSI OTTO HASIBUAN
382 382 DEDE KOMALASARI, S.H. KUNINGAN - 30 Sept 1989 Islam Samarinda KEP.15.0040/ADV/PERADI/DPN/XI/2016 2016-11-21 2016 W18-U/128/HK.01.10/XI/2016 2016-11-30 PERHIMPUNAN ADVOKAT INDONESIA (PERADI) VERSI OTTO HASIBUAN
383 383 DEDI PUTRA PAKPAHAN, S.H. LUBUK PAKAM - 07 Sept 1987 Kristen Protestan Balikpapan KEP.15.0041/ADV/PERADI/DPN/XI/2016 2016-11-21 2016 W18-U/129/HK.01.10/XI/2016 2016-11-30 PERHIMPUNAN ADVOKAT INDONESIA (PERADI) VERSI OTTO HASIBUAN
384 384 OENIK DJUNANI ASIEM, S.H. KEDIRI - 20 Des 1965 Budha Balikpapan KEP.15.0055/ADV/PERADI/DPN/XI/2016 2016-11-21 2016 W18-U/130/HK.01.10/XI/2016 2016-11-30 PERHIMPUNAN ADVOKAT INDONESIA (PERADI) VERSI OTTO HASIBUAN
385 385 EFRAIN LIMBONG, S.H. BALIKPAPAN - 09 Agust 1987 Kristen Protestan Balikpapan KEP.0021/ADV/PERADI/DPN/XI/2015 2015-11-02 2016 W18-U/131/HK.01.10/XI/2016 2016-11-30 PERHIMPUNAN ADVOKAT INDONESIA (PERADI) VERSI OTTO HASIBUAN
386 386 FAISAL RIZANI, S.H. SAMARINDA - 11 Juni 1982 Islam Samarinda KEP.15.0045/ADV/PERADI/DPN/XI/2016 2016-11-21 2016 W18-U/132/HK.01.10/XI/2016 2016-11-30 PERHIMPUNAN ADVOKAT INDONESIA (PERADI) VERSI OTTO HASIBUAN
387 387 HARIS SETIADY LUMBAN TOBING, S.H. BALIKPAPAN - 16 Mei 1991 Kristen Protestan Balikpapan KEP.15.0046/ADV/PERADI/DPN/XI/2016 2016-11-21 2016 W18-U/133/HK.01.10/XI/2016 2016-11-30 PERHIMPUNAN ADVOKAT INDONESIA (PERADI) VERSI OTTO HASIBUAN
388 388 HENDRIK KUSNIANTO, S.H. TANJUNG SELOR - 24 Juli 1986 Islam Kutai Barat KEP.15.0047/ADV/PERADI/DPN/XI/2016 2016-11-21 2016 W18-U/134/HK.01.10/XI/2016 2016-11-30 PERHIMPUNAN ADVOKAT INDONESIA (PERADI) VERSI OTTO HASIBUAN
389 389 HERMAN, S.H. BIDUK-BIDUK - 25 Mar 1985 Islam Samarinda KEP.15.0048/ADV/PERADI/DPN/XI/2016 2016-11-21 2016 W18-U/135/HK.01.10/XI/2016 2016-11-30 PERHIMPUNAN ADVOKAT INDONESIA (PERADI) VERSI OTTO HASIBUAN
390 390 INDRA LIROGA, S.H. UJUNG PANDANG - 12 Agust 1991 Kristen Protestan Balikpapan KEP.15.0049/ADV/PERADI/DPN/XI/2016 2016-11-21 2016 W18-U/136/HK.01.10/XI/2016 2016-11-30 PERHIMPUNAN ADVOKAT INDONESIA (PERADI) VERSI OTTO HASIBUAN
391 391 JUAN SEVENRI HASUGIAN, S.H. GAMAN - 07 Juni 1982 Kristen Protestan Balikpapan KEP.15.0050/ADV/PERADI/DPN/XI/2016 2016-11-21 2016 W18-U/137/HK.01.10/XI/2016 2016-11-30 PERHIMPUNAN ADVOKAT INDONESIA (PERADI) VERSI OTTO HASIBUAN
392 392 MUHAMMAD NADZIR, S.H. JOMBANG - 15 Agust 1977 Islam Balikpapan KEP.15.0052/ADV/PERADI/DPN/XI/2016 2016-11-21 2016 W18-U/138/HK.01.10/XI/2016 2016-11-30 PERHIMPUNAN ADVOKAT INDONESIA (PERADI) VERSI OTTO HASIBUAN
393 393 MUHAMMAD RASIL RIFQI HAM, S.H. PENAJAM - 29 Juli 1991 Islam Penajam KEP.15.0053/ADV/PERADI/DPN/XI/2016 2016-11-21 2016 W18-U/139/HK.01.10/XI/2016 2016-11-30 PERHIMPUNAN ADVOKAT INDONESIA (PERADI) VERSI OTTO HASIBUAN
394 394 MUKHYAR YAHDI, S.H.I., M.H. TANJUNG REDEB - 10 Apr 1985 Islam Samarinda KEP.15.0054/ADV/PERADI/DPN/XI/2016 2016-11-21 2016 W18-U/140/HK.01.10/XI/2016 2016-11-30 PERHIMPUNAN ADVOKAT INDONESIA (PERADI) VERSI OTTO HASIBUAN
395 395 PRIMA NURANI FAUZIAH, S.H. CIREBON - 06 Mei 1987 Islam Bontang KEP.15.0056/ADV/PERADI/DPN/XI/2016 2016-11-21 2016 W18-U/141/HK.01.10/XI/2016 2016-11-30 PERHIMPUNAN ADVOKAT INDONESIA (PERADI) VERSI OTTO HASIBUAN
396 396 RAMADI, S.H. MARIDAN - 01 Jan 1988 Islam Penajam KEP.15.0057/ADV/PERADI/DPN/XI/2016 2016-11-21 2016 W18-U/142/HK.01.10/XI/2016 2016-11-30 PERHIMPUNAN ADVOKAT INDONESIA (PERADI) VERSI OTTO HASIBUAN
397 397 RATIH DWI ANGGRIANI P.K., S.H., M.H. TANAH GROGOT - 10 Mar 1989 Islam Tanjung Selor KEP.15.0058/ADV/PERADI/DPN/XI/2016 2016-11-21 2016 W18-U/143/HK.01.10/XI/2015 2016-11-30 PERHIMPUNAN ADVOKAT INDONESIA (PERADI) VERSI OTTO HASIBUAN
398 398 SAFARDIN , S.H PALAGUNA - 05 Des 1982 Islam Samarinda KEP.15.0059/ADV/PERADI/DPN/XI/2016 2016-11-21 2016 W18-U/144/HK.01.10/XI/2016 2016-11-30 PERHIMPUNAN ADVOKAT INDONESIA (PERADI) VERSI OTTO HASIBUAN
399 399 SUDIRMAN, S.H. UTAN - 12 Mar 1979 Islam Samarinda KEP.15.0060/ADV/PERADI/DPN/XI/2016 2016-11-21 2016 W18-U/145/HK.01.10/XI/2016 2016-11-30 PERHIMPUNAN ADVOKAT INDONESIA (PERADI) VERSI OTTO HASIBUAN
400 400 SUMANTRI, S.H. SAMARINDA - 07 Jan 1979 Islam Samarinda KEP.15.0061/ADV/PERADI/DPN/XI/2016 2016-11-21 2016 W18-U/146/HK.01.10/XI/2016 2016-11-30 PERHIMPUNAN ADVOKAT INDONESIA (PERADI) VERSI OTTO HASIBUAN
401 401 TOTOK YUDIANTO, S.H. MAGETAN - 10 Feb 1978 Islam Samarinda KEP.15.0062/ADV/PERADI/DPN/XI/2016 2016-11-21 2016 W18-U/147/HK.01.10/XI/2016 2016-11-30 PERHIMPUNAN ADVOKAT INDONESIA (PERADI) VERSI OTTO HASIBUAN
402 402 LUKMAN NOL HAKIM, S.H. BALIKPAPAN - 01 Des 1986 Islam Tenggarong KEP.15.0051/ADV/PERADI/DPN/XI/2016 2016-11-21 2016 W18-U/148/HK.01.10/XI/2016 2016-11-30 PERHIMPUNAN ADVOKAT INDONESIA (PERADI) VERSI OTTO HASIBUAN
403 403 ANDI HARUN, S.H. BONE - 12 Des 1972 Islam Samarinda KEP.15.0035/ADV/PERADI/DPN/XI/2016 2016-11-21 2016 W18-U/149/HK.01.10/XI/2016 2016-11-30 PERHIMPUNAN ADVOKAT INDONESIA (PERADI) VERSI OTTO HASIBUAN
404 404 DOAN TOLHAS NAPITUPULU, S.H. JAKARTA - 22 Juni 1991 Kristen Protestan Samarinda KEP.15.0042/ADV/PERADI/DPN/XI/2016 2016-11-21 2016 W18-U/150/HK.01.10/XI/2016 2016-11-30 PERHIMPUNAN ADVOKAT INDONESIA (PERADI) VERSI OTTO HASIBUAN
405 405 DODI TISNA AMIJAYA, S.H. PALEMBANG - 20 Mei 1980 Islam Tanah Grogot KEP.15.0043/ADV/PERADI/DPN/XI/2016 2016-11-21 2016 W18-U/151/HK.01.10/XI/2016 2016-11-30 PERHIMPUNAN ADVOKAT INDONESIA (PERADI) VERSI OTTO HASIBUAN
406 406 ASIKIN, S.H. KABITA - 26 Des 1991 Islam Balikpapan Kep.23.063-VIII.201710 2017-08-10 2017 W18-U/01/HK.01.10/X/2017 2017-10-03 PERKUMPULAN ADVOKAT INDONESIA (PERADIN)
407 407 AHMAD ALI FAHRUDI, S.H. JEMBER - 09 Nov 1981 Islam Tenggarong Kep.23.030-IV.2016 2016-04-15 2017 W18-U/02/HK.01.10/X/2017 2017-10-03 PERKUMPULAN ADVOKAT INDONESIA (PERADIN)
408 408 ARIF RAHMAN, S.H. KOTA BARU - 29 Sept 1987 Islam Tanjung Redeb Kep.23.061-VIII.2017 2017-08-10 2017 W18-U/03/HK.01.10/X/2017 2017-10-03 PERKUMPULAN ADVOKAT INDONESIA (PERADIN)
409 409 H. ALI HUSNI, S.H. BAU-BAU - 31 Des 1957 Islam Balikpapan Kep.23.068-VIII.2017 2017-08-10 2017 W18-U/04/HK.01.10/X/2017 2017-10-03 PERKUMPULAN ADVOKAT INDONESIA (PERADIN)
410 410 HALIDIN, S.H. TARAKAN - 08 Sept 1986 Islam Tarakan Kep.23.059-VIII.2017 2017-08-10 2017 W18-U/05/HK.01.10/X/2017 2017-10-03 PERKUMPULAN ADVOKAT INDONESIA (PERADIN)
411 411 ILHAM, S.H. PANGKAJENE - 28 Feb 1990 Islam Tarakan Kep.23.060-VIII.2017 2017-08-10 2017 W18-U/06/HK.01.10/X/2017 2017-10-03 PERKUMPULAN ADVOKAT INDONESIA (PERADIN)
412 412 LA ODE HASIRUN, S.H. MAWASANGKA - 10 Nov 1984 Islam Balikpapan Kep.23.069-VIII.2017 2017-08-10 2017 W18-U/07/HK.01.10/X/2017 2017-10-03 PERKUMPULAN ADVOKAT INDONESIA (PERADIN)
413 413 MELSY SANTO, S.H. SAMARINDA - 26 Mar 1982 Kristen Protestan Samarinda Kep.23.058-VIII.2017 2017-08-10 2017 W18-U/08/HK.01.10/X/2017 2017-10-03 PERKUMPULAN ADVOKAT INDONESIA (PERADIN)
414 414 MUHAMAD HILAL, S.H. PENAJAM - 09 Juni 1983 Islam Balikpapan Kep.23.065-VIII.2017 2017-08-10 2017 W18-U/09/HK.01.10/X/2017 2017-10-03 PERKUMPULAN ADVOKAT INDONESIA (PERADIN)
415 415 RIAHIT, S.H. MUARA PAHU - 20 Des 1986 Kristen Protestan Sangatta Kep.23.064-VIII.2017 2017-08-10 2017 W18-U/10/HK.01.10/X/2017 2017-10-03 PERKUMPULAN ADVOKAT INDONESIA (PERADIN)
416 416 ABDUL GAPUR, S.H. SAMARINDA - 08 Apr 1991 Islam Samarinda KEP.012.PERADI-DPN/XI/2017 2017-11-08 2017 W18-U/11/HK.01.10/XII/2017 2017-12-14 PERHIMPUNAN ADVOKAT INDONESIA (PERADI) VERSI JUNIVER GIRSANG
417 417 ABDUL JALIL, S.H. BARRU - 27 Okt 1970 Islam Samarinda KEP.012.PERADI-DPN/XI/2017 2017-11-08 2017 W18-U/12/HK.01.10/XII/2017 2017-12-14 PERHIMPUNAN ADVOKAT INDONESIA (PERADI) VERSI JUNIVER GIRSANG
418 418 ABDUL RAHMAN ALI BABUD, S.H. MAKASAR - 24 Juni 1963 Islam Tarakan KEP.012.PERADI-DPN/XI/2017 2017-11-08 2017 W18-U/13/HK.01.10/XII/2017 2017-12-14 PERHIMPUNAN ADVOKAT INDONESIA (PERADI) VERSI JUNIVER GIRSANG
419 419 ABIGAEL INDRANINGSIH TURUPADANG, S.H. UJUNG PANDANG - 21 Nov 1983 Kristen Protestan Samarinda KEP.012.PERADI-DPN/XI/2017 2017-11-08 2017 W18-U/14/HK.01.10/XII/2017 2017-12-14 PERHIMPUNAN ADVOKAT INDONESIA (PERADI) VERSI JUNIVER GIRSANG
420 420 ADE CHANDRA ELSA PARDAMEAN SIMANJUNTAK, S.H. SAMARINDA - 12 Des 1990 Kristen Protestan Samarinda KEP.012.PERADI-DPN/XI/2017 2017-11-08 2017 W18-U/15/HK.01.10/XII/2017 2017-12-14 PERHIMPUNAN ADVOKAT INDONESIA (PERADI) VERSI JUNIVER GIRSANG
421 421 ANDI AGUS HAYRIL H.S., S.H. SANDAKAN - 17 Agust 1980 Islam Balikpapan KEP.012.PERADI-DPN/XI/2017 2017-11-08 2017 W18-U/16/HK.01.10/XII/2017 2017-12-14 PERHIMPUNAN ADVOKAT INDONESIA (PERADI) VERSI JUNIVER GIRSANG
422 422 ARAFID LAWIDA, S.H. PUDUKKU - 31 Des 1979 Islam Balikpapan KEP.012.PERADI-DPN/XI/2017 2017-11-08 2017 W18-U/17/HK.01.10/XII/2017 2017-12-14 PERHIMPUNAN ADVOKAT INDONESIA (PERADI) VERSI JUNIVER GIRSANG
423 423 ARIEF RAMADHAN, S.H. SAMARINDA - 14 Apr 1991 Islam Samarinda KEP.012.PERADI-DPN/XI/2017 2017-11-08 2017 W18-U/18/HK.01.10/XII/2017 2017-12-14 PERHIMPUNAN ADVOKAT INDONESIA (PERADI) VERSI JUNIVER GIRSANG
424 424 BANNA BENYAMIN, S.H. TANA TORAJA - 01 Nov 1964 Kristen Protestan Samarinda KEP.012.PERADI-DPN/XI/2017 2017-11-08 2017 W18-U/19/HK.01.10/XII/2017 2017-12-14 PERHIMPUNAN ADVOKAT INDONESIA (PERADI) VERSI JUNIVER GIRSANG
425 425 BUDIYANTO, S.H. KENDAL - 10 Feb 1988 Islam Samarinda KEP.012.PERADI-DPN/XI/2017 2017-11-08 2017 W18-U/20/HK.01.10/XII/2017 2017-12-14 PERHIMPUNAN ADVOKAT INDONESIA (PERADI) VERSI JUNIVER GIRSANG
426 426 CHRISTIAN LEE, S.H., M.H. BALIKPAPAN - 21 Juli 1967 Kristen Protestan Samarinda KEP.012.PERADI-DPN/XI/2017 2017-11-08 2017 W18-U/21/HK.01.10/XII/2017 2017-12-14 PERHIMPUNAN ADVOKAT INDONESIA (PERADI) VERSI JUNIVER GIRSANG
427 427 DECKY, S.H. BULUNGAN - 06 Sept 1966 Kristen Protestan Samarinda KEP.012.PERADI-DPN/XI/2017 2017-11-08 2017 W18-U/22/HK.01.10/XII/2017 2017-12-14 PERHIMPUNAN ADVOKAT INDONESIA (PERADI) VERSI JUNIVER GIRSANG
428 428 ESTI ROYANI, S.H., M.H. BALIKPAPAN - 27 Feb 1968 Islam Samarinda KEP.012.PERADI-DPN/XI/2017 2017-11-08 2017 W18-U/23/HK.01.10/XII/2017 2017-12-14 PERHIMPUNAN ADVOKAT INDONESIA (PERADI) VERSI JUNIVER GIRSANG
429 429 FRANDNOTO, S.H. SAMARINDA - 30 Apr 1974 Islam Samarinda KEP.012.PERADI-DPN/XI/2017 2017-11-08 2017 W18-U/24/HK.01.10/XII/2017 2017-12-14 PERHIMPUNAN ADVOKAT INDONESIA (PERADI) VERSI JUNIVER GIRSANG
430 430 FRANSISKUS XAVERIUS JEFRI SIMANJUNTAK, S.H. SAMARINDA - 02 Feb 1992 Kristen Protestan Samarinda KEP.012.PERADI-DPN/XI/2017 2017-11-08 2017 W18-U/25/HK.01.10/XII/2017 2017-12-14 PERHIMPUNAN ADVOKAT INDONESIA (PERADI) VERSI JUNIVER GIRSANG
431 431 GOKMAASI, S.H. TARUTUNG - 11 Okt 1969 Kristen Protestan Samarinda KEP.012.PERADI-DPN/XI/2017 2017-11-08 2017 W18-U/26/HK.01.10/XII/2017 2017-12-14 PERHIMPUNAN ADVOKAT INDONESIA (PERADI) VERSI JUNIVER GIRSANG
432 432 HENGKI, S.H. TENGGARONG - 09 Sept 1978 Kristen Katholik Tenggarong KEP.012.PERADI-DPN/XI/2017 2017-11-08 2017 W18-U/27/HK.01.10/XII/2017 2017-12-14 PERHIMPUNAN ADVOKAT INDONESIA (PERADI) VERSI JUNIVER GIRSANG
433 433 HILARIUS ONESIMUS MOAN JONG, S.H. MAUMERE - 13 Mar 1986 Kristen Katholik Samarinda KEP.012.PERADI-DPN/XI/2017 2017-11-08 2017 W18-U/28/HK.01.10/XII/2017 2017-12-14 PERHIMPUNAN ADVOKAT INDONESIA (PERADI) VERSI JUNIVER GIRSANG
434 434 IKHWAN SYARIF, S.H. PARE-PARE - 12 Okt 1985 Islam Sangatta KEP.012.PERADI-DPN/XI/2017 2017-11-08 2017 W18-U/29/HK.01.10/XII/2017 2017-12-14 PERHIMPUNAN ADVOKAT INDONESIA (PERADI) VERSI JUNIVER GIRSANG
435 435 INDRWATI, S.H. ALECALIMPO - 04 Agust 1984 Islam Tarakan KEP.012.PERADI-DPN/XI/2017 2017-11-08 2017 W18-U/30/HK.01.10/XII/2017 2017-12-14 PERHIMPUNAN ADVOKAT INDONESIA (PERADI) VERSI JUNIVER GIRSANG
436 436 KANCILIUS, S.H., M.H. LOTAQ - 04 Juni 1973 Kristen Katholik Samarinda KEP.012.PERADI-DPN/XI/2017 2017-11-08 2017 W18-U/31/HK.01.10/XII/2017 2017-12-14 PERHIMPUNAN ADVOKAT INDONESIA (PERADI) VERSI JUNIVER GIRSANG
437 437 LAEKO LAPANDEWA, S.H.I., M.H. LENA - 10 Apr 1989 Islam Tenggarong KEP.012.PERADI-DPN/XI/2017 2017-11-08 2017 W18-U/32/HK.01.10/XII/2017 2017-12-14 PERHIMPUNAN ADVOKAT INDONESIA (PERADI) VERSI JUNIVER GIRSANG
438 438 MABRUR, S.H. GRESIK - 19 Agust 1982 Islam Balikpapan KEP.012.PERADI-DPN/XI/2017 2017-11-08 2017 W18-U/33/HK.01.10/XII/2017 2017-12-14 PERHIMPUNAN ADVOKAT INDONESIA (PERADI) VERSI JUNIVER GIRSANG
439 439 MARIA ANA LIWA, S.H., M.H. SAMARINDA - 15 Apr 1979 Kristen Katholik Samarinda KEP.012.PERADI-DPN/XI/2017 2017-11-08 2017 W18-U/34/HK.01.10/XII/2017 2017-12-14 PERHIMPUNAN ADVOKAT INDONESIA (PERADI) VERSI JUNIVER GIRSANG
440 440 MUHAMMAD NURCHOLIS ALHADI , S.H., M.H.,Li. MUARA ANCALONG - 31 Des 1991 Islam Tenggarong KEP.012.PERADI-DPN/XI/2017 2017-11-08 2017 W18-U/36/HK.01.10/XII/2017 2017-12-14 PERHIMPUNAN ADVOKAT INDONESIA (PERADI) VERSI JUNIVER GIRSANG
441 441 MUKLIS, S.H. BERAU - 08 Apr 1984 Islam Tarakan KEP.012.PERADI-DPN/XI/2017 2017-11-08 2017 W18-U/36/HK.01.10/XII/2017 2017-12-14 PERHIMPUNAN ADVOKAT INDONESIA (PERADI) VERSI JUNIVER GIRSANG
442 442 PUTRI WISUDAWATI, S.H. KEDIRI - 15 Sept 1992 Islam Samarinda KEP.012.PERADI-DPN/XI/2017 2017-11-08 2017 W18-U/37/HK.01.10/XII/2017 2017-12-14 PERHIMPUNAN ADVOKAT INDONESIA (PERADI) VERSI JUNIVER GIRSANG
443 443 R. CHEPPY GUMILANG, S.H. SUKABUMI - 21 Juni 1980 Islam Balikpapan KEP.012.PERADI-DPN/XI/2017 2017-11-08 2017 W18-U/38/HK.01.10/XII/2017 2017-12-14 PERHIMPUNAN ADVOKAT INDONESIA (PERADI) VERSI JUNIVER GIRSANG
444 444 SARIF PANDURATA ARIFIN, S.H. SAMARINDA - 20 Mei 1991 Islam Sangatta KEP.012.PERADI-DPN/XI/2017 2017-11-08 2017 W18-U/39/HK.01.10/XII/2017 2017-12-14 PERHIMPUNAN ADVOKAT INDONESIA (PERADI) VERSI JUNIVER GIRSANG
445 445 SEPINER ROBEN, S.H. KUALA LAPANG - 03 Okt 1991 Kristen Protestan Malinau KEP.012.PERADI-DPN/XI/2017 2017-11-08 2017 W18-U/40/HK.01.10/XII/2017 2017-12-14 PERHIMPUNAN ADVOKAT INDONESIA (PERADI) VERSI JUNIVER GIRSANG
446 446 SIANTO, S.H. DAMAI - 11 Apr 1969 Kristen Protestan Kutai Barat KEP.012.PERADI-DPN/XI/2017 2017-11-08 2017 W18-U/41/HK.01.10/XII/2017 2017-12-14 PERHIMPUNAN ADVOKAT INDONESIA (PERADI) VERSI JUNIVER GIRSANG
447 447 SITI WULANDARI, S.H. SAMARINDA - 12 Jan 1990 Islam Samarinda KEP.012.PERADI-DPN/XI/2017 2017-11-08 2017 W18-U/42/HK.01.10/XII/2017 2017-12-14 PERHIMPUNAN ADVOKAT INDONESIA (PERADI) VERSI JUNIVER GIRSANG
448 448 SUEN REDY NABABAN, S.E., S.H. SILAU BANDAR - 20 Apr 1979 Kristen Protestan Balikpapan KEP.012.PERADI-DPN/XI/2017 2017-11-08 2017 W18-U/43/HK.01.10/XII/2017 2017-12-14 PERHIMPUNAN ADVOKAT INDONESIA (PERADI) VERSI JUNIVER GIRSANG
449 449 TRI HENDRO PUSPITO, S.H. SAMARINDA - 02 Mei 1978 Islam Balikpapan KEP.012.PERADI-DPN/XI/2017 2017-11-08 2017 W18-U/44/HK.01.10/XII/2017 2017-12-14 PERHIMPUNAN ADVOKAT INDONESIA (PERADI) VERSI JUNIVER GIRSANG
450 450 WINDA AGUSTIN, S.H. SAMARINDA - 06 Agust 1992 Islam Samarinda KEP.012.PERADI-DPN/XI/2017 2017-11-08 2017 W18-U/45/HK.01.10/XII/2017 2017-12-14 PERHIMPUNAN ADVOKAT INDONESIA (PERADI) VERSI JUNIVER GIRSANG
451 451 YASINTA KARMELIA UGE LALU, S.H. RUTENG - 07 Mei 1989 Kristen Katholik Samarinda KEP.012.PERADI-DPN/XI/2017 2017-11-08 2017 W18-U/46/HK.01.10/XII/2017 2017-12-14 PERHIMPUNAN ADVOKAT INDONESIA (PERADI) VERSI JUNIVER GIRSANG
452 452 YOHANES DJUK, S.H. MANSALONG - 19 Jan 1969 Kristen Protestan Malinau KEP.012.PERADI-DPN/XI/2017 2017-11-08 2017 W18-U/47/HK.01.10/XII/2017 2017-12-14 PERHIMPUNAN ADVOKAT INDONESIA (PERADI) VERSI JUNIVER GIRSANG
453 453 YOS CHRISTIAN DUA LAYUK, S.H. SAMARINDA - 14 Jan 1982 Kristen Protestan Samarinda KEP.012.PERADI-DPN/XI/2017 2017-11-08 2017 W18-U/48/HK.01.10/XII/2017 2017-12-14 PERHIMPUNAN ADVOKAT INDONESIA (PERADI) VERSI JUNIVER GIRSANG
454 454 JOHANES PARNINGOTAN, S.H. SIMANOSOR - 23 Sept 1992 Kristen Protestan Samarinda KEP.012.PERADI-DPN/XI/2017 2017-11-08 2017 W18-U/49/HK.01.10/XII/2017 2017-12-14 PERHIMPUNAN ADVOKAT INDONESIA (PERADI) VERSI JUNIVER GIRSANG
455 455 AGUSTINUS SANDIMIN, S.H., M.H. SALATIGA - 20 Mei 1952 Kristen Katholik Tanah Grogot KEP.15.0001/ADV/PERADI/DPN/XII/2017 2017-12-06 2018 W18-U/01/HK.01.10/I/2018 2018-01-10 PERHIMPUNAN ADVOKAT INDONESIA (PERADI) VERSI OTTO HASIBUAN
456 456 ALEX WAHYUDHI PUTRA, S.H. PALEMBANG - 04 Sept 1988 Islam Bontang KEP.15.0002/ADV/PERADI/DPN/XII/2017 2017-12-06 2018 W18-U/02/HK.01.10/I/2018 2018-01-10 PERHIMPUNAN ADVOKAT INDONESIA (PERADI) VERSI OTTO HASIBUAN
457 457 ANDI SYAMSU ALAM, S.H. SAMARINDA - 21 Juli 1983 Islam Samarinda KEP.15.0003/ADV/PERADI/DPN/XII/2017 2017-12-06 2018 W18-U/03/HK.01.10/I/2018 2018-01-10 PERHIMPUNAN ADVOKAT INDONESIA (PERADI) VERSI OTTO HASIBUAN
458 458 BAMBANG TRIYONO, S.H. SAMARINDA - 28 Des 1985 Islam Samarinda KEP.15.0004/ADV/PERADI/DPN/XII/2017 2017-12-06 2018 W18-U/04/HK.01.10/I/2018 2018-01-10 PERHIMPUNAN ADVOKAT INDONESIA (PERADI) VERSI OTTO HASIBUAN
459 459 DIMAS PRAYOGO HARIONO, S.H. BALIKPAPAN - 16 Mei 1990 Kristen Protestan Balikpapan KEP.15.0029/ADV/PERADI/DPN/XII/2017 2017-12-06 2018 W18-U/05/HK.01.10/I/2018 2018-01-10 PERHIMPUNAN ADVOKAT INDONESIA (PERADI) VERSI OTTO HASIBUAN
460 460 DODY HASRIZAL SIAHAAN, S.H., M.H. PABATU - 23 Sept 1976 Islam Samarinda KEP.15.0005/ADV/PERADI/DPN/XII/2017 2017-12-06 2018 W18-U/06/HK.01.10/I/2018 2018-01-10 PERHIMPUNAN ADVOKAT INDONESIA (PERADI) VERSI OTTO HASIBUAN
461 461 EKKY RIFQI ANUGRAH, S..H. BANJARBARU - 21 Jan 1991 Islam Samarinda KEP.15.0006/ADV/PERADI/DPN/XII/2017 2017-12-06 2018 W18-U/07/HK.01.10/I/2018 2018-01-10 PERHIMPUNAN ADVOKAT INDONESIA (PERADI) VERSI OTTO HASIBUAN
462 462 ELIZABETH AUGUSTINA, S.H. BALIGE - 15 Agust 1967 Kristen Protestan Balikpapan KEP.15.0032/ADV/PERADI/DPN/XII/2017 2017-12-06 2018 W18-U/08/HK.01.10/I/2018 2018-01-10 PERHIMPUNAN ADVOKAT INDONESIA (PERADI) VERSI OTTO HASIBUAN
463 463 FAJRIAN NOOR, S.H. TANAH GROGOT - 31 Mar 1991 Islam Balikpapan KEP.15.0007/ADV/PERADI/DPN/XII/2017 2017-12-06 2018 W18-U/09/HK.01.10/I/2018 2018-01-10 PERHIMPUNAN ADVOKAT INDONESIA (PERADI) VERSI OTTO HASIBUAN
464 464 HASAN BASRI, S.H. BALIKPAPAN - 02 Feb 1983 Islam Balikpapan KEP.15.0030/ADV/PERADI/DPN/XII/2017 2017-12-06 2018 W18-U/10/HK.01.10/I/2018 2018-01-10 PERHIMPUNAN ADVOKAT INDONESIA (PERADI) VERSI OTTO HASIBUAN
465 465 JERRY SIMANJUNTAK, S.H. BALIKPAPAN - 16 Des 1989 Kristen Protestan Balikpapan KEP.15.0008/ADV/PERADI/DPN/XII/2017 2017-12-06 2018 W18-U/11/HK.01.10/I/2018 2018-01-10 PERHIMPUNAN ADVOKAT INDONESIA (PERADI) VERSI OTTO HASIBUAN
466 466 KUSWANTO, S.H. MAGETAN - 28 Feb 1981 Islam Samarinda KEP.15.0009/ADV/PERADI/DPN/XII/2017 2017-12-06 2018 W18-U/12/HK.01.10/I/2018 2018-01-10 PERHIMPUNAN ADVOKAT INDONESIA (PERADI) VERSI OTTO HASIBUAN
467 467 MANGARA MAIDLANDO GULTOM, S.H. MEDAN - 07 Mei 1984 Kristen Protestan Balikpapan KEP.15.0010/ADV/PERADI/DPN/XII/2017 2017-12-06 2018 W18-U/13/HK.01.10/I/2018 2018-01-10 PERHIMPUNAN ADVOKAT INDONESIA (PERADI) VERSI OTTO HASIBUAN
468 468 MINARSIH FEBRIANTY, S.H. BALIKPAPAN - 16 Feb 1986 Islam Samarinda KEP.15.0011/ADV/PERADI/DPN/XII/2017 2017-12-06 2018 W18-U/14/HK.01.10/I/2018 2018-01-10 PERHIMPUNAN ADVOKAT INDONESIA (PERADI) VERSI OTTO HASIBUAN
469 469 MUHAMMAD RIZAL FADILLAH, S.H., M.H. BALIKPAPAN - 03 Des 1991 Islam Balikpapan KEP.15.0012/ADV/PERADI/DPN/XII/2017 2017-12-06 2018 W18-U/15/HK.01.10/I/2018 2018-01-10 PERHIMPUNAN ADVOKAT INDONESIA (PERADI) VERSI OTTO HASIBUAN
470 470 NI NYOMAN SURATMININGSIH, S.H. BALIKPAPAN - 09 Juni 1990 Hindu Balikpapan KEP.15.0013/ADV/PERADI/DPN/XII/2017 2017-12-06 2018 W18-U/16/HK.01.10/I/2018 2018-01-10 PERHIMPUNAN ADVOKAT INDONESIA (PERADI) VERSI OTTO HASIBUAN
471 471 RAHMAWATY, S.H., M.H. TANJUNG SELOR - 22 Mei 1989 Islam Tanjung Selor KEP.15.0014/ADV/PERADI/DPN/XII/2017 2017-12-06 2018 W18-U/17/HK.01.10/I/2018 2018-01-10 PERHIMPUNAN ADVOKAT INDONESIA (PERADI) VERSI OTTO HASIBUAN
472 472 RANDO LAURENTS KAUNANG, S.H. BALIKPAPAN - 22 Agust 1981 Kristen Protestan Balikpapan KEP.15.0015/ADV/PERADI/DPN/XII/2017 2017-12-06 2018 W18-U/18/HK.01.10/I/2018 2018-01-10 PERHIMPUNAN ADVOKAT INDONESIA (PERADI) VERSI OTTO HASIBUAN
473 473 RIA PRATIWI, S.H. LONG IRAM - 06 Jan 1986 Islam Samarinda KEP.15.0016/ADV/PERADI/DPN/XII/2017 2017-12-06 2018 W18-U/19/HK.01.10/I/2018 2018-01-10 PERHIMPUNAN ADVOKAT INDONESIA (PERADI) VERSI OTTO HASIBUAN
474 474 RINTO, S.H., S.S. MEDAN - 27 Sept 1992 Kristen Protestan Samarinda KEP.15.0017/ADV/PERADI/DPN/XII/2017 2017-12-06 2018 W18-U/20/HK.01.10/I/2018 2018-01-10 PERHIMPUNAN ADVOKAT INDONESIA (PERADI) VERSI OTTO HASIBUAN
475 475 RITA YULIANIS NADJIB, S.H. PLAJU - 20 Juli 1970 Islam Balikpapan KEP.15.0018/ADV/PERADI/DPN/XII/2017 2017-12-06 2018 W18-U/21/HK.01.10/I/2018 2018-01-10 PERHIMPUNAN ADVOKAT INDONESIA (PERADI) VERSI OTTO HASIBUAN
476 476 ROBERT WILSON BERLYANDO, S.H. SAMARINDA - 05 Juli 1988 Kristen Protestan Samarinda KEP.15.0019/ADV/PERADI/DPN/XII/2017 2017-12-06 2018 W18-U/22/HK.01.10/I/2018 2018-01-10 PERHIMPUNAN ADVOKAT INDONESIA (PERADI) VERSI OTTO HASIBUAN
477 477 SAPTO HADI PAMUNGKAS, S.H., M.H. BALIKPAPAN - 18 Sept 1991 Islam Balikpapan KEP.15.0020/ADV/PERADI/DPN/XII/2017 2017-12-06 2018 W18-U/23/HK.01.10/I/2018 2018-01-10 PERHIMPUNAN ADVOKAT INDONESIA (PERADI) VERSI OTTO HASIBUAN
478 478 SARIKUN, S.H. KEBUMEN - 15 Nov 1974 Islam Samarinda KEP.15.0021/ADV/PERADI/DPN/XII/2017 2017-12-06 2018 W18-U/24/HK.01.10/I/2018 2018-01-10 PERHIMPUNAN ADVOKAT INDONESIA (PERADI) VERSI OTTO HASIBUAN
479 479 SUNARIYO, S.H., M.H. SANGA-SANGA - 05 Mei 1984 Islam Tenggarong KEP.15.0022/ADV/PERADI/DPN/XII/2017 2017-12-06 2018 W18-U/25/HK.01.10/I/2018 2018-01-10 PERHIMPUNAN ADVOKAT INDONESIA (PERADI) VERSI OTTO HASIBUAN
480 480 SURAHMAN, S.H. KUAU - 05 Mei 1990 Islam Samarinda KEP.15.0031/ADV/PERADI/DPN/XII/2017 2017-12-06 2018 W18-U/26/HK.01.10/I/2018 2018-01-10 PERHIMPUNAN ADVOKAT INDONESIA (PERADI) VERSI OTTO HASIBUAN
481 481 UNUN IHDA SUSIYATI WAHAB, S.H. NGAWI - 06 Des 1989 Islam Tanah Grogot KEP.15.0023/ADV/PERADI/DPN/XII/2017 2017-12-06 2018 W18-U/27/HK.01.10/I/2018 2018-01-10 PERHIMPUNAN ADVOKAT INDONESIA (PERADI) VERSI OTTO HASIBUAN
482 482 WEN FAREN SUTRIONO, S.H. SENTABAN - 04 Feb 1982 Kristen Protestan Malinau KEP.15.0024/ADV/PERADI/DPN/XII/2017 2017-12-06 2018 W18-U/28/HK.01.10/I/2018 2018-01-10 PERHIMPUNAN ADVOKAT INDONESIA (PERADI) VERSI OTTO HASIBUAN
483 483 YOHANES BADULELE DA SILVA, S.H., M.H. HOKENG - 06 Juni 1970 Kristen Katholik Samarinda KEP.15.0025/ADV/PERADI/DPN/XII/2017 2017-12-06 2018 W18-U/29/HK.01.10/I/2018 2018-01-10 PERHIMPUNAN ADVOKAT INDONESIA (PERADI) VERSI OTTO HASIBUAN
484 484 YOLANDA LIROGA, S.H. UJUNG PANDANG - 29 Sept 1989 Kristen Protestan Balikpapan KEP.15.0026/ADV/PERADI/DPN/XII/2017 2017-12-06 2018 W18-U/30/HK.01.10/I/2018 2018-01-10 PERHIMPUNAN ADVOKAT INDONESIA (PERADI) VERSI OTTO HASIBUAN
485 485 YOTAM WIJAYA, S.H. BALIKPAPAN - 17 Jan 1989 Kristen Katholik Balikpapan KEP.15.0027/ADV/PERADI/DPN/XII/2017 2017-12-06 2018 W18-U/31/HK.01.10/I/2018 2018-01-10 PERHIMPUNAN ADVOKAT INDONESIA (PERADI) VERSI OTTO HASIBUAN
486 486 YULIANA MEGASARI, S.H., M.M. BALIKPAPAN - 01 Juli 1983 Islam Balikpapan KEP.15.0028/ADV/PERADI/DPN/XII/2017 2017-12-06 2018 W18-U/32/HK.01.10/I/2018 2018-01-10 PERHIMPUNAN ADVOKAT INDONESIA (PERADI) VERSI OTTO HASIBUAN
487 487 AHMAD YANI, S.H. AMUNTAI - 06 Sept 1985 Islam Balikpapan KEP.15.0001/ADV/PERADI/DPN/I/2018 2018-01-03 2018 W18-U/33/HK.01.10/I/2018 2018-01-10 PERHIMPUNAN ADVOKAT INDONESIA (PERADI) VERSI OTTO HASIBUAN
488 488 AHMAD, S.H. MUARA MUNTAI - 15 Feb 1974 Islam Samarinda KEP.15.0002/ADV/PERADI/DPN/I/2018 2018-01-03 2018 W18-U/34/HK.01.10/I/2018 2018-01-10 PERHIMPUNAN ADVOKAT INDONESIA (PERADI) VERSI OTTO HASIBUAN
489 489 CINDY KHATERINE MANURUNG, S.H. TARAKAN - 19 Juli 1989 Kristen Protestan Tarakan KEP.15.0003/ADV/PERADI/DPN/I/2018 2018-01-03 2018 W18-U/35/HK.01.10/I/2018 2018-01-10 PERHIMPUNAN ADVOKAT INDONESIA (PERADI) VERSI OTTO HASIBUAN
490 490 DULHADI, S.H., M.H. TUBAN - 06 Jan 1985 Islam Samarinda KEP.15.0004/ADV/PERADI/DPN/I/2018 2018-01-03 2018 W18-U/36/HK.01.10/I/2018 2018-01-10 PERHIMPUNAN ADVOKAT INDONESIA (PERADI) VERSI OTTO HASIBUAN
491 491 GRACE VIOLENTA MANURUNG, S.H. LUBUK PAKAM - 17 Jan 1988 Kristen Protestan Tarakan KEP.15.0005/ADV/PERADI/DPN/I/2018 2018-01-03 2018 W18-U/37/HK.01.10/I/2018 2018-01-10 PERHIMPUNAN ADVOKAT INDONESIA (PERADI) VERSI OTTO HASIBUAN
492 492 HENDRIK, S.H. RITAN BARU - 15 Mei 1984 Kristen Protestan Tenggarong KEP.15.0006/ADV/PERADI/DPN/I/2018 2018-01-03 2018 W18-U/38/HK.01.10/I/2018 2018-01-10 PERHIMPUNAN ADVOKAT INDONESIA (PERADI) VERSI OTTO HASIBUAN
493 493 HEZISOKHI GEA, S.H. NIAS - 05 Apr 1966 Kristen Protestan Tenggarong KEP.15.0007/ADV/PERADI/DPN/I/2018 2018-01-03 2018 W18-U/39/HK.01.10/I/2018 2018-01-10 PERHIMPUNAN ADVOKAT INDONESIA (PERADI) VERSI OTTO HASIBUAN
494 494 JIMMY HENDRIK KINDANGEN, S.H. JAKARTA - 25 Jan 1960 Kristen Protestan Balikpapan KEP.15.0008/ADV/PERADI/DPN/I/2018 2018-01-03 2018 W18-U/40/HK.01.10/I/2018 2018-01-10 PERHIMPUNAN ADVOKAT INDONESIA (PERADI) VERSI OTTO HASIBUAN
495 495 LUKMANUL HAKIM, S.H. PELAIHARI - 04 Sept 1987 Islam Sangatta KEP.15.0009/ADV/PERADI/DPN/I/2018 2018-01-03 2018 W18-U/41/HK.01.10/I/2018 2018-01-10 PERHIMPUNAN ADVOKAT INDONESIA (PERADI) VERSI OTTO HASIBUAN
496 496 MERI KRISMAS SIMANJUNTAK, S.H. MUARA BADAK - 14 Mar 1989 Kristen Protestan Tenggarong KEP.15.0010/ADV/PERADI/DPN/I/2018 2018-01-03 2018 W18-U/42/HK.01.10/I/2018 2018-01-10 PERHIMPUNAN ADVOKAT INDONESIA (PERADI) VERSI OTTO HASIBUAN
497 497 WINDRA SIMANJORANG, S.H. BINANGARA - 14 Juni 1991 Kristen Protestan Samarinda KEP.15.0011/ADV/PERADI/DPN/I/2018 2018-01-03 2018 W18-U/43/HK.01.10/I/2018 2018-01-10 PERHIMPUNAN ADVOKAT INDONESIA (PERADI) VERSI OTTO HASIBUAN
498 498 ADHE REHATTA TARIGAN SIBERO, S.H. PEMATANG SIANTAR - 10 Des 1979 Kristen Protestan Kutai Barat 07672/023/SK-ADV/KAI/III/2018 2018-03-28 2018 W18-U/44/HK.01.10/IV/2018 2018-04-04 KONGRES ADVOKAT INDONESIA (KAI) VERSI INDRA SAHNUN LUBIS
499 499 ANTON CHRISTIAN OMPU SUNGGU, S.H. SAMARINDA - 22 Apr 1988 Kristen Protestan Samarinda 07675/023/SK-ADV/KAI/III/2018 2018-03-28 2018 W18-U/45/HK.01.10/IV/2018 2018-04-04 KONGRES ADVOKAT INDONESIA (KAI) VERSI INDRA SAHNUN LUBIS
500 500 CUT NOVI JAYANTI, S.H. LHOKSEUMAWE - 25 Agust 1987 Islam Tenggarong 07640/023/SK-ADV/KAI/III/2018 2018-03-28 2018 W18-U/46/HK.01.10/IV/2018 2018-04-04 KONGRES ADVOKAT INDONESIA (KAI) VERSI INDRA SAHNUN LUBIS
501 501 DANIEL ALEXTAR M. PURBA, S.H. HUTA BANGUN - 15 Okt 1992 Kristen Protestan Samarinda 07659/023/SK-ADV/KAI/III/2018 2018-03-28 2018 W18-U/47/HK.01.10/IV/2018 2018-04-04 KONGRES ADVOKAT INDONESIA (KAI) VERSI INDRA SAHNUN LUBIS
502 502 DALMASIUS, S.H. TENGGARONG - 23 Mar 1992 Kristen Protestan Tenggarong 07680/023/SK-ADV/KAI/III/2018 2018-03-28 2018 W18-U/48/HK.01.10/I/2018 2018-04-04 KONGRES ADVOKAT INDONESIA (KAI) VERSI INDRA SAHNUN LUBIS
503 503 DEDDY HARYANTO SIAHAAN, S.H. TANJUNG REDEB - 11 Sept 1986 Kristen Protestan Samarinda 07674/023/SK-ADV/KAI/III/2018 2018-03-28 2018 W18-U/49/HK.01.10/IV/2018 2018-04-04 KONGRES ADVOKAT INDONESIA (KAI) VERSI INDRA SAHNUN LUBIS
504 504 FRANSISKUS SIEMANG, S.H. KALO - 03 Nov 1986 Kristen Katholik Samarinda 07647/023/SK-ADV/KAI/III/2018 2018-03-28 2018 W18-U/50/HK.01.10/IV/2018 2018-04-04 KONGRES ADVOKAT INDONESIA (KAI) VERSI INDRA SAHNUN LUBIS
505 505 GRADY PETER, S.H. SAMARINDA - 17 Agust 1988 Kristen Protestan Samarinda 07652/023/SK-ADV/KAI/III/2018 2018-03-28 2018 W18-U/51/HK.01.10/I/2018 2018-04-04 KONGRES ADVOKAT INDONESIA (KAI) VERSI INDRA SAHNUN LUBIS
506 506 GUNARDI, S.H. KAHALA - 10 Nov 1971 Islam Tenggarong 07663/023/SK-ADV/KAI/III/2018 2018-03-28 2018 W18-U/52/HK.01.10/IV/2018 2018-04-04 KONGRES ADVOKAT INDONESIA (KAI) VERSI INDRA SAHNUN LUBIS
507 507 H.AIDAR, S.H., M.H. TELUK BAYUR - 14 Apr 1960 Islam Tanjung Redeb 07671/023/SK-ADV/KAI/III/2018 2018-03-28 2018 W18-U/53/HK.01.10/IV/2018 2018-04-04 KONGRES ADVOKAT INDONESIA (KAI) VERSI INDRA SAHNUN LUBIS
508 508 HARIANTO GUNAWAN, S.H. TENGGARONG - 01 Apr 1985 Islam Tenggarong 07676/023/SK-ADV/KAI/III/2018 2018-03-28 2018 W18-U/54/HK.01.10/IV/2018 2018-04-04 KONGRES ADVOKAT INDONESIA (KAI) VERSI INDRA SAHNUN LUBIS
509 509 HERMON YARI, S.H. KAWATA - 20 Okt 1972 Kristen Protestan Tenggarong 07648/023/SK-ADV/KAI/III/2018 2018-03-28 2018 W18-U/55/HK.01.10/IV/2018 2018-04-04 KONGRES ADVOKAT INDONESIA (KAI) VERSI INDRA SAHNUN LUBIS
510 510 HARNOWO MS, S.H. POLMAS - 02 Sept 1965 Islam Bontang 07667/023/SK-ADV/KAI/III/2018 2018-03-28 2018 W18-U/56/HK.01.10/IV/2018 2018-04-04 KONGRES ADVOKAT INDONESIA (KAI) VERSI INDRA SAHNUN LUBIS
511 511 INTI SUMIYATI, S.H. TEMANGGUNG - 27 Sept 1963 Islam Samarinda 4175/KEP-ADV/DPP-KAI/IV/2009 2009-04-29 2018 W18-U/57/HK.01.10/IV/2018 2018-04-04 KONGRES ADVOKAT INDONESIA (KAI) VERSI INDRA SAHNUN LUBIS
512 512 INDRA WIDYANTO, S.H. MALANG - 22 Juli 1971 Islam Samarinda 4174/KEP-ADV/DPP-KAI/IV/2009 2009-04-27 2018 W18-U/58/HK.01.10/IV/2018 2018-04-04 KONGRES ADVOKAT INDONESIA (KAI) VERSI INDRA SAHNUN LUBIS
513 512 INDRA WIDYANTO, S.H. MALANG - 22 Juli 1971 Islam Samarinda 4174/KEP-ADV/DPP-KAI/IV/2009 2009-04-27 2018 W18-U/58/HK.01.10/IV/2018 2018-04-04 KONGRES ADVOKAT INDONESIA (KAI) VERSI INDRA SAHNUN LUBIS
514 513 JANUARIUS LIIQ, S.H. KALIAN LUAR - 02 Jan 1990 Kristen Katholik Kutai Barat 07650/023/SK-ADV/KAI/III/2018 2018-03-28 2018 W18-U/59/HK.01.10/IV/2018 2018-04-04 KONGRES ADVOKAT INDONESIA (KAI) VERSI INDRA SAHNUN LUBIS
515 514 JOHANSYAH, S.H. BONTANG - 04 Juni 1968 Islam Bontang 07681/023/SK-ADV/KAI/III/2018 2018-03-28 2018 W18-U/60/HK.01.10/IV/2018 2018-04-04 KONGRES ADVOKAT INDONESIA (KAI) VERSI INDRA SAHNUN LUBIS
516 515 KUDDING, S.H. POLMAS - 23 Des 1964 Islam Bontang 00757/023/SK-ADV/KAI/VI/2010 2010-06-20 2018 W18-U/61/HK.01.10/IV/2018 2018-04-04 KONGRES ADVOKAT INDONESIA (KAI) VERSI INDRA SAHNUN LUBIS
517 516 LA ODE ALI IMRAN, S.H. MOLANA - 30 Des 1988 Islam Tenggarong 07656/023/SK-ADV/KAI/III/2018 2018-03-28 2018 W18-U/62/HK.01.10/IV/2018 2018-04-04 KONGRES ADVOKAT INDONESIA (KAI) VERSI INDRA SAHNUN LUBIS
518 517 LINI MARLINA N, S.H. KUNTAP - 17 Juli 1978 Kristen Protestan Samarinda 07665/023/SK-ADV/KAI/III/2018 2018-03-28 2018 W18-U/63/HK.01.10/IV/2018 2018-04-04 KONGRES ADVOKAT INDONESIA (KAI) VERSI INDRA SAHNUN LUBIS
519 518 LEONARDO SIMANGUNSONG, S.H. MUARA BADAK - 05 Nov 1990 Kristen Protestan Tenggarong 07668/023/SK-ADV/KAI/III/2018 2018-03-28 2018 W18-U/64/HK.01.10/IV/2018 2018-04-04 KONGRES ADVOKAT INDONESIA (KAI) VERSI INDRA SAHNUN LUBIS
520 519 MUHAMMAD AMIN, S.H. LAMPONENE - 13 Des 1973 Islam Tanah Grogot 07643/023/SK-ADV/KAI/III/2018 2018-03-28 2018 W18-U/65/HK.01.10/IV/2018 2018-04-04 KONGRES ADVOKAT INDONESIA (KAI) VERSI INDRA SAHNUN LUBIS
521 520 MUHAMMAD NUR HALIL, S.H. BARRU - 19 Nov 1976 Islam Samarinda 07662/023/SK-ADV/KAI/III/2018 2018-03-28 2018 W18-U/66/HK.01.10/IV/2018 2018-04-04 KONGRES ADVOKAT INDONESIA (KAI) VERSI INDRA SAHNUN LUBIS
522 521 OSKHAR RAWINDRA SUMUAL, S.H. SAMARINDA - 23 Juni 1988 Kristen Protestan Samarinda 07651/023/SK-ADV/KAI/III/2018 2018-03-28 2018 W18-U/67/HK.01.10/IV/2018 2018-04-04 KONGRES ADVOKAT INDONESIA (KAI) VERSI INDRA SAHNUN LUBIS
523 522 PAULUS SURYADI, S.H. DAMAI - 27 Nov 1975 Kristen Protestan Samarinda 07661/023/SK-ADV/KAI/III/2018 2018-03-28 2018 W18-U/68/HK.01.10/IV/2018 2018-04-04 KONGRES ADVOKAT INDONESIA (KAI) VERSI INDRA SAHNUN LUBIS
524 523 RONI PARAMMA, S.H. SANGKAROPI - 05 Juli 1978 Kristen Protestan Samarinda 07655/023/SK-ADV/KAI/III/2018 2018-03-28 2018 W18-U/69/HK.01.10/IV/2018 2018-04-04 KONGRES ADVOKAT INDONESIA (KAI) VERSI INDRA SAHNUN LUBIS
525 524 SUNARDI SINAGA, S.H. TAPANULI UTARA - 21 Sept 1980 Kristen Protestan Samarinda 07642/023/SK-ADV/KAI/III/2018 2018-03-28 2018 W18-U/70/HK.01.10/IV/2018 2018-04-04 KONGRES ADVOKAT INDONESIA (KAI) VERSI INDRA SAHNUN LUBIS
526 525 SONY RIZALDI, S.H. SAMARINDA - 29 Des 1978 Islam Samarinda 07646/023/SK-ADV/KAI/III/2018 2018-03-28 2018 W18-U/71/HK.01.10/IV/2018 2018-04-04 KONGRES ADVOKAT INDONESIA (KAI) VERSI INDRA SAHNUN LUBIS
527 526 SOETANTO AMBAR RIATMADJI, S.H.,Sp.N PONOROGO - 22 Agust 1949 Kristen Protestan Samarinda 07641/023/SK-ADV/KAI/III/2018 2018-03-28 2018 W18-U/72/HK.01.10/IV/2018 2018-04-04 KONGRES ADVOKAT INDONESIA (KAI) VERSI INDRA SAHNUN LUBIS
528 527 SULIANSYAH, S.H. BATU REDI - 09 Agust 1973 Islam Samarinda 07660/023/SK-ADV/KAI/III/2018 2018-03-28 2018 W18-U/73/HK.01.10/IV/2018 2018-04-04 KONGRES ADVOKAT INDONESIA (KAI) VERSI INDRA SAHNUN LUBIS
529 528 SOLEMAN TEMA BILI, S.H. LOKO RODA - 05 Jan 1983 Kristen Protestan Tenggarong 07666/023/SK-ADV/KAI/III/2018 2018-03-28 2018 W18-U/74/HK.01.10/IV/2018 2018-04-04 KONGRES ADVOKAT INDONESIA (KAI) VERSI INDRA SAHNUN LUBIS
530 529 SAMLIS, S.H. MARATUA - 02 Mar 1969 Islam Tanjung Redeb 07649/023/SK-ADV/KAI/III/2018 2018-03-28 2018 W18-U/75/HK.01.10/IV/2018 2018-04-04 KONGRES ADVOKAT INDONESIA (KAI) VERSI INDRA SAHNUN LUBIS
531 530 SUDIANTO ZEGA, S.H. LOLOMBOLI - 04 Feb 1989 Kristen Protestan Samarinda 07678/023/SK-ADV/KAI/III/2018 2018-03-28 2018 W18-U/76/HK.01.10/IV/2018 2018-04-04 KONGRES ADVOKAT INDONESIA (KAI) VERSI INDRA SAHNUN LUBIS
532 531 SUPARTINI, S.H. MADIUN - 10 Okt 1969 Islam Tenggarong 07679/023/SK-ADV/KAI/III/2018 2018-03-28 2018 W18-U/77/HK.01.10/IV/2018 2018-04-04 KONGRES ADVOKAT INDONESIA (KAI) VERSI INDRA SAHNUN LUBIS
533 532 TAUFIQ, S.H. MADELLO - 10 Okt 1973 Islam Tenggarong 076473/023/SK-ADV/KAI/III/2018 2018-03-28 2018 W18-U/78/HK.01.10/IV/2018 2018-04-04 KONGRES ADVOKAT INDONESIA (KAI) VERSI INDRA SAHNUN LUBIS
534 533 VETHERSON SALOMO SAGALA, S.H. BELAWAN - 12 Des 1981 Kristen Protestan Tarakan 07658/023/SK-ADV/KAI/III/2018 2018-03-28 2018 W18-U/79/HK.01.10/IV/2018 2018-04-04 KONGRES ADVOKAT INDONESIA (KAI) VERSI INDRA SAHNUN LUBIS
535 534 YAUMUL ARHAM, S.H., M.H. SAMARINDA - 18 Juli 1989 Islam Samarinda 07653/023/SK-ADV/KAI/III/2018 2018-03-28 2018 W18-U/80/HK.01.10/IV/2018 2018-04-04 KONGRES ADVOKAT INDONESIA (KAI) VERSI INDRA SAHNUN LUBIS
536 535 YOSAFAT, S.H., M.H. SAMARINDA - 23 Mei 1988 Kristen Protestan Kutai Barat 07657/023/SK-ADV/KAI/III/2018 2018-03-28 2018 W18-U/81/HK.01.10/IV/2018 2018-04-04 KONGRES ADVOKAT INDONESIA (KAI) VERSI INDRA SAHNUN LUBIS
537 536 JUANDI SIBARANI, S.H. KISARAN - 15 Juni 1979 Kristen Protestan Samarinda 07644/023/SK-ADV/KAI/III/2018 2018-03-28 2018 W18-U/82/HK.01.10/IV/2018 2018-04-04 KONGRES ADVOKAT INDONESIA (KAI) VERSI INDRA SAHNUN LUBIS
538 537 ALEXIUS PAGALLA, S.H. MAKALE - 27 Agust 1983 Kristen Katholik Samarinda 03481/023/SK-ADV/KAI/VI/2013 2013-06-22 2018 W18-U/83/HK.01.10/IV/2018 2018-04-04 KONGRES ADVOKAT INDONESIA (KAI) VERSI INDRA SAHNUN LUBIS
539 538 BENYAMIN DARMA BAKTI SITORUS, S.H. KISARAN - 21 Mei 1979 Kristen Protestan Samarinda 07664/023/SK-ADV/KAI/III/2018 2018-03-28 2018 W18-U/84/HK.01.10/IV/2018 2018-04-04 KONGRES ADVOKAT INDONESIA (KAI) VERSI INDRA SAHNUN LUBIS
540 539 DESY HASRITA, S.H. SAMARINDA - 07 Jan 1976 Islam Samarinda 07682/023/SK-ADV/KAI/III/2018 2018-03-28 2018 W18-U/85/HK.01.10/IV/2018 2018-04-04 KONGRES ADVOKAT INDONESIA (KAI) VERSI INDRA SAHNUN LUBIS
541 540 FAJAR ANGGA KUSUMA, S.H. BALIKPAPAN - 02 Okt 1985 Islam Balikpapan 07670/023/SK-ADV/KAI/III/2018 2018-03-28 2018 W18-U/86/HK.01.10/IV/2018 2018-04-04 KONGRES ADVOKAT INDONESIA (KAI) VERSI INDRA SAHNUN LUBIS
542 541 TEZAR ERY FANSYAH, S.H. BALIKPAPAN - 04 Juni 1978 Islam Balikpapan 07669/023/SK-ADV/KAI/III/2018 2018-03-28 2018 W18-U/87/HK.01.10/I/2018 2018-04-04 KONGRES ADVOKAT INDONESIA (KAI) VERSI INDRA SAHNUN LUBIS
543 542 RUDI HARTONO, S.H. SAMARINDA - 07 Jan 1977 Islam Samarinda 07677/023/SK-ADV/KAI/III/2018 2018-03-28 2018 W18-U/88/HK.01.10/IV/2018 2018-04-04 KONGRES ADVOKAT INDONESIA (KAI) VERSI INDRA SAHNUN LUBIS
544 543 ABDUL KHAN, S.H. BALIKPAPAN - 24 Okt 1966 Islam Balikpapan 001085/SKEP-ADV/K.A.I/VIII/2017 2017-08-29 2018 W18-U/89/HK.01.10/VIII/2018 2018-08-08 KONGRES ADVOKAT INDONESIA (KAI) VERSI TUTJU SANJAYA
545 544 ABU NAZIR, S.H. BATURAJA - 25 Des 1969 Islam Tenggarong 001086/SKEP-ADV/K.A.I/VIII/2017 2017-08-29 2018 W18-U/90/HK.01.10/VIII/2018 2018-08-08 KONGRES ADVOKAT INDONESIA (KAI) VERSI TUTJU SANJAYA
546 545 ADIB KHOIRUL UMAM, S.HI. MADIUN - 27 Jan 1991 Islam Balikpapan 001087/SKEP-ADV/K.A.I/VIII/2017 2017-08-29 2018 W18-U/91/HK.01.10/VIII/2018 2018-08-08 KONGRES ADVOKAT INDONESIA (KAI) VERSI TUTJU SANJAYA
547 546 AHMAD TEPU, S.H. BARRU - 07 Jan 1966 Islam Samarinda 001088/SKEP-ADV/K.A.I/VIII/2017 2017-08-29 2018 W18-U/92/HK.01.10/VIII/2018 2017-08-08 KONGRES ADVOKAT INDONESIA (KAI) VERSI TUTJU SANJAYA
548 547 ALBERT, S.H. AMOHOLA - 18 Okt 1987 Islam Samarinda 001089/SKEP-ADV/K.A.I/VIII/2017 2017-08-29 2018 W18-U/93/HK.01.10/VIII/2018 2018-08-08 KONGRES ADVOKAT INDONESIA (KAI) VERSI TUTJU SANJAYA
549 548 ANDI SUYUTI N, S.H. WAJO - 10 Okt 1965 Islam Tenggarong 014-001255/SKEP-ADV/K.A.I/IV/2018 2018-04-30 2018 W18-U/94/HK.01.10/VIII/2018 2018-08-08 KONGRES ADVOKAT INDONESIA (KAI) VERSI TUTJU SANJAYA
550 549 ARYANTO, S.H. SRAGEN - 08 Juni 1972 Islam Tanjung Redeb 023-001090/SKEP-ADV/K.A.I/VIII/2017 2017-08-29 2018 W18-U/95/HK.01.10/VIII/2018 2018-08-08 KONGRES ADVOKAT INDONESIA (KAI) VERSI TUTJU SANJAYA
551 550 ENDANG ARIATI, S.H. BALIKPAPAN - 11 Mar 1982 Islam Balikpapan 023-001093/SKEP-ADV/K.A.I/VIII/2017 2017-08-29 2018 W18-U/96/HK.01.10/VIII/2018 2018-08-08 KONGRES ADVOKAT INDONESIA (KAI) VERSI TUTJU SANJAYA
552 551 GATUT ADJISENO, S.H. NGANJUK - 05 Mar 1961 Islam Balikpapan 023-001094/SKEP-ADV/K.A.I/VIII/2017 2017-08-29 2018 W18-U/97/HK.01.10/VIII/2018 2018-08-08 KONGRES ADVOKAT INDONESIA (KAI) VERSI TUTJU SANJAYA
553 552 GUNTUR SIMANJUNTAK, S.H. MEDAN - 11 Des 1977 Kristen Protestan Balikpapan 023-001095/SKEP-ADV/K.A.I/VIII/2017 2017-08-29 2018 W18-U/98/HK.01.10/VIII/2018 2018-08-08 KONGRES ADVOKAT INDONESIA (KAI) VERSI TUTJU SANJAYA
554 553 HENDRIKUS MARE, S.H. ENDE - 14 Agust 1974 Kristen Katholik Balikpapan 023-001098/SKEP-ADV/K.A.I/VIII/2017 2017-08-29 2018 W18-U/99/HK.01.10/VIII/2018 2018-08-08 KONGRES ADVOKAT INDONESIA (KAI) VERSI TUTJU SANJAYA
555 554 HERY HARIANTO, S.H. BALIKPAPAN - 19 Nov 1991 Islam Balikpapan 023-001101/SKEP-ADV/K.A.I/VIII/2017 2017-08-29 2018 W18-U/100/HK.01.10/VIII/2018 2018-08-08 KONGRES ADVOKAT INDONESIA (KAI) VERSI TUTJU SANJAYA
556 555 HERU HARDIYAN, S.H. PEKALONGAN - 28 Agust 1978 Islam Balikpapan 023-001099/SKEP-ADV/K.A.I/VIII/2017 2017-08-29 2018 W18-U/101/HK.01.10/VIII/2018 2018-08-08 KONGRES ADVOKAT INDONESIA (KAI) VERSI TUTJU SANJAYA
557 556 HERWIN, S.H. PARE-PARE - 03 Mei 1966 Islam Tanjung Redeb 023-001100/SKEP-ADV/K.A.I/VIII/2017 2017-08-29 2018 W18-U/102/HK.01.10/VIII/2018 2018-08-08 KONGRES ADVOKAT INDONESIA (KAI) VERSI TUTJU SANJAYA
558 557 INDRA GUNAWAN, S.H. BANJARMASIN - 13 Okt 1974 Islam Balikpapan 023-001102/SKEP-ADV/K.A.I/VIII/2017 2017-08-29 2018 W18-U/103/HK.01.10/VIII/2018 2018-08-08 KONGRES ADVOKAT INDONESIA (KAI) VERSI TUTJU SANJAYA
559 558 ISMAIL L, S.H. KIAQ - 31 Des 1980 Kristen Protestan Kutai Barat 023-001103/SKEP-ADV/K.A.I/VIII/2017 2017-08-29 2018 W18-U/104/HK.01.10/I/2018 2018-08-08 KONGRES ADVOKAT INDONESIA (KAI) VERSI TUTJU SANJAYA
560 559 ISMAIL PANDA LUBI, S.H. PINTU PADANG - 25 Nov 1982 Islam Tenggarong 023-001104/SKEP-ADV/K.A.I/VIII/2017 2017-08-29 2018 W18-U/105/HK.01.10/I/2018 2018-08-08 KONGRES ADVOKAT INDONESIA (KAI) VERSI TUTJU SANJAYA
561 560 JAKARIYA, S.H. BERAU - 18 Nov 1969 Islam Tanjung Redeb 023-001106/SKEP-ADV/K.A.I/VIII/2017 2017-08-29 2018 W18-U/107/HK.01.10/VIII/2018 2018-08-08 KONGRES ADVOKAT INDONESIA (KAI) VERSI TUTJU SANJAYA
562 561 KHAIRUN NISSA, S.H. SAMARINDA - 26 Sept 1989 Islam Balikpapan 023-001109/SKEP-ADV/K.A.I/VIII/2017 2017-08-29 2018 W18-U/108/HK.01.10/VIII/2018 2018-08-08 KONGRES ADVOKAT INDONESIA (KAI) VERSI TUTJU SANJAYA
563 562 LA ODE BENI, S.H. LIYA MAWI - 11 Nov 1969 Islam Balikpapan 038/SK/II/2015/DPP 2015-02-28 2018 W18-U/109/HK.01.10/VIII/2018 2018-08-08 KONGRES ADVOKAT INDONESIA (KAI) VERSI TUTJU SANJAYA
564 563 M. HUSNI FAHRUDDIN, S.H., M.H. TENGGARONG - 06 Mar 1978 Islam Tenggarong 023-001113/SKEP-ADV/K.A.I/VIII/2017 2017-08-29 2018 W18-U/110/HK.01.10/VIII/2018 2018-08-08 KONGRES ADVOKAT INDONESIA (KAI) VERSI TUTJU SANJAYA
565 564 MANORANG SITUNGKIR, S.H. SILALAHI - 24 Apr 1981 Kristen Protestan Balikpapan 4091/KEP-ADV/DPP-KAI/IV/2009 2009-04-27 2018 W18-U/111/HK.01.10/VIII/2018 2018-08-08 KONGRES ADVOKAT INDONESIA (KAI) VERSI TUTJU SANJAYA
566 565 MASDIANTO, S.H. TENGGARONG - 10 Juni 1974 Kristen Protestan Samarinda 023-001111/SKEP-ADV/K.A.I/VIII/2017 2017-08-29 2018 W18-U/112/HK.01.10/VIII/2018 2018-08-08 KONGRES ADVOKAT INDONESIA (KAI) VERSI TUTJU SANJAYA
567 566 MEIKI HENDRIK MANUSAMA, S.H. MANADO - 26 Mei 1978 Kristen Protestan Balikpapan 023-001112/SKEP-ADV/K.A.I/VIII/2017 2017-08-29 2018 W18-U/113/HK.01.10/VIII/2018 2018-08-08 KONGRES ADVOKAT INDONESIA (KAI) VERSI TUTJU SANJAYA
568 567 MULYADI, S.H. MADIUN - 17 Juli 1959 Islam Balikpapan 023-001114/SKEP-ADV/K.A.I/VIII/2017 2017-08-29 2018 W18-U/114/HK.01.10/VIII/2018 2018-08-08 KONGRES ADVOKAT INDONESIA (KAI) VERSI TUTJU SANJAYA
569 568 OKI MARTIN ALFIANSYAH, S.H. BALIKPAPAN - 03 Mar 1977 Islam Balikpapan 014-001256/SKEP-ADV/K.A.I/IV/2018 2018-04-30 2018 W18-U/115/HK.01.10/VIII/2018 2018-08-08 KONGRES ADVOKAT INDONESIA (KAI) VERSI TUTJU SANJAYA
570 569 PUTRI HARI ANGGRAINI, S.H. SURABAYA - 21 Feb 1989 Islam Balikpapan 023-001116/SKEP-ADV/K.A.I/VIII/2017 2017-08-29 2018 W18-U/116/HK.01.10/VIII/2018 2018-08-08 KONGRES ADVOKAT INDONESIA (KAI) VERSI TUTJU SANJAYA
571 570 ROKHMAN WAHYUDI, S.H. PAMEKASAN - 02 Nov 1981 Islam Penajam 023-001117/SKEP-ADV/K.A.I/VIII/2017 2017-08-29 2018 W18-U/117/HK.01.10/VIII/2018 2018-08-08 KONGRES ADVOKAT INDONESIA (KAI) VERSI TUTJU SANJAYA
572 571 SUKARJO, S.H. NGANJUK - 27 Sept 1965 Islam Samarinda 023-001119/SKEP-ADV/K.A.I/VIII/2017 2017-08-29 2018 W18-U/118/HK.01.10/VIII/2018 2018-08-08 KONGRES ADVOKAT INDONESIA (KAI) VERSI TUTJU SANJAYA
573 572 SUPARDI, S.H. SUKOREJO - 16 Agust 1982 Islam Tenggarong 023-001120/SKEP-ADV/K.A.I/VIII/2017 2017-08-29 2018 W18-U/119/HK.01.10/VIII/2018 2018-08-08 KONGRES ADVOKAT INDONESIA (KAI) VERSI TUTJU SANJAYA
574 573 TAMAJI, S.H. PATI - 25 Okt 1962 Islam Balikpapan 4657/KEP-ADV/DPP-KAI/V/2010 2010-05-29 2018 W18-U/120/HK.01.10/VIII/2018 2018-08-08 KONGRES ADVOKAT INDONESIA (KAI) VERSI TUTJU SANJAYA
575 574 YOSAFAT U RAMPAN, S.H. RINDING - 23 Jan 1972 Kristen Protestan Kutai Barat 023-001123/SKEP-ADV/K.A.I/VIII/2017 2017-08-29 2018 W18-U/122/HK.01.10/VIII/2018 2018-08-08 KONGRES ADVOKAT INDONESIA (KAI) VERSI TUTJU SANJAYA
576 575 JUMINTAR NAPITUPULU, S.H. LUMBAN LINTONG - 30 Juni 1987 Kristen Protestan Samarinda 023-001294/SKEP-ADV/K.A.I/VIII/2017 2017-08-29 2018 W18-U/123/HK.01.10/VIII/2018 2018-08-08 KONGRES ADVOKAT INDONESIA (KAI) VERSI TUTJU SANJAYA
577 576 MUHAMMAD YUNUS, S.H. SOPPENG - 09 Sept 1971 Islam Tanjung Redeb 023-001293/SKEP-ADV/K.A.I/VIII/2017 2017-08-29 2018 W18-U/124/HK.01.10/VIII/2018 2018-08-08 KONGRES ADVOKAT INDONESIA (KAI) VERSI TUTJU SANJAYA
578 577 EKO BAMBANG SRIANTO, S.H. BALIKPAPAN - 11 Sept 1980 Islam Balikpapan 3198/KEP-ADV/DPP-KAI/IV/2009 2009-04-27 2018 W18-U/125/HK.01.10/VIII/2018 2018-08-08 KONGRES ADVOKAT INDONESIA (KAI) VERSI TUTJU SANJAYA
579 578 ACHYAR RASYDI, S.H. SURABAYA - 05 Juni 1984 Islam Samarinda KEP.15.0012/ADV/PERADI/DPN/X/2018 2018-10-30 2018 W18-U/126/HK.01.10/XI/2018 2018-11-27 PERHIMPUNAN ADVOKAT INDONESIA (PERADI) VERSI OTTO HASIBUAN
580 579 AHMAD AFIFUDDIN ROZIB, S.H. SAMARINDA - 08 Apr 1975 Islam Samarinda KEP.15.0015/ADV/PERADI/DPN/X/2018 2018-10-30 2018 W18-U/127/HK.01.10/XI/2018 2018-11-27 PERHIMPUNAN ADVOKAT INDONESIA (PERADI) VERSI OTTO HASIBUAN
581 580 ANDRIE SEFTIAN FUTRA ISYA, S.H. SEBULU - 24 Sept 1992 Islam Tenggarong KEP.15.0014/ADV/PERADI/DPN/XI/2018 2018-10-30 2018 W18-U/128/HK.01.10/XI/2018 2018-11-27 PERHIMPUNAN ADVOKAT INDONESIA (PERADI) VERSI OTTO HASIBUAN
582 581 ASMAUL FIFINDARI, S.H. BLITAR - 14 Feb 1978 Islam Samarinda KEP.15.0013/ADV/PERADI/DPN/X/2018 2018-10-30 2018 W18-U/129/HK.01.10/XI/2018 2018-11-27 PERHIMPUNAN ADVOKAT INDONESIA (PERADI) VERSI OTTO HASIBUAN
583 582 ASRAUDIN, S.H. BERAU - 22 Juli 1963 Islam Samarinda KEP.15.0016/ADV/PERADI/DPN/XI/2018 2018-10-30 2018 W18-U/130/HK.01.10/XI/2018 2018-11-27 PERHIMPUNAN ADVOKAT INDONESIA (PERADI) VERSI OTTO HASIBUAN
584 583 DEDE NURCAHYA PURWANDI, S.H. BANJARMASIN - 15 Nov 1989 Islam Bontang KEP.15.0023/ADV/PERADI/DPN/XI/2018 2018-11-07 2018 W18-U/131/HK.01.10/XI/2018 2018-11-27 PERHIMPUNAN ADVOKAT INDONESIA (PERADI) VERSI OTTO HASIBUAN
585 584 DESMAN V.E.N. SITOHANG, S.H. BALIKPAPAN - 20 Des 1988 Kristen Protestan Samarinda KEP.15.0024/ADV/PERADI/DPN/XI/2018 2018-11-07 2018 W18-U/132/HK.01.10/XI/2018 2018-11-27 PERHIMPUNAN ADVOKAT INDONESIA (PERADI) VERSI OTTO HASIBUAN
586 585 G.DYAH LESTRAI WAHYUNINGTYAS, KSPA, S.H., M.H. SURABAYA - 22 Nov 1980 Islam Samarinda KEP.15.0025/ADV/PERADI/DPN/XI/2018 2018-11-07 2018 W18-U/133/HK.01.10/XI/2018 2018-11-27 PERHIMPUNAN ADVOKAT INDONESIA (PERADI) VERSI OTTO HASIBUAN
587 586 HAMSURI, S.H, M.H. MARABATUAN - 07 Juni 1975 Islam Balikpapan KEP.15.0026/ADV/PERADI/DPN/XI/2018 2018-11-07 2018 W18-U/134/HK.01.10/XI/2018 2018-11-27 PERHIMPUNAN ADVOKAT INDONESIA (PERADI) VERSI OTTO HASIBUAN
588 587 HAMZAH, S.H. SINJAI - 13 Juni 1986 Islam Balikpapan KEP.15.0027/ADV/PERADI/DPN/XI/2018 2018-11-07 2018 W18-U/135/HK.01.10/XI/2018 2018-11-27 PERHIMPUNAN ADVOKAT INDONESIA (PERADI) VERSI OTTO HASIBUAN
589 588 IRFAN SETIAWAN, S.H. SIDOARJO - 20 Mei 1992 Islam Bontang KEP.15.0028/ADV/PERADI/DPN/XI/2018 2018-11-07 2018 W18-U/136/HK.01.10/XI/2018 2018-11-27 PERHIMPUNAN ADVOKAT INDONESIA (PERADI) VERSI OTTO HASIBUAN
590 589 I KADEK INDRA KUSUMA WARDANA, S.H. SAMARINDA - 21 Nov 1988 Kristen Protestan Tenggarong KEP.15.0017/ADV/PERADI/DPN/X/2018 2018-10-30 2018 W18-U/137/HK.01.10/XI/2018 2018-11-27 PERHIMPUNAN ADVOKAT INDONESIA (PERADI) VERSI OTTO HASIBUAN
591 590 JANIF ZULFIQAR, S.HI., M.Si. TANJUNG - 21 Des 1982 Islam Balikpapan KEP.15.0047/ADV/PERADI/DPN/XI/2018 2018-11-12 2018 W18-U/138/HK.01.10/XI/2018 2018-11-27 PERHIMPUNAN ADVOKAT INDONESIA (PERADI) VERSI OTTO HASIBUAN
592 591 KHAIRUL, S.H. SENYIUR - 07 Nov 1988 Islam Samarinda KEP.15.0018/ADV/PERADI/DPN/X/2018 2018-10-30 2018 W18-U/139/HK.01.10/XI/2018 2018-11-27 PERHIMPUNAN ADVOKAT INDONESIA (PERADI) VERSI OTTO HASIBUAN
593 592 KHALIS WIJAYA, S.H. BANDA ACEH - 22 Sept 1978 Islam Balikpapan KEP.15.0044/ADV/PERADI/DPN/XI/2018 2018-11-12 2018 W18-U/140/HK.01.10/XI/2018 2018-11-27 PERHIMPUNAN ADVOKAT INDONESIA (PERADI) VERSI OTTO HASIBUAN
594 593 LAILA MUSDALIFAH, S.H. SAMARINDA - 08 Agust 1991 Islam Samarinda KEP.15.0045/ADV/PERADI/DPN/XI/2018 2018-11-12 2018 W18-U/141/HK.01.10/XI/2018 2018-11-27 PERHIMPUNAN ADVOKAT INDONESIA (PERADI) VERSI OTTO HASIBUAN
595 594 LA ODE YUSUF EFENDI S, S.H. BUTON - 05 Jan 1977 Islam Tenggarong KEP.15.0029/ADV/PERADI/DPN/XI/2018 2018-11-07 2018 W18-U/142/HK.01.10/XI/2018 2018-11-27 PERHIMPUNAN ADVOKAT INDONESIA (PERADI) VERSI OTTO HASIBUAN
596 595 LIQ, S.H. LUTAN - 23 Feb 1977 Kristen Katholik Kutai Barat KEP.15.0030/ADV/PERADI/DPN/XI/2018 2018-11-07 2018 W18-U/143/HK.01.10/XI/2018 2018-11-27 PERHIMPUNAN ADVOKAT INDONESIA (PERADI) VERSI OTTO HASIBUAN
597 596 MARTHEN ENOS DANCE WORANG, A.Md, S.H. BALIKPAPAN - 25 Mar 1982 Kristen Protestan Balikpapan KEP.15.0031/ADV/PERADI/DPN/XI/2018 2018-11-07 2018 W18-U/144/HK.01.10/XI/2018 2018-11-27 PERHIMPUNAN ADVOKAT INDONESIA (PERADI) VERSI OTTO HASIBUAN
598 597 MATHEUS SANRODEL NGGALA, S.H. JOPU - 21 Sept 1984 Kristen Katholik Samarinda KEP.15.0019/ADV/PERADI/DPN/X/2018 2018-10-30 2018 W18-U/145/HK.01.10/XI/2018 2018-11-27 PERHIMPUNAN ADVOKAT INDONESIA (PERADI) VERSI OTTO HASIBUAN
599 598 MUHAMMAD AMBRAN AGUS, S.H. BALIKPAPAN - 12 Juli 1991 Islam Balikpapan KEP.15.0032/ADV/PERADI/DPN/XI/2018 2018-11-07 2018 W18-U/146/HK.01.10/XI/2018 2018-11-27 PERHIMPUNAN ADVOKAT INDONESIA (PERADI) VERSI OTTO HASIBUAN
600 599 NORITA, S.H. SAMARINDA - 11 Mei 1976 Islam Samarinda KEP.15.0020/ADV/PERADI/DPN/X/2018 2018-10-30 2018 W18-U/147/HK.01.10/XI/2018 2018-11-27 PERHIMPUNAN ADVOKAT INDONESIA (PERADI) VERSI OTTO HASIBUAN
601 600 NURLIA, S.H. PANCA LAUTAN - 13 Nov 1987 Islam Balikpapan KEP.15.0043/ADV/PERADI/DPN/XI/2018 2018-11-07 2018 W18-U/148/HK.01.10/XI/2018 2018-11-27 PERHIMPUNAN ADVOKAT INDONESIA (PERADI) VERSI OTTO HASIBUAN
602 601 OMMY ADE SAPUTRA, S.H. SAMARINDA - 15 Mei 1991 Islam Samarinda KEP.15.0033/ADV/PERADI/DPN/XI/2018 2018-11-07 2018 W18-U/149/HK.01.10/XI/2018 2018-11-27 PERHIMPUNAN ADVOKAT INDONESIA (PERADI) VERSI OTTO HASIBUAN
603 602 RUWANTA SAMNIAH, S.H. SORONG - 20 Mei 1992 Islam Samarinda KEP.15.0021/ADV/PERADI/DPN/XI/2018 2018-10-30 2018 W18-U/150/HK.01.10/XI/2018 2018-11-27 PERHIMPUNAN ADVOKAT INDONESIA (PERADI) VERSI OTTO HASIBUAN
604 603 SALCE PARARAK, S.H. Wasupanda - 28 Jan 1986 Kristen Katholik Sangatta KEP.15.0035/ADV/PERADI/DPN/XI/2018 2018-11-07 2018 W18-U/151/HK.01.10/XI/2018 2018-11-27 PERHIMPUNAN ADVOKAT INDONESIA (PERADI) VERSI OTTO HASIBUAN
605 604 SAIFUL L, S.H. MAKASAR - 30 Jan 1971 Islam Tenggarong KEP.15.0034/ADV/PERADI/DPN/XI/2018 2018-11-07 2018 W18-U/152/HK.01.10/I/2018 2018-11-27 PERHIMPUNAN ADVOKAT INDONESIA (PERADI) VERSI OTTO HASIBUAN
606 605 SALMAH NOVITA IZHAQ, S.H., M.H. PALU - 09 Nov 1993 Islam Samarinda KEP.15.0046/ADV/PERADI/DPN/XI/2018 2018-11-12 2018 W18-U/153/HK.01.10/XI/2018 2018-11-27 PERHIMPUNAN ADVOKAT INDONESIA (PERADI) VERSI OTTO HASIBUAN
607 606 SANTA RAHMADI, S.H. JAKARTA - 07 Sept 1990 Islam Samarinda KEP.15.0036/ADV/PERADI/DPN/XI/2018 2018-11-07 2018 W18-U/154/HK.01.10/XI/2018 2018-11-27 PERHIMPUNAN ADVOKAT INDONESIA (PERADI) VERSI OTTO HASIBUAN
608 607 SITI MUNAWARO, S.H. BALIKPAPAN - 02 Sept 1993 Islam Balikpapan KEP.15.0037/ADV/PERADI/DPN/XI/2018 2018-11-07 2018 W18-U/155/HK.01.10/XI/2018 2018-11-27 PERHIMPUNAN ADVOKAT INDONESIA (PERADI) VERSI OTTO HASIBUAN
609 608 SRI WAHYUNI, A.Md., S.H. PACITAN - 09 Juni 1977 Islam Balikpapan KEP.15.0022/ADV/PERADI/DPN/X/2018 2018-10-30 2018 W18-U/156/HK.01.10/XI/2018 2018-11-27 PERHIMPUNAN ADVOKAT INDONESIA (PERADI) VERSI OTTO HASIBUAN
610 609 SOFIAN IBNU HASYIM, S.H. TARAKAN - 04 Apr 1987 Islam Tarakan KEP.15.0038/ADV/PERADI/DPN/XI/2018 2018-11-07 2018 W18-U/157/HK.01.10/XI/2018 2018-11-27 PERHIMPUNAN ADVOKAT INDONESIA (PERADI) VERSI OTTO HASIBUAN
611 610 SYARIFAH RODIAH, S.H., S.E., M.M. BALIKPAPAN - 31 Jan 1968 Islam Balikpapan KEP.15.0039/ADV/PERADI/DPN/XI/2018 2018-11-07 2018 W18-U/158/HK.01.10/XI/2018 2018-11-27 PERHIMPUNAN ADVOKAT INDONESIA (PERADI) VERSI OTTO HASIBUAN
612 611 TONI ABIDIN, S.H. JOMBANG - 16 Juni 1978 Islam Bontang KEP.15.0040/ADV/PERADI/DPN/XI/2018 2018-11-07 2018 W18-U/159/HK.01.10/XI/2018 2018-11-27 PERHIMPUNAN ADVOKAT INDONESIA (PERADI) VERSI OTTO HASIBUAN
613 612 WIDI ASENO, S.H. PALU - 15 Jan 1982 Islam Samarinda KEP.15.0041/ADV/PERADI/DPN/XI/2018 2018-11-07 2018 W18-U/160/HK.01.10/XI/2018 2018-11-27 PERHIMPUNAN ADVOKAT INDONESIA (PERADI) VERSI OTTO HASIBUAN
614 613 ZUSRON, S.H. SAMARINDA - 08 Agust 1984 Islam Bontang KEP.15.0042/ADV/PERADI/DPN/XI/2018 2018-11-07 2018 W18-U/161/HK.01.10/XI/2018 2018-11-27 PERHIMPUNAN ADVOKAT INDONESIA (PERADI) VERSI OTTO HASIBUAN
615 614 SURYO HILAL, S.H., M.H. SAMARINDA - 08 Nov 1983 Islam Samarinda KEP.15.0050/ADV/PERADI/DPN/XI/2018 2018-11-06 2018 W18-U/162/HK.01.10/XI/2018 2018-11-27 PERHIMPUNAN ADVOKAT INDONESIA (PERADI) VERSI OTTO HASIBUAN
616 615 AHMAD WAHYUDI, S.H. TANAH GROGOT - 21 Apr 1989 Islam Penajam KEP.15.0048/ADV/PERADI/DPN/XI/2018 2018-11-16 2018 W18-U/163/HK.01.10/XI/2018 2018-11-27 PERHIMPUNAN ADVOKAT INDONESIA (PERADI) VERSI OTTO HASIBUAN
617 616 CHENDRA ADI SAPUTRA, S.H. SAMARINDA - 04 Agust 1991 Islam Samarinda KEP.15.0054/ADV/PERADI/DPN/XI/2018 2018-11-22 2018 W18-U/164/HK.01.10/XI/2018 2018-11-27 PERHIMPUNAN ADVOKAT INDONESIA (PERADI) VERSI OTTO HASIBUAN
618 617 DENY FAMUJI, S.H. TUBAN - 08 Feb 1986 Islam Tenggarong KEP.15.0051/ADV/PERADI/DPN/XI/2018 2018-11-22 2018 W18-U/165/HK.01.10/XI/2018 2018-11-27 PERHIMPUNAN ADVOKAT INDONESIA (PERADI) VERSI OTTO HASIBUAN
619 618 MUH. AS'AD, S.H. BONTANG - 30 Sept 1990 Islam Tenggarong KEP.15.0052/ADV/PERADI/DPN/XI/2018 2018-11-22 2018 W18-U/166/HK.01.10/XI/2018 2018-11-27 PERHIMPUNAN ADVOKAT INDONESIA (PERADI) VERSI OTTO HASIBUAN
620 619 TRISIA IRMAULI VIONA SIREGAR, S.H. BALIKPAPAN - 24 Nov 1978 Kristen Katholik Balikpapan KEP.15.0053/ADV/PERADI/DPN/XI/2018 2018-11-22 2018 W18-U/167/HK.01.10/XI/2018 2018-11-27 PERHIMPUNAN ADVOKAT INDONESIA (PERADI) VERSI OTTO HASIBUAN
621 620 MARINGANTUA DANIEL W.H. GULTOM, S.H. BALIKPAPAN - 15 Mar 1991 Kristen Protestan Balikpapan KEP.15.0053/ADV/PERADI/DPN/XI/2018 2018-11-22 2018 W18-U/168/HK.01.10/XI/2018 2018-11-27 PERHIMPUNAN ADVOKAT INDONESIA (PERADI) VERSI OTTO HASIBUAN
622 621 ADAM WIJAYA, S.H. SAMARINDA - 01 Jan 1991 Islam Samarinda KEP.027/PERADI.DPN/XI/2018 2018-11-26 2018 W18-U/169/HK.01.10/XII/2018 2018-12-19 PERHIMPUNAN ADVOKAT INDONESIA (PERADI) VERSI JUNIVER GIRSANG
623 622 AGUNG TRI REJEKI, S.H. SAMARINDA - 18 Sept 1988 Islam Samarinda KEP.027/PERADI.DPN/XI/2018 2018-11-26 2018 W18-U/170/HK.01.10/XII/2018 2018-12-19 PERHIMPUNAN ADVOKAT INDONESIA (PERADI) VERSI JUNIVER GIRSANG
624 623 ALFIAN NUR ASZARI, S.H. BALIKPAPAN - 01 Des 1964 Islam Balikpapan KEP.027/PERADI.DPN/XI/2018 2018-11-26 2018 W18-U/171/HK.01.10/XII/2018 2018-12-19 PERHIMPUNAN ADVOKAT INDONESIA (PERADI) VERSI JUNIVER GIRSANG
625 624 AMIRUDDIN, S.H. BILA LIU - 29 Okt 1985 Islam Tenggarong KEP.027/PERADI.DPN/XI/2018 2018-11-26 2018 W18-U/172/HK.01.10/XII/2018 2018-12-19 PERHIMPUNAN ADVOKAT INDONESIA (PERADI) VERSI JUNIVER GIRSANG
626 625 APRILIANSYAH, S.H. SAMARINDA - 01 Apr 1974 Islam Samarinda KEP.027/PERADI.DPN/XI/2018 2018-11-26 2018 W18-U/173/HK.01.10/XII/2018 2018-12-19 PERHIMPUNAN ADVOKAT INDONESIA (PERADI) VERSI JUNIVER GIRSANG
627 626 BARNABAS KALALEMBANG, S.H. MAKASAR - 12 Juni 1955 Kristen Protestan Samarinda KEP.027/PERADI.DPN/XI/2018 2018-11-26 2018 W18-U/174/HK.01.10/XII/2018 2018-12-19 PERHIMPUNAN ADVOKAT INDONESIA (PERADI) VERSI JUNIVER GIRSANG
628 627 BERNARD MARBUN, S.H. SAMARINDA - 27 Nov 1988 Kristen Protestan Samarinda KEP.027/PERADI.DPN/XI/2018 2018-11-26 2018 W18-U/175/HK.01.10/XII/2018 2018-12-19 PERHIMPUNAN ADVOKAT INDONESIA (PERADI) VERSI JUNIVER GIRSANG
629 628 BINARIDA KUSUMASTUTI, S.H. LOA JANAN - 01 Nov 1990 Islam Samarinda KEP.027/PERADI.DPN/XI/2018 2018-11-26 2018 W18-U/176/HK.01.10/XII/2018 2018-12-19 PERHIMPUNAN ADVOKAT INDONESIA (PERADI) VERSI JUNIVER GIRSANG
630 629 DENNI SOMBA, S.H. BALIKPAPAN - 10 Juni 1966 Kristen Protestan Balikpapan KEP.027/PERADI.DPN/XI/2018 2018-11-26 2018 W18-U/177/HK.01.10/XII/2018 2018-12-19 PERHIMPUNAN ADVOKAT INDONESIA (PERADI) VERSI JUNIVER GIRSANG
631 630 DIAN SAPUTRA, S.H., M.H. SAMARINDA - 02 Juni 1991 Islam Samarinda KEP.027/PERADI.DPN/XI/2018 2018-11-26 2018 W18-U/178/HK.01.10/XII/2018 2018-12-19 PERHIMPUNAN ADVOKAT INDONESIA (PERADI) VERSI JUNIVER GIRSANG
632 631 DIDIT ITON PURNAMA, S.H. MALANG - 17 Apr 1989 Islam Sangatta KEP.027/PERADI.DPN/XI/2018 2018-11-26 2018 W18-U/179/HK.01.10/XII/2018 2018-12-19 PERHIMPUNAN ADVOKAT INDONESIA (PERADI) VERSI JUNIVER GIRSANG
633 632 DINA PARAMITHA HEFNI PUTRI, S.H., M.H. SAMARINDA - 22 Juni 1987 Islam Samarinda KEP.027/PERADI.DPN/XI/2018 2018-11-26 2018 W18-U/180/HK.01.10/XII/2018 2018-12-19 PERHIMPUNAN ADVOKAT INDONESIA (PERADI) VERSI JUNIVER GIRSANG
634 633 DONA, S.H. DINGIN, S.H. - 30 Sept 1979 Kristen Katholik Samarinda KEP.027/PERADI.DPN/XI/2018 2018-11-26 2018 W18-U/181/HK.01.10/XII/2018 2018-12-19 PERHIMPUNAN ADVOKAT INDONESIA (PERADI) VERSI JUNIVER GIRSANG
635 634 EDI SUMARLIN, S.H. ANGGANA - 28 Feb 1993 Islam Tenggarong KEP.027/PERADI.DPN/XI/2018 2018-11-26 2018 W18-U/182/HK.01.10/XII/2018 2018-12-19 PERHIMPUNAN ADVOKAT INDONESIA (PERADI) VERSI JUNIVER GIRSANG
636 635 EKO SUMIHARSONO, S.H. BLITAR - 27 Jan 1967 Islam Samarinda KEP.027/PERADI.DPN/XI/2018 2018-11-26 2018 W18-U/183/HK.01.10/XII/2018 2018-12-19 PERHIMPUNAN ADVOKAT INDONESIA (PERADI) VERSI JUNIVER GIRSANG
637 636 EVA YULIANA, S.H.I. SAMARINDA - 26 Juli 1993 Islam Samarinda KEP.027/PERADI.DPN/XI/2018 2018-11-26 2018 W18-U/184/HK.01.10/XII/2018 2018-12-19 PERHIMPUNAN ADVOKAT INDONESIA (PERADI) VERSI JUNIVER GIRSANG
638 637 HABIL, S.H. SULI - 02 Apr 1984 Islam Tenggarong KEP.027/PERADI.DPN/XI/2018 2018-11-26 2018 W18-U/185/HK.01.10/XII/2018 2018-12-19 PERHIMPUNAN ADVOKAT INDONESIA (PERADI) VERSI JUNIVER GIRSANG
639 638 HASBULLAH, S.H. TARAKAN - 09 Okt 1992 Islam Tanjung Selor KEP.027/PERADI.DPN/XI/2018 2018-11-26 2018 W18-U/186/HK.01.10/XII/2018 2018-12-19 PERHIMPUNAN ADVOKAT INDONESIA (PERADI) VERSI JUNIVER GIRSANG
640 639 HELDA FEBRIANI, S.H.I SAMARINDA - 22 Jan 1993 Islam Samarinda KEP.027/PERADI.DPN/XI/2018 2018-11-26 2018 W18-U/187/HK.01.10/XII/2018 2018-12-19 PERHIMPUNAN ADVOKAT INDONESIA (PERADI) VERSI JUNIVER GIRSANG
641 640 HENDRA IRAWATY SY, AMD.KOM, S.H. BALIKPAPAN - 24 Jan 1981 Islam Balikpapan KEP.027/PERADI.DPN/XI/2018 2018-11-26 2018 W18-U/188/HK.01.10/XII/2018 2018-12-19 PERHIMPUNAN ADVOKAT INDONESIA (PERADI) VERSI JUNIVER GIRSANG
642 641 HERY SUGIARTO, S.H. MALANG - 03 Okt 1962 Islam Samarinda KEP.027/PERADI.DPN/XI/2018 2018-11-26 2018 W18-U/189/HK.01.10/XII/2018 2018-12-19 PERHIMPUNAN ADVOKAT INDONESIA (PERADI) VERSI JUNIVER GIRSANG
643 642 HIDAYATTUL MUTTAQIN, S.H.I., M.H. KOTA BANGUN - 06 Okt 1990 Islam Tenggarong KEP.027/PERADI.DPN/XI/2018 2018-11-26 2018 W18-U/190/HK.01.10/XII/2018 2018-12-19 PERHIMPUNAN ADVOKAT INDONESIA (PERADI) VERSI JUNIVER GIRSANG
644 643 IIN NOVIYANTI, S.H. SAMARINDA - 12 Nov 1986 Islam Samarinda KEP.027/PERADI.DPN/XI/2018 2018-11-26 2018 W18-U/191/HK.01.10/XII/2018 2018-12-19 PERHIMPUNAN ADVOKAT INDONESIA (PERADI) VERSI JUNIVER GIRSANG
645 644 IMAM RIDHO ARROBBI, S.H., M.H. BALIKPAPAN - 12 Mei 1990 Islam Balikpapan KEP.027/PERADI.DPN/XI/2018 2018-11-26 2018 W18-U/192/HK.01.10/XII/2018 2018-12-19 PERHIMPUNAN ADVOKAT INDONESIA (PERADI) VERSI JUNIVER GIRSANG
646 645 JONI SINATRA GINTING, S.H., M.H. MEDAN - 01 Juni 1968 Kristen Katholik Samarinda KEP.027/PERADI.DPN/XI/2018 2018-11-26 2018 W18-U/193/HK.01.10/XII/2018 2018-12-19 PERHIMPUNAN ADVOKAT INDONESIA (PERADI) VERSI JUNIVER GIRSANG
647 646 KUNTI WIDAYATI, S.H., M.Hum. PATI - 14 Sept 1953 Islam Samarinda KEP.027/PERADI.DPN/XI/2018 2018-11-26 2018 W18-U/194/HK.01.10/XII/2018 2018-12-19 PERHIMPUNAN ADVOKAT INDONESIA (PERADI) VERSI JUNIVER GIRSANG
648 647 LUSIANA ARIFIN BALLACO, S.H. MAKASAR - 18 Agust 1993 Kristen Protestan Samarinda KEP.027/PERADI.DPN/XI/2018 2018-11-26 2018 W18-U/195/HK.01.10/XII/2018 2018-12-19 PERHIMPUNAN ADVOKAT INDONESIA (PERADI) VERSI JUNIVER GIRSANG
649 648 M. HASIHOLAN LBN TUNGKUP, S.H. ACEH PIDIE - 29 Agust 1981 Kristen Protestan Sangatta KEP.027/PERADI.DPN/XI/2018 2018-11-26 2018 W18-U/196/HK.01.10/XII/2018 2018-12-19 PERHIMPUNAN ADVOKAT INDONESIA (PERADI) VERSI JUNIVER GIRSANG
650 649 MIKAEL SENGIANG, S.H. BATU MAJANG - 20 Sept 1988 Kristen Protestan Tanjung Redeb KEP.027/PERADI.DPN/XI/2018 2018-11-26 2018 W18-U/197/HK.01.10/XII/2018 2018-12-19 PERHIMPUNAN ADVOKAT INDONESIA (PERADI) VERSI JUNIVER GIRSANG
651 650 MUHAMMAD SALAHUDDIN AL AZIZ, S.H. JEPARA - 22 Nov 1984 Islam Sangatta KEP.027/PERADI.DPN/XI/2018 2018-11-26 2018 W18-U/198/HK.01.10/XII/2018 2018-12-19 PERHIMPUNAN ADVOKAT INDONESIA (PERADI) VERSI JUNIVER GIRSANG
652 651 MUHAMMAD RIDHO ANSHARI, S.H.I., M.H. SAMARINDA - 12 Agust 1991 Islam Samarinda KEP.027/PERADI.DPN/XI/2018 2018-11-26 2018 W18-U/199/HK.01.10/XII/2018 2018-12-19 PERHIMPUNAN ADVOKAT INDONESIA (PERADI) VERSI JUNIVER GIRSANG
653 652 RAHMATULLAH, S.H. SAMARINDA - 04 Mar 1993 Islam Kutai Barat KEP.027/PERADI.DPN/XI/2018 2018-11-26 2018 W18-U/200/HK.01.10/XII/2018 2018-12-19 PERHIMPUNAN ADVOKAT INDONESIA (PERADI) VERSI JUNIVER GIRSANG
654 653 RAKKA, S.H., M.H. SAMARINDA - 05 Feb 1985 Islam Samarinda KEP.027/PERADI.DPN/XI/2018 2018-11-26 2018 W18-U/201/HK.01.10/XII/2018 2018-12-19 PERHIMPUNAN ADVOKAT INDONESIA (PERADI) VERSI JUNIVER GIRSANG
655 654 RAMOT SIDEBANG, S.H. PARINGIN - 22 Juli 1993 Kristen Protestan Samarinda KEP.027/PERADI.DPN/XI/2018 2018-11-26 2018 W18-U/202/HK.01.10/XII/2018 2018-12-19 PERHIMPUNAN ADVOKAT INDONESIA (PERADI) VERSI JUNIVER GIRSANG
656 655 RITA ARTATY BARITO, S.H. SAMARINDA - 21 Apr 1971 Islam Samarinda KEP.027/PERADI.DPN/XI/2018 2018-11-26 2018 W18-U/203/HK.01.10/XII/2018 2018-12-19 PERHIMPUNAN ADVOKAT INDONESIA (PERADI) VERSI JUNIVER GIRSANG
657 656 RIZKY MARDA AMALIA, S.H., M.H. SAMARINDA - 19 Mar 1992 Islam Samarinda KEP.027/PERADI.DPN/XI/2018 2018-11-26 2018 W18-U/204/HK.01.10/XII/2018 2018-12-19 PERHIMPUNAN ADVOKAT INDONESIA (PERADI) VERSI JUNIVER GIRSANG
658 657 ROFIQUL ULUM, S.H. SAMARINDA - 09 Juni 1990 Islam Samarinda KEP.027/PERADI.DPN/XI/2018 2018-11-26 2018 W18-U/205/HK.01.10/XII/2018 2018-12-19 PERHIMPUNAN ADVOKAT INDONESIA (PERADI) VERSI JUNIVER GIRSANG
659 658 RUDI PRIANTO, S.H. LAMONGAN - 08 Agust 1973 Islam Samarinda KEP.027/PERADI.DPN/XI/2018 2018-11-26 2018 W18-U/206/HK.01.10/XII/2018 2018-12-19 PERHIMPUNAN ADVOKAT INDONESIA (PERADI) VERSI JUNIVER GIRSANG
660 659 RUSNIWATI AYU SYAFITRI, S.H. PALU - 17 Mei 1986 Islam Tenggarong KEP.027/PERADI.DPN/XI/2018 2018-11-26 2018 W18-U/207/HK.01.10/XII/2018 2018-12-19 PERHIMPUNAN ADVOKAT INDONESIA (PERADI) VERSI JUNIVER GIRSANG
661 660 SABRIANTO, S.H. PINRANG - 03 Feb 1983 Islam Samarinda KEP.027/PERADI.DPN/XI/2018 2018-11-26 2018 W18-U/208/HK.01.10/XII/2018 2018-12-19 PERHIMPUNAN ADVOKAT INDONESIA (PERADI) VERSI JUNIVER GIRSANG
662 661 SEFTI NOORWIDYA ARIANI, S.H. SAMARINDA - 09 Sept 1993 Islam Samarinda KEP.027/PERADI.DPN/XI/2018 2018-11-26 2018 W18-U/209/HK.01.10/XII/2018 2018-12-19 PERHIMPUNAN ADVOKAT INDONESIA (PERADI) VERSI JUNIVER GIRSANG
663 662 SHINTA PRATIWI, S.H. SAMARINDA - 25 Jan 1993 Islam Samarinda KEP.027/PERADI.DPN/XI/2018 2018-11-26 2018 W18-U/210/HK.01.10/XII/2018 2018-12-19 PERHIMPUNAN ADVOKAT INDONESIA (PERADI) VERSI JUNIVER GIRSANG
664 663 SIMON JAANG, S.H. LONG ISUN - 04 Sept 1972 Kristen Katholik Samarinda KEP.027/PERADI.DPN/XI/2018 2018-11-26 2018 W18-U/211/HK.01.10/XII/2018 2018-12-19 PERHIMPUNAN ADVOKAT INDONESIA (PERADI) VERSI JUNIVER GIRSANG
665 664 SLAMET HARIYANTO, S.H. BANJARMASIN - 21 Jan 1987 Islam Samarinda KEP.027/PERADI.DPN/XI/2018 2018-11-26 2018 W18-U/212/HK.01.10/XII/2018 2018-12-19 PERHIMPUNAN ADVOKAT INDONESIA (PERADI) VERSI JUNIVER GIRSANG
666 665 SURPANI, S.H. MUARA JAWA - 21 Apr 1981 Islam Samarinda KEP.027/PERADI.DPN/XI/2018 2018-11-26 2018 W18-U/214/HK.01.10/XII/2018 2018-12-19 PERHIMPUNAN ADVOKAT INDONESIA (PERADI) VERSI JUNIVER GIRSANG
667 666 SUPARDI, S.H. KAMPUNG BARU - 04 Mar 1989 Islam Tenggarong KEP.027/PERADI.DPN/XI/2018 2018-11-26 2018 W18-U/213/HK.01.10/XII/2018 2018-12-19 PERHIMPUNAN ADVOKAT INDONESIA (PERADI) VERSI JUNIVER GIRSANG
668 667 THEODORUS GUNATUR EMMANOEL BARTHO, S.H. MANSALONG - 03 Des 1986 Kristen Protestan Malinau KEP.027/PERADI.DPN/XI/2018 2018-11-26 2018 W18-U/215/HK.01.10/XII/2018 2018-12-19 PERHIMPUNAN ADVOKAT INDONESIA (PERADI) VERSI JUNIVER GIRSANG
669 668 NATALIS LAPANG WADA, S.H. ADABANG - 21 Nov 1988 Kristen Katholik Samarinda KEP.027/PERADI.DPN/XI/2018 2018-11-26 2018 W18-U/216/HK.01.10/XII/2018 2018-12-19 PERHIMPUNAN ADVOKAT INDONESIA (PERADI) VERSI JUNIVER GIRSANG
670 669 PRISKA NAULITA SITANGGANG, S.H. SIBOLGA - 21 Agust 1988 Kristen Protestan Tenggarong KEP.027/PERADI.DPN/XI/2018 2018-11-26 2018 W18-U/217/HK.01.10/XII/2018 2018-12-19 PERHIMPUNAN ADVOKAT INDONESIA (PERADI) VERSI JUNIVER GIRSANG
671 670 SISWANTO, S.H. BANYUWANGI - 16 Mei 1959 Islam Samarinda KEP.027/PERADI.DPN/XI/2018 2018-11-26 2018 W18-U/218/HK.01.10/XII/2018 2018-12-19 PERHIMPUNAN ADVOKAT INDONESIA (PERADI) VERSI JUNIVER GIRSANG
672 671 WIHELMUS TERRYANTO, S.H. BANDUNG - 24 Juni 1960 Kristen Katholik Samarinda KEP.027/PERADI.DPN/XI/2018 2018-11-26 2018 W18-U/219/HK.01.10/XII/2018 2018-12-19 PERHIMPUNAN ADVOKAT INDONESIA (PERADI) VERSI JUNIVER GIRSANG
673 672 SOONY SIMANJUNTAK, S.H. BALIKPAPAN - 24 Mei 1987 Kristen Protestan Bontang KEP.027/PERADI.DPN/XI/2018 2018-11-26 2018 W18-U/220/HK.01.10/XII/2018 2018-12-19 PERHIMPUNAN ADVOKAT INDONESIA (PERADI) VERSI JUNIVER GIRSANG
674 673 ASMAHWATI, S.H. LEMPATAN BARU - 10 Nov 1981 Islam Tenggarong Kep.23-080-X.2018 2018-10-08 2019 W18-U/01/HK.01.10/I/2019 2019-01-17 PERKUMPULAN ADVOKAT INDONESIA (PERADIN)
675 674 BAMBANG ILHAM JUHRIE, S.H. SAMARINDA - 27 Jan 1972 Islam Samarinda Kep.23.075-X.2018 2018-10-08 2019 W18-U/02/HK.01.10/I/2019 2019-01-17 PERKUMPULAN ADVOKAT INDONESIA (PERADIN)
676 675 CHRISTIANY PELSIUS, S.H. SAMARINDA - 16 Feb 1983 Kristen Katholik Kutai Barat Kep.23.085-X.2018 2018-10-08 2019 W18-U/03/HK.01.10/I/2019 2019-01-17 PERKUMPULAN ADVOKAT INDONESIA (PERADIN)
677 676 DARDIANSYAH, S.Sos., S.H., M.H. SANGA-SANGA - 17 Nov 1961 Islam Tenggarong Kep.23.077-X.2018 2018-10-08 2019 W18-U/04/HK.01.10/I/2019 2019-01-17 PERKUMPULAN ADVOKAT INDONESIA (PERADIN)
678 677 DESSY APRILENY, S.H. PONTIANAK - 05 Apr 1978 Islam Tanjung Redeb Kep.23.083-X.2018 2018-10-03 2019 W18-U/05/HK.01.10/I/2019 2019-01-17 PERKUMPULAN ADVOKAT INDONESIA (PERADIN)
679 678 DORIS RATU ANDY POPANG, S.H. KENDARI - 20 Des 1969 Kristen Protestan Tanjung Redeb Kep.23.079-X.2018 2018-10-03 2019 W18-U/06/HK.01.10/I/2019 2019-01-17 PERKUMPULAN ADVOKAT INDONESIA (PERADIN)
680 679 HIKMAWAN PRIMANSYAH, S.H. TANGERANG - 28 Des 1981 Islam Tenggarong Kep.23.082-X.2018 2018-10-08 2019 W18-U/07/HK.01.10/I/2019 2019-01-17 PERKUMPULAN ADVOKAT INDONESIA (PERADIN)
681 680 MANSYUR, S.H. SOKI - 21 Juli 1993 Islam Tenggarong Kep.23.076-X.2018 2018-10-08 2019 W18-U/08/HK.01.10/I/2019 2019-01-17 PERKUMPULAN ADVOKAT INDONESIA (PERADIN)
682 681 ABDUL KARIM, S.H. PENUNJAK - 18 Mei 1979 Islam Sangatta 08378/023/SK-ADV/KAI/VI/2019 2019-06-19 2019 W18-U/09/HK.01.10/VI/2019 2019-06-19 KONGRES ADVOKAT INDONESIA (KAI) VERSI INDRA SAHNUN LUBIS
683 682 ACHMAD RAJIB SUBEKTI, S.H. TANGERANG - 22 Des 1993 Islam Samarinda 08379/023/SK-ADV/KAI/VI/2019 2019-06-19 2019 W18-U/10/HK.01.10/VI/2019 2019-06-19 PERKUMPULAN ADVOKAT INDONESIA (PERADIN)
684 683 ADHIE SETIAWAN, S.H. Samarinda - 22 Mar 1984 Islam Samarinda 08380/023/SK-ADV/KAI/VI2019 2019-06-19 2019 W18-U/11/HK.01.10/VI/2019 2019-06-19 KONGRES ADVOKAT INDONESIA (KAI) VERSI INDRA SAHNUN LUBIS
685 684 ADI HERI PURWANTO, S.H. Jakarta - 21 Okt 1983 Islam Samarinda 08381/023/SK-ADV/KAI/VI/2019 2019-06-19 2019 W18-U/12/HK.01.10/VI/2019 2019-06-19 KONGRES ADVOKAT INDONESIA (KAI) VERSI INDRA SAHNUN LUBIS
686 685 AJANG IRIYANTO, S.H. Balikpapan - 12 Des 1960 Kristen Katholik Samarinda 08382/023/SK-ADV/KAI/VI/2019 2019-06-19 2019 W18-U/13/HK.01.10/VI/2019 2019-06-19 KONGRES ADVOKAT INDONESIA (KAI) VERSI INDRA SAHNUN LUBIS
687 686 ALEXANDER DAUNG, S.H. TIONG OHANG - 27 Juli 1976 Kristen Katholik Kutai Barat 08383/023/SK-ADV/KAI/VI/2019 2019-06-19 2019 W18-U/14/HK.01.10/VI/2019 2019-06-19 KONGRES ADVOKAT INDONESIA (KAI) VERSI INDRA SAHNUN LUBIS
688 687 AMIRULLAH SIAHAAN, S.H,. M.Si. PAMANTANG SIANTAR - 11 Feb 1958 Kristen Protestan Samarinda 08384/023/SK-ADV/KAI/VI/2019 2019-06-19 2019 W18-U/15/HK.01.10/VI/2019 2019-06-19 KONGRES ADVOKAT INDONESIA (KAI) VERSI INDRA SAHNUN LUBIS
689 688 ANDI ALAUDIN, S.H. Samarinda - 07 Agust 1988 Islam Samarinda 08385/023/SK-ADV/KAI/VI2019 2019-06-19 2019 W18-U/16/HK.01.10/VI/2019 2019-06-19 KONGRES ADVOKAT INDONESIA (KAI) VERSI INDRA SAHNUN LUBIS
690 689 ANITA MAYANG SARI, S.H. Samarinda - 05 Okt 1992 Islam Samarinda 08386/023/SK-ADV/KAI/VI/2019 2019-06-19 2019 W18-U/17/HK.01.10/VI/2019 2019-06-19 KONGRES ADVOKAT INDONESIA (KAI) VERSI INDRA SAHNUN LUBIS
691 690 ARIFUDDIN, S.H. Ujung Pandang - 21 Apr 1962 Islam Samarinda 08387/023/SK-ADV/KAI/VI/2019 2019-06-19 2019 W18-U/18/HK.01.10/VI/2019 2019-06-19 KONGRES ADVOKAT INDONESIA (KAI) VERSI INDRA SAHNUN LUBIS
692 691 AWANG ZULKIFLI, S.H. Samarinda - 06 Sept 1961 Islam Samarinda 08389/023/SK-ADV/KAI/VI/2019 2019-06-19 2019 W18-U/19/HK.01.10/VI/2019 2019-06-19 KONGRES ADVOKAT INDONESIA (KAI) VERSI INDRA SAHNUN LUBIS
693 692 DIAH RESTY FAULIA, S.H. Samarinda - 04 Okt 1992 Islam Samarinda 08390/023/SK-ADV/KAI/VI2019 2019-06-19 2019 W18-U/20/HK.01.10/VI/2019 2019-06-19 KONGRES ADVOKAT INDONESIA (KAI) VERSI INDRA SAHNUN LUBIS
694 693 ERLYTA NATALIA SIHOTANG, S.H. Samarinda - 17 Des 1992 Kristen Katholik Samarinda 08391/023/SK-ADV/KAI/VI2019 2019-06-19 2019 W18-U/21/HK.01.10/VI/2019 2019-06-19 KONGRES ADVOKAT INDONESIA (KAI) VERSI INDRA SAHNUN LUBIS
695 694 FACHRIAL AZMI, S.H. Samarinda - 16 Juli 1992 Islam Samarinda 08392/023/SK-ADV/KAI/VI2019 2019-06-19 2019 W18-U/22/HK.01.10/VI/2019 2019-06-19 KONGRES ADVOKAT INDONESIA (KAI) VERSI INDRA SAHNUN LUBIS
696 695 IGNASIUS APONG, S.H. Muara Tae - 17 Nov 1991 Kristen Katholik Kutai Barat 08394/023/SK-ADV/KAI/VI/2019 2019-06-19 2019 W18-U/23/HK.01.10/VI/2019 2019-06-19 KONGRES ADVOKAT INDONESIA (KAI) VERSI INDRA SAHNUN LUBIS
697 696 LINA ANDRIANA, S.H. TENGGARONG - 18 Des 1983 Islam Tenggarong 08395/023/SK-ADV/KAI/VI/2019 2019-06-19 2019 W18-U/24/HK.01.10/VI/2019 2019-06-19 KONGRES ADVOKAT INDONESIA (KAI) VERSI INDRA SAHNUN LUBIS
698 697 MANATAP SIMORANGKIR, S.H. LUMBAN BALIAN - 28 Sept 1978 Kristen Protestan Samarinda 08396/023/SK-ADV/KAI/VI/2019 2019-06-19 2019 W18-U/25/HK.01.10/VI/2019 2019-06-19 KONGRES ADVOKAT INDONESIA (KAI) VERSI INDRA SAHNUN LUBIS
699 698 MARDIANA, S.H. BANJARMASIN - 05 Juli 1975 Islam Tenggarong 08397/023/SK-ADV/KAI/VI/2019 2019-06-19 2019 W18-U/26/HK.01.10/VI/2019 2019-06-19 KONGRES ADVOKAT INDONESIA (KAI) VERSI INDRA SAHNUN LUBIS
700 699 MOHAMMAD sAIFULLAH, S.H. Samarinda - 18 Apr 1983 Islam Samarinda 08398/023/SK-ADV/KAI/VI/2019 2019-06-19 2019 W18-U/27/HK.01.10/VI/2019 2019-06-19 KONGRES ADVOKAT INDONESIA (KAI) VERSI INDRA SAHNUN LUBIS
701 700 MUHAMMAD MASYRUH, S.H. Lamongan - 02 Mar 1990 Islam Samarinda 08399/023/SK-ADV/KAI/VI/2019 2019-06-19 2019 W18-U/28/HK.01.10/VI/2019 2019-06-19 KONGRES ADVOKAT INDONESIA (KAI) VERSI INDRA SAHNUN LUBIS
702 701 MUHAMMAD YUSUF, S.H. LOA JANAN - 05 Juni 1980 Islam Tenggarong 08400/023/SK-ADV/KAI/VI/2019 2019-06-19 2019 W18-U293/HK.01.10/VI/2019 2019-06-19 KONGRES ADVOKAT INDONESIA (KAI) VERSI INDRA SAHNUN LUBIS
703 702 RADIUS, S.H. Muara Nilik - 05 Sept 1981 Kristen Katholik Samarinda 08401/023/SK-ADV/KAI/VI/2019 2019-06-19 2019 W18-U/30/HK.01.10/VI/2019 2019-06-19 KONGRES ADVOKAT INDONESIA (KAI) VERSI INDRA SAHNUN LUBIS
704 703 SAMSUNI, S.H. TENGGARONG - 11 Apr 1968 Islam Samarinda 08402/023/SK-ADV/KAI/VI/2019 2019-06-19 2019 W18-U/31/HK.01.10/VI/2019 2019-06-19 KONGRES ADVOKAT INDONESIA (KAI) VERSI INDRA SAHNUN LUBIS
705 704 SARMOTO , S.H. Dilang Puti - 01 Feb 1990 Islam Samarinda 08403/023/SK-ADV/KAI/VI/2019 2019-06-19 2019 W18-U/32/HK.01.10/VI/2019 2019-06-19 KONGRES ADVOKAT INDONESIA (KAI) VERSI INDRA SAHNUN LUBIS
706 705 SAYID SYEH ASSEGAF, S.H. Balikpapan - 13 Mei 1982 Islam Balikpapan 08404/023/SK-ADV/KAI/VI/2019 2019-06-19 2019 W18-U/33/HK.01.10/VI/2019 2019-06-19 KONGRES ADVOKAT INDONESIA (KAI) VERSI INDRA SAHNUN LUBIS
707 706 SELVINA, S.H., M.Si. LONG IRAM - 22 Apr 1980 Kristen Protestan Kutai Barat 08405/023/SK-ADV/KAI/VI/2019 2019-06-19 2019 W18-U/34/HK.01.10/VI/2019 2019-06-19 KONGRES ADVOKAT INDONESIA (KAI) VERSI INDRA SAHNUN LUBIS
708 707 SOLO SIMANJUNTAK, S.H. PINANG RATUS - 17 Juni 1958 Kristen Katholik Samarinda 08406/023/SK-ADV/KAI/VI/2019 2019-06-19 2019 W18-U/35/HK.01.10/VI/2019 2019-06-19 KONGRES ADVOKAT INDONESIA (KAI) VERSI INDRA SAHNUN LUBIS
709 708 SUPARMAN, S.H. Madiun - 08 Apr 1960 Islam Nunukan 08407/023/SK-ADV/KAI/VI/2019 2019-06-19 2019 W18-U/36/HK.01.10/VI/2019 2019-06-19 KONGRES ADVOKAT INDONESIA (KAI) VERSI INDRA SAHNUN LUBIS
710 709 SURYA BUDI, S.H. Samarinda - 02 Okt 1976 Islam Samarinda 08408/023/SK-ADV/KAI/VI/019 2019-06-19 2019 W18-U/37/HK.01.10/VI/2019 2019-06-19 KONGRES ADVOKAT INDONESIA (KAI) VERSI INDRA SAHNUN LUBIS
711 710 SURYO UTOMO, S.H. Jakarta - 12 Des 1986 Islam Tenggarong 08409/023/SK-ADV/KAI/VI/2019 2019-06-19 2019 W18-U/38/HK.01.10/VI/2019 2019-06-19 KONGRES ADVOKAT INDONESIA (KAI) VERSI INDRA SAHNUN LUBIS
712 711 TEDDI KAMA SINAGA, S.H. TARUTUNG - 01 Apr 1968 Kristen Katholik Samarinda 08410/023/SK-ADV/KAI/VI/2019 2019-06-19 2019 W18-U/39/HK.01.10/VI/2019 2019-06-19 KONGRES ADVOKAT INDONESIA (KAI) VERSI INDRA SAHNUN LUBIS
713 712 TERESIA KUN MARTILAH, S.H. BANYUWANGI - 05 Mei 1967 Kristen Katholik Samarinda 08411/023/SK-ADV/KAI/VI/2019 2019-06-19 2019 W18-U/40/HK.01.10/VI/2019 2019-06-19 KONGRES ADVOKAT INDONESIA (KAI) VERSI INDRA SAHNUN LUBIS
714 713 YULI YANTI MANALU. S.H. Samarinda - 27 Jan 1993 Islam Samarinda 08412/023/SK-ADV/KAI/VI/2019 2019-06-19 2019 W18-U/41/HK.01.10/VI/2019 2019-06-19 KONGRES ADVOKAT INDONESIA (KAI) VERSI INDRA SAHNUN LUBIS
715 714 ZAINAL ARIFIN, S.H. Samarinda - 14 Jan 1963 Islam Tanjung Selor 08413/023/SK-ADV/KAI/VI/2019 2019-06-19 2019 W18-U/42/HK.01.10/VI/2019 2019-06-19 KONGRES ADVOKAT INDONESIA (KAI) VERSI INDRA SAHNUN LUBIS
716 715 PERANTI MANALU, S.H. AEKRAJA - 26 Jan 1991 Kristen Protestan Samarinda 08414/023/SK-ADV/KAI/VI/2019 2019-06-19 2019 W18-U/43/HK.01.10/VI/2019 2019-06-19 KONGRES ADVOKAT INDONESIA (KAI) VERSI INDRA SAHNUN LUBIS
717 716 SIREGAR FERNANDO THOMAS MARTUA, S.H. Samarinda - 21 Mei 1994 Kristen Protestan Samarinda 08415/023/SK-ADV/KAI/VI/2019 2019-06-19 2019 W18-U/44/HK.01.10/VI/2019 2019-06-19 KONGRES ADVOKAT INDONESIA (KAI) VERSI INDRA SAHNUN LUBIS
718 717 MUHAMMAD YUSUF, S.H. TARAKAN - 29 Okt 1984 Islam Tarakan 07745/012/SK-ADV/KAI/VI/2018 2018-04-30 2019 W18-U/45/HK.01.10/VI/2019 2019-06-19 KONGRES ADVOKAT INDONESIA (KAI) VERSI INDRA SAHNUN LUBIS
719 718 RULIYANA, S.H. Salengkote - 05 Juni 1981 Islam Tanjung Selor 07744/034/SK-ADV/KAI/VI/2018 2018-04-30 2019 W18-U/46/HK.01.10/VI/2019 2019-06-19 KONGRES ADVOKAT INDONESIA (KAI) VERSI INDRA SAHNUN LUBIS
720 719 ISWAYUDI WIJAYANTO, S.H. Surabaya - 03 Apr 1983 Islam Balikpapan 01379/023/SK-ADV/KAI/VI/2010 2010-06-20 2019 W18-U/47/HK.01.10/VI/2019 2019-06-19 KONGRES ADVOKAT INDONESIA (KAI) VERSI INDRA SAHNUN LUBIS
721 720 LUCKY PARENGKUAN, S.H. Samarinda - 28 Mar 1974 Budha Samarinda 02166/025/SK-ADV/KAI/VI/2012 2012-05-07 2019 W18-U/48/HK.01.10/VI/2019 2019-06-19 KONGRES ADVOKAT INDONESIA (KAI) VERSI INDRA SAHNUN LUBIS
722 721 DESY RATNA SARI , S.H. Samarinda - 21 Mei 1993 Islam Samarinda 07645/023/SK-ADV/KAI/III/2019 2012-03-28 2019 W18-U/49/HK.01.10/VI/2019 2019-06-19 KONGRES ADVOKAT INDONESIA (KAI) VERSI INDRA SAHNUN LUBIS
723 724 H. AIDAR, S.h., M.H. Teluk Bayur - 14 Apr 1960 Islam Tanjung Redeb 07671/023/SK-ADV/KAI/VI2018 2018-03-28 2019 W18-U/50/HK.01.10/VI/2019 2019-06-19 KONGRES ADVOKAT INDONESIA (KAI) VERSI INDRA SAHNUN LUBIS
724 725 AMRIZAL,S.H. Balikpapan - 15 Nov 1994 Islam Penajam KEP.15.0036/ADV/PERAD/DPN/XII/2019 2019-12-02 2019 W18-U/51/HK.01.10/XII/2019 2019-12-17 PERHIMPUNAN ADVOKAT INDONESIA (PERADI) VERSI OTTO HASIBUAN
725 726 BAYU PRASETYO,S.H.,M.H. PERDANA - 02 Mei 1994 Islam Tenggarong KEP.15.0037/ADV/PERAD/DPN/XII/2019 2019-12-02 2019 W18-U/52/HK.01.10/XII/2019 2019-12-17 PERHIMPUNAN ADVOKAT INDONESIA (PERADI) VERSI OTTO HASIBUAN
726 727 FADJRIN, S.H. Balikpapan - 21 Juli 1988 Islam Samarinda KEP.15.0038/ADV/PERAD/DPN/XII/2019 2019-12-02 2019 W18-U/53/HK.01.10/VI/2019 2019-12-17 PERHIMPUNAN ADVOKAT INDONESIA (PERADI) VERSI OTTO HASIBUAN
727 728 JEMAIN, S.H., M.H. Lamongan - 19 Apr 1967 Islam Samarinda KEP.15.0039/ADV/PERADI/DPN/XII/2019 2019-12-02 2019 W18-U/54/HK.01.10/XII/2019 2019-12-17 PERHIMPUNAN ADVOKAT INDONESIA (PERADI) VERSI OTTO HASIBUAN
728 729 KIRANA WIBOWO, S.H. SITUBONDO - 17 Sept 1967 Islam Tenggarong KEP.15.0040/ADV/PERADI/DPN/XII/2019 2019-12-02 2019 W18-U/55/HK.01.10/XII/2019 2019-12-17 PERHIMPUNAN ADVOKAT INDONESIA (PERADI) VERSI OTTO HASIBUAN
729 730 MAHMUD JAELANI, S.H. Malang - 20 Nov 1981 Islam Samarinda KEP.15.0041/ADV/PERADI/DPN/XII/2019 2019-12-02 2019 W18-U/56/HK.01.10/XII/2019 2019-12-17 PERHIMPUNAN ADVOKAT INDONESIA (PERADI) VERSI OTTO HASIBUAN
730 731 NOVAN ABY PRASETYA TAMA, S.H. Lamongan - 28 Nov 1994 Islam Balikpapan KEP.15.0042/ADV/PERADI/DPN/XII/2019 2019-12-02 2019 W18-U/57/HK.01.10/XII/2019 2019-12-17 PERHIMPUNAN ADVOKAT INDONESIA (PERADI) VERSI OTTO HASIBUAN
731 732 ZULKIFLI, S.H. Pekkabata - 23 Nov 1994 Islam Balikpapan KEP.15.0044/ADV/PERADI/DPN/XII/2019 2019-12-02 2019 W18-U/58/HK.01.10/XII/2019 2019-12-17 PERHIMPUNAN ADVOKAT INDONESIA (PERADI) VERSI OTTO HASIBUAN
732 733 H. SULARNO, S.SOS., S.H. Magetan - 12 Juni 1967 Islam Samarinda KEP.15.0040/ADV/PERADI/DPN/X/2019 2019-10-22 2019 W18-U/59/HK.01.10/XII/2019 2019-12-17 PERHIMPUNAN ADVOKAT INDONESIA (PERADI) VERSI OTTO HASIBUAN
733 734 INDAH LESTARI OKTRISIATI, S.H., M.H., C.L.A. Balikpapan - 08 Okt 1984 Islam Balikpapan KEP.15.0036/ADV/PERADI/DPN/X/2019 2019-10-22 2019 W18-U/60/HK.01.10/XII/2019 2019-12-22 PERHIMPUNAN ADVOKAT INDONESIA (PERADI) VERSI OTTO HASIBUAN
734 735 VOSELINDA PRAMESWARI, S.H. Bontang - 05 Apr 1994 Islam Bontang